Provisional Data: South Branch Codorus Creek near Leader Heights, PA


Please select a monitoring station.
Please select start date.
Please select start date.

Toggle Unit: C/F Toggle Unit: C/F
Sample Time Temperature (C) Temperature (F) Specific Conductivity (mS/cm) pH   Turbidity (NTU+) DO (mg/L)
12/23/2022 12:00:00 AM 4.91 40.838 0.219 7.46 110.2 12.46
12/23/2022 12:15:00 AM 4.96 40.928 0.215 7.48 121.6 12.42
12/23/2022 12:30:00 AM 5 41 0.214 7.46 135.3 12.37
12/23/2022 12:45:00 AM 5.04 41.072 0.212 7.46 143.1 12.36
12/23/2022 1:00:00 AM 5.08 41.144 0.213 7.45 151.9 12.32
12/23/2022 1:15:00 AM 5.12 41.216 0.216 7.45 188.9 12.28
12/23/2022 1:30:00 AM 5.17 41.306 0.221 7.46 192.9 12.23
12/23/2022 1:45:00 AM 5.22 41.396 0.223 7.46 188.6 12.17
12/23/2022 2:00:00 AM 5.28 41.504 0.221 7.45 237.2 12.15
12/23/2022 2:15:00 AM 5.33 41.594 0.217 7.45 237.1 12.12
12/23/2022 2:30:00 AM 5.4 41.72 0.214 7.42 250.2 12.05
12/23/2022 2:45:00 AM 5.46 41.828 0.211 7.44 301.6 12.01
12/23/2022 3:00:00 AM 5.52 41.936 0.208 7.41 298.5 11.97
12/23/2022 3:15:00 AM 5.58 42.044 0.206 7.4 308 11.93
12/23/2022 3:30:00 AM 5.64 42.152 0.204 7.42 335.4 11.88
12/23/2022 3:45:00 AM 5.71 42.278 0.201 7.38 348.3 11.83
12/23/2022 4:00:00 AM 5.75 42.35 0.2 7.39 395 11.8
12/23/2022 4:15:00 AM 5.79 42.422 0.198 7.4 337.1 11.77
12/23/2022 4:30:00 AM 5.82 42.476 0.198 7.4 387.2 11.75
12/23/2022 4:45:00 AM 5.84 42.512 0.201 7.38 397.9 11.72
12/23/2022 5:00:00 AM 5.85 42.53 0.203 7.38 361.5 11.71
12/23/2022 5:15:00 AM 5.87 42.566 0.203 7.37 343.8 11.7
12/23/2022 5:30:00 AM 5.89 42.602 0.199 7.37 356.4 11.68
12/23/2022 5:45:00 AM 5.89 42.602 0.194 7.39 351.3 11.69
12/23/2022 6:00:00 AM 5.88 42.584 0.19 7.39 262.6 11.69
12/23/2022 6:15:00 AM 5.88 42.584 0.186 7.37 301.5 11.68
12/23/2022 6:30:00 AM 5.89 42.602 0.183 7.38 276.6 11.67
12/23/2022 6:45:00 AM 5.9 42.62 0.18 7.37 311.2 11.68
12/23/2022 7:00:00 AM 5.89 42.602 0.18 7.38 272.5 11.68
12/23/2022 7:15:00 AM 5.89 42.602 0.178 7.37 273.9 11.68
12/23/2022 7:30:00 AM 5.9 42.62 0.177 7.36 241.3 11.67
12/23/2022 7:45:00 AM 5.89 42.602 0.178 7.36 245.7 11.68
12/23/2022 8:00:00 AM 5.88 42.584 0.18 7.36 184.1 11.68
12/23/2022 8:15:00 AM 5.87 42.566 0.181 7.37 221.1 11.66
12/23/2022 8:30:00 AM 5.9 42.62 0.18 7.36 212.6 11.66
12/23/2022 8:45:00 AM 5.88 42.584 0.182 7.36 192.5 11.67
12/23/2022 9:00:00 AM 5.89 42.602 0.183 7.38 215.3 11.67
12/23/2022 9:15:00 AM 5.9 42.62 0.183 7.37 208.4 11.71
12/23/2022 9:30:00 AM 5.89 42.602 0.184 7.37 174.2 11.71
12/23/2022 9:45:00 AM 5.86 42.548 0.185 7.37 162.3 11.72
12/23/2022 10:00:00 AM 5.81 42.458 0.188 7.36 154.8 11.74
12/23/2022 10:15:00 AM 5.75 42.35 0.19 7.37 148 11.78
12/23/2022 10:30:00 AM 5.67 42.206 0.192 7.36 164.1 11.81
12/23/2022 10:45:00 AM 5.59 42.062 0.195 7.37 153.7 11.84
12/23/2022 11:00:00 AM 5.54 41.972 0.195 7.36 159.1 11.88
12/23/2022 11:15:00 AM 5.48 41.864 0.196 7.38 150 11.9
12/23/2022 11:30:00 AM 5.43 41.774 0.198 7.37 147.3 11.92
12/23/2022 11:45:00 AM 5.42 41.756 0.198 7.37 144.8 11.96
12/23/2022 12:00:00 PM 5.4 41.72 0.199 7.38 131.1 11.97
12/23/2022 12:15:00 PM 5.39 41.702 0.199 7.37 126.6 11.98
12/23/2022 12:30:00 PM 5.37 41.666 0.201 7.38 124.6 12.01
12/23/2022 12:45:00 PM 5.37 41.666 0.201 7.38 114.6 12.02
12/23/2022 1:00:00 PM 5.36 41.648 0.203 7.39 114.1 12.03
12/23/2022 1:15:00 PM 5.32 41.576 0.204 7.39 127.4 12.07
12/23/2022 1:30:00 PM 5.3 41.54 0.204 7.4 104.9 12.06
12/23/2022 1:45:00 PM 5.2 41.36 0.207 7.41 98.75 12.11
12/23/2022 2:00:00 PM 5.11 41.198 0.209 7.41 104.6 12.1
12/23/2022 2:15:00 PM 5.06 41.108 0.208 7.4 99.28 12.15
12/23/2022 2:30:00 PM 4.98 40.964 0.21 7.42 103 12.15
12/23/2022 2:45:00 PM 4.87 40.766 0.21 7.42 94.64 12.2
12/23/2022 3:00:00 PM 4.81 40.658 0.209 7.42 91.98 12.22
12/23/2022 3:15:00 PM 4.74 40.532 0.21 7.44 91.08 12.25
12/23/2022 3:30:00 PM 4.71 40.478 0.209 7.43 81.75 12.25
12/23/2022 3:45:00 PM 4.58 40.244 0.213 7.44 86.99 12.29
12/23/2022 4:00:00 PM 4.54 40.172 0.212 7.44 80.69 12.31
12/23/2022 4:15:00 PM 4.45 40.01 0.213 7.44 89.05 12.34
12/23/2022 4:30:00 PM 4.34 39.812 0.214 7.44 75.13 12.38
12/23/2022 4:45:00 PM 4.22 39.596 0.214 7.44 81.85 12.4
12/23/2022 5:00:00 PM 4.12 39.416 0.216 7.45 81.49 12.44
12/23/2022 5:15:00 PM 4.03 39.254 0.216 7.45 82.41 12.46
12/23/2022 5:30:00 PM 3.96 39.128 0.217 7.45 77.97 12.5
12/23/2022 5:45:00 PM 3.88 38.984 0.217 7.46 71.44 12.5
12/23/2022 6:00:00 PM 3.78 38.804 0.219 7.46 71.89 12.56
12/23/2022 6:15:00 PM 3.72 38.696 0.22 7.46 76.94 12.57
12/23/2022 6:30:00 PM 3.63 38.534 0.221 7.47 74.9 12.6
12/23/2022 6:45:00 PM 3.58 38.444 0.221 7.46 66.49 12.62
12/23/2022 7:00:00 PM 3.49 38.282 0.222 7.46 73.07 12.66
12/23/2022 7:15:00 PM 3.42 38.156 0.222 7.44 75.53 12.69
12/23/2022 7:30:00 PM 3.31 37.958 0.224 7.46 71.39 12.74
12/23/2022 7:45:00 PM 3.24 37.832 0.224 7.46 70.96 12.77
12/23/2022 8:00:00 PM 3.14 37.652 0.224 7.46 74.52 12.77
12/23/2022 8:15:00 PM 3.05 37.49 0.225 7.45 67.56 12.84
12/23/2022 8:30:00 PM 2.97 37.346 0.226 7.45 61.48 12.87
12/23/2022 8:45:00 PM 2.9 37.22 0.226 7.46 61.89 12.9
12/23/2022 9:00:00 PM 2.81 37.058 0.227 7.46 64.03 12.96
12/23/2022 9:15:00 PM 2.72 36.896 0.228 7.46 69.83 13
12/23/2022 9:30:00 PM 2.67 36.806 0.227 7.47 69.69 13.01
12/23/2022 9:45:00 PM 2.59 36.662 0.228 7.46 62.68 13.04
12/23/2022 10:00:00 PM 2.51 36.518 0.229 7.47 60.6 13.08
12/23/2022 10:15:00 PM 2.44 36.392 0.229 7.46 62.35 13.12
12/23/2022 10:30:00 PM 2.36 36.248 0.227 7.45 60.08 13.14
12/23/2022 10:45:00 PM 2.3 36.14 0.229 7.47 64.02 13.18
12/23/2022 11:00:00 PM 2.24 36.032 0.229 7.47 59.31 13.21
12/23/2022 11:15:00 PM 2.18 35.924 0.23 7.47 59.48 13.24
12/23/2022 11:30:00 PM 2.11 35.798 0.23 7.47 61.11 13.27
12/23/2022 11:45:00 PM 2.04 35.672 0.23 7.47 60.17 13.32
12/24/2022 12:00:00 AM 1.98 35.564 0.231 7.47 65.47 13.35
12/24/2022 12:15:00 AM 1.9 35.42 0.231 7.46 56.92 13.37
12/24/2022 12:30:00 AM 1.83 35.294 0.232 7.47 58.91 13.4
12/24/2022 12:45:00 AM 1.77 35.186 0.231 7.46 55.67 13.44
12/24/2022 1:00:00 AM 1.72 35.096 0.232 7.47 58.13 13.48
12/24/2022 1:15:00 AM 1.67 35.006 0.232 7.46 55.22 13.51
12/24/2022 1:30:00 AM 1.59 34.862 0.231 7.47 54.49 13.53
12/24/2022 1:45:00 AM 1.52 34.736 0.231 7.47 56.39 13.58
12/24/2022 2:00:00 AM 1.52 34.736 0.233 7.47 57.37 13.58
12/24/2022 2:15:00 AM 1.47 34.646 0.233 7.47 54.27 13.62
12/24/2022 2:30:00 AM 1.41 34.538 0.233 7.47 59.19 13.64
12/24/2022 2:45:00 AM 1.34 34.412 0.232 7.48 53.84 13.67
12/24/2022 3:00:00 AM 1.34 34.412 0.233 7.46 53.32 13.7
12/24/2022 3:15:00 AM 1.23 34.214 0.232 7.47 53.4 13.71
12/24/2022 3:30:00 AM 1.23 34.214 0.233 7.47 55.26 13.76
12/24/2022 3:45:00 AM 1.19 34.142 0.233 7.47 59.96 13.78
12/24/2022 4:00:00 AM 1.12 34.016 0.234 7.48 55.57 13.81
12/24/2022 4:15:00 AM 1.12 34.016 0.234 7.47 52.78 13.83
12/24/2022 4:30:00 AM 1.08 33.944 0.235 7.47 53.92 13.84
12/24/2022 4:45:00 AM 1 33.8 0.235 7.47 55.58 13.88
12/24/2022 5:00:00 AM 1.03 33.854 0.236 7.47 54.97 13.9
12/24/2022 5:15:00 AM 1.06 33.908 0.237 7.48 50.55 13.91
12/24/2022 5:30:00 AM 1.05 33.89 0.238 7.46 54.42 13.91
12/24/2022 5:45:00 AM 0.99 33.782 0.237 7.48 53.92 13.95
12/24/2022 6:00:00 AM 0.96 33.728 0.238 7.47 51.67 13.95
12/24/2022 6:15:00 AM 0.95 33.71 0.239 7.48 51.8 13.95
12/24/2022 6:30:00 AM 0.93 33.674 0.239 7.48 47.97 13.98
12/24/2022 6:45:00 AM 0.86 33.548 0.239 7.47 44.73 13.98
12/24/2022 7:00:00 AM 0.84 33.512 0.239 7.49 49.07 13.96
12/24/2022 7:15:00 AM 0.82 33.476 0.239 7.49 50.44 13.99
12/24/2022 7:30:00 AM 0.79 33.422 0.239 7.48 50.14 14
12/24/2022 7:45:00 AM 0.75 33.35 0.238 7.46 50.55 14
12/24/2022 8:00:00 AM 0.75 33.35 0.238 7.47 51.97 14.02
12/24/2022 8:15:00 AM 0.75 33.35 0.239 7.48 51.02 14.01
12/24/2022 8:30:00 AM 0.75 33.35 0.239 7.47 51.96 14.04
12/24/2022 8:45:00 AM 0.77 33.386 0.239 7.48 51.19 14.07
12/24/2022 9:00:00 AM 0.79 33.422 0.239 7.48 51.68 14.07
12/24/2022 9:15:00 AM 0.77 33.386 0.239 7.48 50.3 14.1
12/24/2022 9:30:00 AM 0.79 33.422 0.239 7.49 46.73 14.12
12/24/2022 9:45:00 AM 0.8 33.44 0.239 7.49 49.14 14.14
12/24/2022 10:00:00 AM 0.82 33.476 0.238 7.48 45.85 14.15
12/24/2022 10:15:00 AM 0.93 33.674 0.239 7.49 46.05 14.15
12/24/2022 10:30:00 AM 0.88 33.584 0.238 7.48 50.61 14.19
12/24/2022 10:45:00 AM 0.98 33.764 0.238 7.5 49.67 14.19
12/24/2022 11:00:00 AM 0.98 33.764 0.238 7.49 46 14.19
12/24/2022 11:15:00 AM 0.95 33.71 0.239 7.49 44.45 14.21
12/24/2022 11:30:00 AM 1.09 33.962 0.24 7.5 48.85 14.19
12/24/2022 11:45:00 AM 1.04 33.872 0.239 7.48 45.58 14.22
12/24/2022 12:00:00 PM 1.09 33.962 0.239 7.5 49 14.18
12/24/2022 12:15:00 PM 1.1 33.98 0.238 7.49 45.72 14.21
12/24/2022 12:30:00 PM 1.15 34.07 0.238 7.5 42.33 14.24
12/24/2022 12:45:00 PM 1.13 34.034 0.238 7.5 45.07 14.27
12/24/2022 1:00:00 PM 1.19 34.142 0.238 7.5 47.86 14.25
12/24/2022 1:15:00 PM 1.3 34.34 0.238 7.49 45.12 14.25
12/24/2022 1:30:00 PM 1.32 34.376 0.239 7.5 46.32 14.26
12/24/2022 1:45:00 PM 1.41 34.538 0.239 7.5 50.22 14.26
12/24/2022 2:00:00 PM 1.31 34.358 0.239 7.51 47.29 14.29
12/24/2022 2:15:00 PM 1.35 34.43 0.239 7.51 44.64 14.25
12/24/2022 2:30:00 PM 1.35 34.43 0.239 7.5 44.35 14.3
12/24/2022 2:45:00 PM 1.35 34.43 0.239 7.52 47.15 14.3
12/24/2022 3:00:00 PM 1.34 34.412 0.239 7.52 43.7 14.3
12/24/2022 3:15:00 PM 1.33 34.394 0.239 7.52 45.68 14.32
12/24/2022 3:30:00 PM 1.27 34.286 0.239 7.52 48.3 14.31
12/24/2022 3:45:00 PM 1.31 34.358 0.239 7.51 48.28 14.31
12/24/2022 4:00:00 PM 1.23 34.214 0.24 7.51 52.81 14.31
12/24/2022 4:15:00 PM 1.23 34.214 0.24 7.49 44.73 14.27
12/24/2022 4:30:00 PM 1.15 34.07 0.24 7.51 45.31 14.31
12/24/2022 4:45:00 PM 1.07 33.926 0.24 7.51 48.23 14.27
12/24/2022 5:00:00 PM 1.09 33.962 0.24 7.51 47.62 14.28
12/24/2022 5:15:00 PM 1.14 34.052 0.24 7.51 45.99 14.25
12/24/2022 5:30:00 PM 1.09 33.962 0.24 7.52 48.42 14.26
12/24/2022 5:45:00 PM 1.06 33.908 0.24 7.51 44.84 14.25
12/24/2022 6:00:00 PM 1.05 33.89 0.241 7.51 43.46 14.23
12/24/2022 6:15:00 PM 1.02 33.836 0.241 7.49 43.62 14.24
12/24/2022 6:30:00 PM 1.08 33.944 0.241 7.51 47.06 14.22
12/24/2022 6:45:00 PM 1 33.8 0.241 7.51 45.88 14.24
12/24/2022 7:00:00 PM 0.98 33.764 0.241 7.5 43.51 14.23
12/24/2022 7:15:00 PM 0.96 33.728 0.241 7.5 41.57 14.23
12/24/2022 7:30:00 PM 1 33.8 0.241 7.49 40.59 14.23
12/24/2022 7:45:00 PM 0.96 33.728 0.241 7.5 42.07 14.22
12/24/2022 8:00:00 PM 0.98 33.764 0.242 7.5 40.89 14.2
12/24/2022 8:15:00 PM 0.96 33.728 0.243 7.51 41.3 14.23
12/24/2022 8:30:00 PM 0.95 33.71 0.243 7.5 41.24 14.22
12/24/2022 8:45:00 PM 0.99 33.782 0.244 7.51 41.72 14.21
12/24/2022 9:00:00 PM 0.99 33.782 0.244 7.5 43.32 14.22
12/24/2022 9:15:00 PM 0.99 33.782 0.244 7.5 41.87 14.2
12/24/2022 9:30:00 PM 1.05 33.89 0.245 7.49 45.35 14.21
12/24/2022 9:45:00 PM 1.05 33.89 0.244 7.5 54.24 14.2
12/24/2022 10:00:00 PM 1.06 33.908 0.244 7.49 50.11 14.18
12/24/2022 10:15:00 PM 1.06 33.908 0.243 7.48 45.48 14.18
12/24/2022 10:30:00 PM 1.04 33.872 0.243 7.5 44.97 14.17
12/24/2022 10:45:00 PM 1.07 33.926 0.242 7.49 46.63 14.18
12/24/2022 11:00:00 PM 1.12 34.016 0.242 7.51 44.59 14.15
12/24/2022 11:15:00 PM 1.06 33.908 0.242 7.5 46.03 14.19
12/24/2022 11:30:00 PM 1.13 34.034 0.242 7.5 49.98 14.17
12/24/2022 11:45:00 PM 1.11 33.998 0.242 7.49 43.04 14.17
12/25/2022 12:00:00 AM 1.14 34.052 0.242 7.5 43.93 14.16
12/25/2022 12:15:00 AM 1.16 34.088 0.242 7.48 40.52 14.17
12/25/2022 12:30:00 AM 1.16 34.088 0.242 7.49 40.57 14.17
12/25/2022 12:45:00 AM 1.17 34.106 0.242 7.49 38.63 14.16
12/25/2022 1:00:00 AM 1.21 34.178 0.241 7.49 43.34 14.15
12/25/2022 1:15:00 AM 1.17 34.106 0.241 7.49 41.98 14.17
12/25/2022 1:30:00 AM 1.18 34.124 0.241 7.49 41.28 14.13
12/25/2022 1:45:00 AM 1.14 34.052 0.241 7.49 38.13 14.17
12/25/2022 2:00:00 AM 1.17 34.106 0.241 7.49 42.09 14.15
12/25/2022 2:15:00 AM 1.18 34.124 0.241 7.48 40.53 14.14
12/25/2022 2:30:00 AM 1.13 34.034 0.241 7.49 42.89 14.17
12/25/2022 2:45:00 AM 1.16 34.088 0.241 7.48 42.21 14.13
12/25/2022 3:00:00 AM 1.07 33.926 0.24 7.49 40.56 14.15
12/25/2022 3:15:00 AM 1.08 33.944 0.24 7.48 42.38 14.15
12/25/2022 3:30:00 AM 1.09 33.962 0.24 7.49 41.77 14.15
12/25/2022 3:45:00 AM 1.11 33.998 0.24 7.47 40.47 14.15
12/25/2022 4:00:00 AM 1.11 33.998 0.24 7.49 41.72 14.14
12/25/2022 4:15:00 AM 1.06 33.908 0.24 7.49 40.93 14.16
12/25/2022 4:30:00 AM 1.05 33.89 0.24 7.49 39.47 14.15
12/25/2022 4:45:00 AM 1.04 33.872 0.239 7.48 38.19 14.16
12/25/2022 5:00:00 AM 1.11 33.998 0.24 7.48 38.69 14.15
12/25/2022 5:15:00 AM 1.06 33.908 0.239 7.48 37.68 14.15
12/25/2022 5:30:00 AM 1.05 33.89 0.239 7.47 35.47 14.13
12/25/2022 5:45:00 AM 1.1 33.98 0.239 7.49 37.5 14.15
12/25/2022 6:00:00 AM 1.06 33.908 0.239 7.47 39.5 14.15
12/25/2022 6:15:00 AM 1.06 33.908 0.239 7.48 39.99 14.17
12/25/2022 6:30:00 AM 1.05 33.89 0.239 7.49 39.37 14.16
12/25/2022 6:45:00 AM 1.04 33.872 0.239 7.49 36.75 14.14
12/25/2022 7:00:00 AM 1.06 33.908 0.239 7.48 38.81 14.15
12/25/2022 7:15:00 AM 1.01 33.818 0.239 7.48 38.76 14.18
12/25/2022 7:30:00 AM 1.07 33.926 0.24 7.48 40.78 14.16
12/25/2022 7:45:00 AM 0.98 33.764 0.239 7.48 38.95 14.16
12/25/2022 8:00:00 AM 1.05 33.89 0.239 7.48 40.89 14.19
12/25/2022 8:15:00 AM 1.06 33.908 0.239 7.49 39.07 14.2
12/25/2022 8:30:00 AM 1.11 33.998 0.239 7.48 39.72 14.2
12/25/2022 8:45:00 AM 1.09 33.962 0.239 7.49 40.7 14.23
12/25/2022 9:00:00 AM 1.2 34.16 0.24 7.5 50.34 14.22
12/25/2022 9:15:00 AM 1.14 34.052 0.239 7.49 41.45 14.24
12/25/2022 9:30:00 AM 1.19 34.142 0.239 7.49 46.5 14.25
12/25/2022 9:45:00 AM 1.26 34.268 0.239 7.51 42.66 14.26
12/25/2022 10:00:00 AM 1.27 34.286 0.239 7.51 41.45 14.26
12/25/2022 10:15:00 AM 1.27 34.286 0.239 7.49 44.5 14.29
12/25/2022 10:30:00 AM 1.25 34.25 0.239 7.51 41.74 14.29
12/25/2022 10:45:00 AM 1.22 34.196 0.239 7.51 42.06 14.31
12/25/2022 11:00:00 AM 1.32 34.376 0.239 7.51 36.78 14.33
12/25/2022 11:15:00 AM 1.49 34.682 0.239 7.51 39.02 14.3
12/25/2022 11:30:00 AM 1.42 34.556 0.239 7.52 37.16 14.3
12/25/2022 11:45:00 AM 1.47 34.646 0.239 7.52 40.11 14.27
12/25/2022 12:00:00 PM 1.41 34.538 0.239 7.52 41.31 14.29
12/25/2022 12:15:00 PM 1.41 34.538 0.239 7.52 39.69 14.32
12/25/2022 12:30:00 PM 1.44 34.592 0.239 7.53 42.58 14.31
12/25/2022 12:45:00 PM 1.45 34.61 0.238 7.52 40.99 14.33
12/25/2022 1:00:00 PM 1.45 34.61 0.238 7.52 39.16 14.32
12/25/2022 1:15:00 PM 1.37 34.466 0.238 7.52 43.48 14.32
12/25/2022 1:30:00 PM 1.42 34.556 0.238 7.52 45.84 14.31
12/25/2022 1:45:00 PM 1.46 34.628 0.239 7.52 40.36 14.31
12/25/2022 2:00:00 PM 1.45 34.61 0.239 7.52 44.65 14.34
12/25/2022 2:15:00 PM 1.49 34.682 0.239 7.53 44.11 14.29
12/25/2022 2:30:00 PM 1.47 34.646 0.239 7.53 46.12 14.3
12/25/2022 2:45:00 PM 1.46 34.628 0.239 7.53 41.25 14.28
12/25/2022 3:00:00 PM 1.45 34.61 0.239 7.52 42.17 14.27
12/25/2022 3:15:00 PM 1.41 34.538 0.239 7.53 42.64 14.24
12/25/2022 3:30:00 PM 1.42 34.556 0.239 7.52 40.14 14.27
12/25/2022 3:45:00 PM 1.39 34.502 0.239 7.52 41.26 14.27
12/25/2022 4:00:00 PM 1.4 34.52 0.239 7.51 42.21 14.24
12/25/2022 4:15:00 PM 1.34 34.412 0.239 7.53 44.01 14.26
12/25/2022 4:30:00 PM 1.32 34.376 0.239 7.51 40.69 14.24
12/25/2022 4:45:00 PM 1.39 34.502 0.24 7.51 42.89 14.2
12/25/2022 5:00:00 PM 1.28 34.304 0.24 7.51 38.78 14.25
12/25/2022 5:15:00 PM 1.26 34.268 0.24 7.52 37.88 14.21
12/25/2022 5:30:00 PM 1.3 34.34 0.24 7.49 40.72 14.2
12/25/2022 5:45:00 PM 1.31 34.358 0.24 7.51 44.39 14.2
12/25/2022 6:00:00 PM 1.23 34.214 0.239 7.5 39.67 14.2
12/25/2022 6:15:00 PM 1.19 34.142 0.239 7.5 39.16 14.22
12/25/2022 6:30:00 PM 1.19 34.142 0.239 7.5 39.49 14.2
12/25/2022 6:45:00 PM 1.24 34.232 0.24 7.51 40.5 14.2
12/25/2022 7:00:00 PM 1.22 34.196 0.239 7.5 39.37 14.2
12/25/2022 7:15:00 PM 1.16 34.088 0.239 7.5 35.27 14.2
12/25/2022 7:30:00 PM 1.16 34.088 0.239 7.51 32.4 14.22
12/25/2022 7:45:00 PM 1.13 34.034 0.239 7.5 36.05 14.23
12/25/2022 8:00:00 PM 1.13 34.034 0.239 7.5 35.45 14.19
12/25/2022 8:15:00 PM 1.1 33.98 0.239 7.5 39.06 14.25
12/25/2022 8:30:00 PM 1.13 34.034 0.239 7.5 36.21 14.22
12/25/2022 8:45:00 PM 1.08 33.944 0.238 7.51 36.02 14.23
12/25/2022 9:00:00 PM 1.08 33.944 0.239 7.5 38.45 14.22
12/25/2022 9:15:00 PM 1.09 33.962 0.239 7.5 37.86 14.24
12/25/2022 9:30:00 PM 1.08 33.944 0.239 7.5 37.63 14.26
12/25/2022 9:45:00 PM 1.07 33.926 0.239 7.49 36.63 14.25
12/25/2022 10:00:00 PM 1.11 33.998 0.239 7.51 40.67 14.24
12/25/2022 10:15:00 PM 1.1 33.98 0.239 7.5 37.67 14.24
12/25/2022 10:30:00 PM 1.07 33.926 0.239 7.49 37.02 14.22
12/25/2022 10:45:00 PM 1.04 33.872 0.238 7.51 37.43 14.25
12/25/2022 11:00:00 PM 1.05 33.89 0.238 7.5 49.33 14.25
12/25/2022 11:15:00 PM 1.09 33.962 0.239 7.5 36.5 14.26
12/25/2022 11:30:00 PM 1.1 33.98 0.239 7.5 38.17 14.25
12/25/2022 11:45:00 PM 1.08 33.944 0.239 7.51 34.67 14.26
12/26/2022 12:00:00 AM 1.04 33.872 0.239 7.51 38.76 14.25
12/26/2022 12:15:00 AM 1 33.8 0.239 7.5 34.21 14.28
12/26/2022 12:30:00 AM 0.96 33.728 0.239 7.49 37.48 14.28
12/26/2022 12:45:00 AM 1.03 33.854 0.239 7.5 34.21 14.27
12/26/2022 1:00:00 AM 1.04 33.872 0.239 7.49 35.4 14.28
12/26/2022 1:15:00 AM 1.03 33.854 0.239 7.5 38.6 14.28
12/26/2022 1:30:00 AM 0.98 33.764 0.238 7.48 35.85 14.29
12/26/2022 1:45:00 AM 1.02 33.836 0.239 7.49 34.77 14.27
12/26/2022 2:00:00 AM 0.99 33.782 0.239 7.49 35 14.29
12/26/2022 2:15:00 AM 1.01 33.818 0.239 7.5 36.01 14.28
12/26/2022 2:30:00 AM 0.97 33.746 0.239 7.5 35.68 14.32
12/26/2022 2:45:00 AM 1.03 33.854 0.239 7.5 35.44 14.28
12/26/2022 3:00:00 AM 1 33.8 0.239 7.5 37.76 14.3
12/26/2022 3:15:00 AM 0.98 33.764 0.239 7.49 34.11 14.32
12/26/2022 3:30:00 AM 1.04 33.872 0.239 7.5 37.29 14.29
12/26/2022 3:45:00 AM 0.98 33.764 0.238 7.49 32.88 14.34
12/26/2022 4:00:00 AM 0.99 33.782 0.239 7.49 33.31 14.32
12/26/2022 4:15:00 AM 0.97 33.746 0.239 7.51 34.64 14.31
12/26/2022 4:30:00 AM 0.95 33.71 0.239 7.5 34.95 14.32
12/26/2022 4:45:00 AM 0.96 33.728 0.239 7.49 38.8 14.35
12/26/2022 5:00:00 AM 0.99 33.782 0.239 7.5 40.15 14.33
12/26/2022 5:15:00 AM 1 33.8 0.239 7.48 34.08 14.34
12/26/2022 5:30:00 AM 0.97 33.746 0.239 7.51 43.14 14.35
12/26/2022 5:45:00 AM 0.92 33.656 0.238 7.49 35.63 14.35
12/26/2022 6:00:00 AM 0.97 33.746 0.238 7.49 35.61 14.34
12/26/2022 6:15:00 AM 0.95 33.71 0.238 7.49 36.7 14.35
12/26/2022 6:30:00 AM 0.98 33.764 0.239 7.5 34.61 14.36
12/26/2022 6:45:00 AM 0.96 33.728 0.239 7.49 34.39 14.36
12/26/2022 7:00:00 AM 0.97 33.746 0.239 7.49 33 14.37
12/26/2022 7:15:00 AM 0.91 33.638 0.239 7.5 34.63 14.4
12/26/2022 7:30:00 AM 0.93 33.674 0.239 7.5 33.77 14.37
12/26/2022 7:45:00 AM 0.96 33.728 0.239 7.49 37.54 14.37
12/26/2022 8:00:00 AM 0.96 33.728 0.239 7.49 36.22 14.39
12/26/2022 8:15:00 AM 0.97 33.746 0.239 7.5 38.24 14.41
12/26/2022 8:30:00 AM 1 33.8 0.239 7.51 36.69 14.44
12/26/2022 8:45:00 AM 0.99 33.782 0.239 7.51 43.06 14.44
12/26/2022 9:00:00 AM 0.99 33.782 0.239 7.51 35.63 14.46
12/26/2022 9:15:00 AM 1.03 33.854 0.24 7.51 37.9 14.49
12/26/2022 9:30:00 AM 1.02 33.836 0.239 7.52 37.33 14.48
12/26/2022 9:45:00 AM 1.04 33.872 0.239 7.51 37.04 14.51
12/26/2022 10:00:00 AM 1.13 34.034 0.239 7.52 40.53 14.5
12/26/2022 10:15:00 AM 1.13 34.034 0.239 7.52 37.71 14.53
12/26/2022 10:30:00 AM 1.23 34.214 0.239 7.53 36.52 14.49
12/26/2022 10:45:00 AM 1.24 34.232 0.238 7.52 36.1 14.53
12/26/2022 11:00:00 AM 1.32 34.376 0.238 7.52 43.06 14.51
12/26/2022 11:15:00 AM 1.32 34.376 0.238 7.53 44.63 14.52
12/26/2022 11:30:00 AM 1.32 34.376 0.238 7.52 40.34 14.51
12/26/2022 11:45:00 AM 1.32 34.376 0.238 7.54 41.98 14.53
12/26/2022 12:00:00 PM 1.37 34.466 0.238 7.54 42.26 14.55
12/26/2022 12:15:00 PM 1.38 34.484 0.238 7.54 42.12 14.55
12/26/2022 12:30:00 PM 1.43 34.574 0.238 7.54 38.87 14.52
12/26/2022 12:45:00 PM 1.56 34.808 0.238 7.54 41.66 14.5
12/26/2022 1:00:00 PM 1.55 34.79 0.238 7.55 35.6 14.52
12/26/2022 1:15:00 PM 1.52 34.736 0.238 7.55 38.94 14.51
12/26/2022 1:30:00 PM 1.54 34.772 0.238 7.54 39.4 14.5
12/26/2022 1:45:00 PM 1.53 34.754 0.238 7.54 37.05 14.52
12/26/2022 2:00:00 PM 1.57 34.826 0.238 7.55 34.93 14.47
12/26/2022 2:15:00 PM 1.63 34.934 0.239 7.55 38.91 14.47
12/26/2022 2:30:00 PM 1.61 34.898 0.239 7.55 38.29 14.48
12/26/2022 2:45:00 PM 1.62 34.916 0.239 7.55 40.19 14.48
12/26/2022 3:00:00 PM 1.62 34.916 0.239 7.55 37.28 14.48
12/26/2022 3:15:00 PM 1.6 34.88 0.239 7.55 38 14.48
12/26/2022 3:30:00 PM 1.62 34.916 0.239 7.56 37.54 14.45
12/26/2022 3:45:00 PM 1.63 34.934 0.239 7.56 38.04 14.46
12/26/2022 4:00:00 PM 1.62 34.916 0.239 7.56 39.79 14.43
12/26/2022 4:15:00 PM 1.59 34.862 0.239 7.56 36.89 14.42
12/26/2022 4:30:00 PM 1.54 34.772 0.239 7.55 34.45 14.4
12/26/2022 4:45:00 PM 1.46 34.628 0.239 7.54 35.77 14.4
12/26/2022 5:00:00 PM 1.49 34.682 0.24 7.55 38.45 14.39
12/26/2022 5:15:00 PM 1.54 34.772 0.24 7.57 36.83 14.34
12/26/2022 5:30:00 PM 1.52 34.736 0.24 7.53 36.25 14.33
12/26/2022 5:45:00 PM 1.48 34.664 0.24 7.54 34.15 14.33
12/26/2022 6:00:00 PM 1.46 34.628 0.24 7.54 40.54 14.33
12/26/2022 6:15:00 PM 1.46 34.628 0.239 7.54 35.53 14.31
12/26/2022 6:30:00 PM 1.48 34.664 0.239 7.53 37.11 14.32
12/26/2022 6:45:00 PM 1.47 34.646 0.239 7.53 36.21 14.32
12/26/2022 7:00:00 PM 1.47 34.646 0.239 7.53 36.63 14.3
12/26/2022 7:15:00 PM 1.47 34.646 0.24 7.53 37.21 14.28
12/26/2022 7:30:00 PM 1.49 34.682 0.24 7.53 36.81 14.27
12/26/2022 7:45:00 PM 1.48 34.664 0.24 7.53 38.52 14.26
12/26/2022 8:00:00 PM 1.53 34.754 0.24 7.53 36.26 14.26
12/26/2022 8:15:00 PM 1.52 34.736 0.239 7.52 33.89 14.25
12/26/2022 8:30:00 PM 1.51 34.718 0.239 7.53 36.08 14.23
12/26/2022 8:45:00 PM 1.54 34.772 0.239 7.52 38.59 14.24
12/26/2022 9:00:00 PM 1.51 34.718 0.239 7.51 34.97 14.24
12/26/2022 9:15:00 PM 1.57 34.826 0.24 7.51 36.45 14.23
12/26/2022 9:30:00 PM 1.6 34.88 0.24 7.51 37.21 14.21
12/26/2022 9:45:00 PM 1.6 34.88 0.24 7.52 34.2 14.19
12/26/2022 10:00:00 PM 1.61 34.898 0.24 7.51 37.83 14.2
12/26/2022 10:15:00 PM 1.63 34.934 0.24 7.51 34.61 14.21
12/26/2022 10:30:00 PM 1.62 34.916 0.24 7.51 37.8 14.19
12/26/2022 10:45:00 PM 1.65 34.97 0.24 7.51 34.89 14.17
12/26/2022 11:00:00 PM 1.66 34.988 0.24 7.51 37.96 14.17
12/26/2022 11:15:00 PM 1.62 34.916 0.24 7.51 33.78 14.19
12/26/2022 11:30:00 PM 1.61 34.898 0.24 7.49 35.22 14.19
12/26/2022 11:45:00 PM 1.62 34.916 0.24 7.5 32.54 14.18
12/27/2022 12:00:00 AM 1.63 34.934 0.24 7.5 33.51 14.15
12/27/2022 12:15:00 AM 1.64 34.952 0.24 7.51 35.98 14.16
12/27/2022 12:30:00 AM 1.62 34.916 0.24 7.51 35.37 14.13
12/27/2022 12:45:00 AM 1.67 35.006 0.24 7.5 35.05 14.14
12/27/2022 1:00:00 AM 1.68 35.024 0.232 7.52 37.13 14.17
12/27/2022 1:15:00 AM 1.67 35.006 0.237 7.49 34.82 14.13
12/27/2022 1:30:00 AM 1.58 34.844 0.237 7.5 36.83 14.16
12/27/2022 1:45:00 AM 1.64 34.952 0.239 7.5 31.83 14.14
12/27/2022 2:00:00 AM 1.65 34.97 0.239 7.5 33.15 14.12
12/27/2022 2:15:00 AM 1.68 35.024 0.239 7.51 33.78 14.13
12/27/2022 2:30:00 AM 1.66 34.988 0.239 7.49 35.03 14.13
12/27/2022 2:45:00 AM 1.69 35.042 0.24 7.5 34.57 14.13
12/27/2022 3:00:00 AM 1.7 35.06 0.24 7.51 35.15 14.12
12/27/2022 3:15:00 AM 1.71 35.078 0.24 7.51 33.96 14.11
12/27/2022 3:30:00 AM 1.7 35.06 0.239 7.51 32.92 14.12
12/27/2022 3:45:00 AM 1.69 35.042 0.239 7.51 34.56 14.13
12/27/2022 4:00:00 AM 1.7 35.06 0.239 7.5 36.99 14.12
12/27/2022 4:15:00 AM 1.68 35.024 0.239 7.5 33.2 14.12
12/27/2022 4:30:00 AM 1.73 35.114 0.24 7.51 34.28 14.13
12/27/2022 4:45:00 AM 1.73 35.114 0.239 7.51 35.12 14.11
12/27/2022 5:00:00 AM 1.74 35.132 0.239 7.51 36.17 14.1
12/27/2022 5:15:00 AM 1.72 35.096 0.239 7.51 33.3 14.12
12/27/2022 5:30:00 AM 1.75 35.15 0.239 7.5 39.36 14.12
12/27/2022 5:45:00 AM 1.76 35.168 0.239 7.51 32.79 14.12
12/27/2022 6:00:00 AM 1.75 35.15 0.238 7.5 34.77 14.08
12/27/2022 6:15:00 AM 1.74 35.132 0.238 7.5 35.47 14.12
12/27/2022 6:30:00 AM 1.71 35.078 0.238 7.5 35.01 14.1
12/27/2022 6:45:00 AM 1.75 35.15 0.239 7.5 36.08 14.08
12/27/2022 7:00:00 AM 1.73 35.114 0.239 7.5 38.59 14.12
12/27/2022 7:15:00 AM 1.76 35.168 0.239 7.51 35.04 14.09
12/27/2022 7:30:00 AM 1.73 35.114 0.239 7.51 36.35 14.09
12/27/2022 7:45:00 AM 1.71 35.078 0.238 7.5 39.03 14.09
12/27/2022 8:00:00 AM 1.74 35.132 0.238 7.51 35.71 14.12
12/27/2022 8:15:00 AM 1.72 35.096 0.238 7.5 37.76 14.15
12/27/2022 8:30:00 AM 1.77 35.186 0.238 7.51 36.09 14.16
12/27/2022 8:45:00 AM 1.8 35.24 0.238 7.49 36.53 14.14
12/27/2022 9:00:00 AM 1.83 35.294 0.238 7.52 36.96 14.17
12/27/2022 9:15:00 AM 1.85 35.33 0.239 7.52 34.6 14.19
12/27/2022 9:30:00 AM 1.9 35.42 0.239 7.51 36.2 14.2
12/27/2022 9:45:00 AM 1.9 35.42 0.238 7.52 34.84 14.24
12/27/2022 10:00:00 AM 1.93 35.474 0.239 7.52 37.46 14.25
12/27/2022 10:15:00 AM 2 35.6 0.238 7.53 38.78 14.22
12/27/2022 10:30:00 AM 2.03 35.654 0.237 7.53 39.12 14.22
12/27/2022 10:45:00 AM 2.09 35.762 0.237 7.54 37.9 14.26
12/27/2022 11:00:00 AM 2.13 35.834 0.237 7.55 39.23 14.24
12/27/2022 11:15:00 AM 2.16 35.888 0.237 7.54 37.4 14.24
12/27/2022 11:30:00 AM 2.21 35.978 0.237 7.55 39.33 14.25
12/27/2022 11:45:00 AM 2.25 36.05 0.237 7.55 40.12 14.25
12/27/2022 12:00:00 PM 2.29 36.122 0.237 7.55 38.37 14.25
12/27/2022 12:15:00 PM 2.3 36.14 0.237 7.55 38.27 14.26
12/27/2022 12:30:00 PM 2.38 36.284 0.237 7.55 40.12 14.26
12/27/2022 12:45:00 PM 2.43 36.374 0.237 7.55 40.14 14.25
12/27/2022 1:00:00 PM 2.46 36.428 0.236 7.56 40.02 14.25
12/27/2022 1:15:00 PM 2.49 36.482 0.236 7.56 35.7 14.26
12/27/2022 1:30:00 PM 2.56 36.608 0.236 7.55 37.97 14.24
12/27/2022 1:45:00 PM 2.64 36.752 0.237 7.56 37.1 14.2
12/27/2022 2:00:00 PM 2.64 36.752 0.237 7.56 38.41 14.18
12/27/2022 2:15:00 PM 2.67 36.806 0.237 7.56 40.56 14.17
12/27/2022 2:30:00 PM 2.66 36.788 0.237 7.56 38.84 14.13
12/27/2022 2:45:00 PM 2.64 36.752 0.237 7.56 36.09 14.13
12/27/2022 3:00:00 PM 2.63 36.734 0.237 7.57 39.97 14.14
12/27/2022 3:15:00 PM 2.63 36.734 0.236 7.56 37.86 14.14
12/27/2022 3:30:00 PM 2.63 36.734 0.236 7.56 39.65 14.11
12/27/2022 3:45:00 PM 2.6 36.68 0.236 7.55 36.48 14.13
12/27/2022 4:00:00 PM 2.6 36.68 0.236 7.55 37.8 14.1
12/27/2022 4:15:00 PM 2.59 36.662 0.237 7.56 42.55 14.09
12/27/2022 4:30:00 PM 2.56 36.608 0.237 7.55 38.18 14.06
12/27/2022 4:45:00 PM 2.56 36.608 0.237 7.55 39.74 14.06
12/27/2022 5:00:00 PM 2.53 36.554 0.237 7.55 40.54 14.01
12/27/2022 5:15:00 PM 2.51 36.518 0.237 7.54 38.75 14.01
12/27/2022 5:30:00 PM 2.5 36.5 0.237 7.55 40.29 13.98
12/27/2022 5:45:00 PM 2.5 36.5 0.237 7.54 37.06 13.96
12/27/2022 6:00:00 PM 2.5 36.5 0.237 7.54 39.01 13.97
12/27/2022 6:15:00 PM 2.5 36.5 0.237 7.53 38.81 13.95
12/27/2022 6:30:00 PM 2.49 36.482 0.237 7.53 45.83 13.95
12/27/2022 6:45:00 PM 2.5 36.5 0.236 7.53 40.65 13.92
12/27/2022 7:00:00 PM 2.5 36.5 0.236 7.53 41.54 13.92
12/27/2022 7:15:00 PM 2.51 36.518 0.236 7.52 40.51 13.91
12/27/2022 7:30:00 PM 2.52 36.536 0.236 7.51 41.76 13.91
12/27/2022 7:45:00 PM 2.53 36.554 0.236 7.51 35.66 13.91
12/27/2022 8:00:00 PM 2.54 36.572 0.236 7.53 36.15 13.89
12/27/2022 8:15:00 PM 2.55 36.59 0.236 7.52 39.51 13.87
12/27/2022 8:30:00 PM 2.56 36.608 0.236 7.52 41.05 13.88
12/27/2022 8:45:00 PM 2.56 36.608 0.236 7.5 36.92 13.87
12/27/2022 9:00:00 PM 2.57 36.626 0.236 7.5 38.54 13.86
12/27/2022 9:15:00 PM 2.58 36.644 0.236 7.5 40.58 13.88
12/27/2022 9:30:00 PM 2.58 36.644 0.236 7.5 35.69 13.86
12/27/2022 9:45:00 PM 2.58 36.644 0.236 7.51 38.52 13.85
12/27/2022 10:00:00 PM 2.58 36.644 0.236 7.51 37.33 13.85
12/27/2022 10:15:00 PM 2.58 36.644 0.236 7.5 36.04 13.84
12/27/2022 10:30:00 PM 2.57 36.626 0.236 7.51 37.02 13.84
12/27/2022 10:45:00 PM 2.57 36.626 0.236 7.5 40.32 13.83
12/27/2022 11:00:00 PM 2.55 36.59 0.235 7.5 38.65 13.83
12/27/2022 11:15:00 PM 2.53 36.554 0.235 7.5 37.85 13.85
12/27/2022 11:30:00 PM 2.51 36.518 0.236 7.5 40.82 13.83
12/27/2022 11:45:00 PM 2.49 36.482 0.236 7.5 40.52 13.82
12/28/2022 12:00:00 AM 2.46 36.428 0.236 7.51 38.52 13.85
12/28/2022 12:15:00 AM 2.42 36.356 0.236 7.49 39.79 13.84
12/28/2022 12:30:00 AM 2.4 36.32 0.236 7.51 45.39 13.84
12/28/2022 12:45:00 AM 2.36 36.248 0.236 7.51 37.45 13.84
12/28/2022 1:00:00 AM 2.34 36.212 0.236 7.5 38.57 13.86
12/28/2022 1:15:00 AM 2.32 36.176 0.236 7.49 39.6 13.85
12/28/2022 1:30:00 AM 2.28 36.104 0.236 7.51 41.89 13.87
12/28/2022 1:45:00 AM 2.26 36.068 0.236 7.5 41.91 13.87
12/28/2022 2:00:00 AM 2.24 36.032 0.236 7.5 39.7 13.86
12/28/2022 2:15:00 AM 2.22 35.996 0.236 7.5 41.73 13.89
12/28/2022 2:30:00 AM 2.21 35.978 0.236 7.5 39.46 13.88
12/28/2022 2:45:00 AM 2.2 35.96 0.235 7.49 37.75 13.88
12/28/2022 3:00:00 AM 2.17 35.906 0.236 7.51 42.43 13.88
12/28/2022 3:15:00 AM 2.16 35.888 0.236 7.49 39.9 13.9
12/28/2022 3:30:00 AM 2.14 35.852 0.236 7.49 38.72 13.91
12/28/2022 3:45:00 AM 2.12 35.816 0.235 7.49 41.02 13.9
12/28/2022 4:00:00 AM 2.09 35.762 0.235 7.49 46.46 13.91
12/28/2022 4:15:00 AM 2.09 35.762 0.235 7.49 38.55 13.89
12/28/2022 4:30:00 AM 2.08 35.744 0.236 7.48 39.94 13.92
12/28/2022 4:45:00 AM 2.07 35.726 0.236 7.5 38.62 13.91
12/28/2022 5:00:00 AM 2.05 35.69 0.236 7.5 45.28 13.93
12/28/2022 5:15:00 AM 2.04 35.672 0.236 7.5 40.59 13.94
12/28/2022 5:30:00 AM 2.02 35.636 0.236 7.5 38.15 13.96
12/28/2022 5:45:00 AM 2.01 35.618 0.236 7.5 36.01 13.94
12/28/2022 6:00:00 AM 2 35.6 0.236 7.49 36.66 13.95
12/28/2022 6:15:00 AM 1.97 35.546 0.235 7.49 38.56 13.95
12/28/2022 6:30:00 AM 1.96 35.528 0.235 7.51 37.69 13.97
12/28/2022 6:45:00 AM 1.96 35.528 0.236 7.49 36.69 13.96
12/28/2022 7:00:00 AM 1.95 35.51 0.236 7.5 33.65 13.97
12/28/2022 7:15:00 AM 1.93 35.474 0.235 7.5 36.58 13.98
12/28/2022 7:30:00 AM 1.91 35.438 0.235 7.49 36.58 14
12/28/2022 7:45:00 AM 1.9 35.42 0.235 7.5 40.47 14.01
12/28/2022 8:00:00 AM 1.89 35.402 0.234 7.49 40.95 14.02
12/28/2022 8:15:00 AM 1.88 35.384 0.234 7.5 41.49 14.04
12/28/2022 8:30:00 AM 1.89 35.402 0.234 7.49 41.48 14.05
12/28/2022 8:45:00 AM 1.9 35.42 0.234 7.48 43.12 14.06
12/28/2022 9:00:00 AM 1.92 35.456 0.234 7.49 42.86 14.07
12/28/2022 9:15:00 AM 1.96 35.528 0.235 7.5 46.37 14.1
12/28/2022 9:30:00 AM 2.01 35.618 0.235 7.5 48.67 14.12
12/28/2022 9:45:00 AM 2.06 35.708 0.235 7.5 47.12 14.13
12/28/2022 10:00:00 AM 2.13 35.834 0.235 7.5 44.2 14.14
12/28/2022 10:15:00 AM 2.17 35.906 0.234 7.5 43.32 14.16
12/28/2022 10:30:00 AM 2.28 36.104 0.234 7.52 40.82 14.17
12/28/2022 10:45:00 AM 2.36 36.248 0.234 7.52 41.54 14.18
12/28/2022 11:00:00 AM 2.46 36.428 0.234 7.53 41.52 14.17
12/28/2022 11:15:00 AM 2.53 36.554 0.233 7.53 38.9 14.18
12/28/2022 11:30:00 AM 2.64 36.752 0.234 7.54 38.53 14.15
12/28/2022 11:45:00 AM 2.74 36.932 0.234 7.53 38.04 14.16
12/28/2022 12:00:00 PM 2.81 37.058 0.234 7.54 40.11 14.16
12/28/2022 12:15:00 PM 2.89 37.202 0.234 7.53 36.51 14.13
12/28/2022 12:30:00 PM 2.96 37.328 0.233 7.55 43.4 14.12
12/28/2022 12:45:00 PM 3.03 37.454 0.233 7.54 38.52 14.1
12/28/2022 1:00:00 PM 3.08 37.544 0.233 7.54 41.06 14.1
12/28/2022 1:15:00 PM 3.15 37.67 0.233 7.54 45.61 14.06
12/28/2022 1:30:00 PM 3.17 37.706 0.233 7.54 42.96 14.07
12/28/2022 1:45:00 PM 3.2 37.76 0.233 7.53 45.56 14.04
12/28/2022 2:00:00 PM 3.23 37.814 0.234 7.55 41.58 14.03
12/28/2022 2:15:00 PM 3.24 37.832 0.234 7.54 42.65 14.01
12/28/2022 2:30:00 PM 3.25 37.85 0.234 7.55 45.17 14.01
12/28/2022 2:45:00 PM 3.21 37.778 0.234 7.54 39.26 13.99
12/28/2022 3:00:00 PM 3.18 37.724 0.235 7.55 42.26 13.99
12/28/2022 3:15:00 PM 3.14 37.652 0.235 7.55 41.36 13.96
12/28/2022 3:30:00 PM 3.09 37.562 0.234 7.55 40.01 13.97
12/28/2022 3:45:00 PM 3.05 37.49 0.234 7.54 38.53 13.98
12/28/2022 4:00:00 PM 3.01 37.418 0.234 7.55 39 13.97
12/28/2022 4:15:00 PM 2.97 37.346 0.235 7.54 41.76 13.93
12/28/2022 4:30:00 PM 2.95 37.31 0.235 7.54 39.03 13.93
12/28/2022 4:45:00 PM 2.9 37.22 0.235 7.54 41.48 13.92
12/28/2022 5:00:00 PM 2.86 37.148 0.235 7.55 42.49 13.91
12/28/2022 5:15:00 PM 2.81 37.058 0.235 7.54 42.03 13.89
12/28/2022 5:30:00 PM 2.77 36.986 0.235 7.53 42.87 13.87
12/28/2022 5:45:00 PM 2.75 36.95 0.235 7.52 40.64 13.85
12/28/2022 6:00:00 PM 2.7 36.86 0.235 7.53 43.97 13.87
12/28/2022 6:15:00 PM 2.66 36.788 0.235 7.52 39.5 13.87
12/28/2022 6:30:00 PM 2.63 36.734 0.235 7.53 40.01 13.87
12/28/2022 6:45:00 PM 2.62 36.716 0.235 7.52 41.26 13.84
12/28/2022 7:00:00 PM 2.6 36.68 0.236 7.52 40.43 13.86
12/28/2022 7:15:00 PM 2.6 36.68 0.235 7.51 39.21 13.84
12/28/2022 7:30:00 PM 2.59 36.662 0.236 7.52 40.47 13.84
12/28/2022 7:45:00 PM 2.6 36.68 0.236 7.51 38.35 13.86
12/28/2022 8:00:00 PM 2.59 36.662 0.236 7.51 42.1 13.84
12/28/2022 8:15:00 PM 2.59 36.662 0.236 7.52 41.19 13.83
12/28/2022 8:30:00 PM 2.6 36.68 0.235 7.5 38.01 13.82
12/28/2022 8:45:00 PM 2.57 36.626 0.235 7.51 41.43 13.83
12/28/2022 9:00:00 PM 2.58 36.644 0.235 7.51 39.16 13.84
12/28/2022 9:15:00 PM 2.59 36.662 0.236 7.5 37.32 13.83
12/28/2022 9:30:00 PM 2.58 36.644 0.236 7.51 38.46 13.79
12/28/2022 9:45:00 PM 2.58 36.644 0.236 7.51 38.63 13.8
12/28/2022 10:00:00 PM 2.57 36.626 0.236 7.52 38.51 13.83
12/28/2022 10:15:00 PM 2.56 36.608 0.236 7.5 37.21 13.81
12/28/2022 10:30:00 PM 2.54 36.572 0.236 7.51 38.38 13.8
12/28/2022 10:45:00 PM 2.51 36.518 0.236 7.51 45.17 13.82
12/28/2022 11:00:00 PM 2.5 36.5 0.235 7.5 39.7 13.82
12/28/2022 11:15:00 PM 2.47 36.446 0.235 7.51 41.22 13.83
12/28/2022 11:30:00 PM 2.47 36.446 0.236 7.51 38.39 13.82
12/28/2022 11:45:00 PM 2.46 36.428 0.236 7.51 43.85 13.81
12/29/2022 12:00:00 AM 2.45 36.41 0.236 7.5 37.56 13.82
12/29/2022 12:15:00 AM 2.43 36.374 0.237 7.5 39.7 13.82
12/29/2022 12:30:00 AM 2.43 36.374 0.237 7.51 40.3 13.83
12/29/2022 12:45:00 AM 2.41 36.338 0.237 7.51 38.39 13.83
12/29/2022 1:00:00 AM 2.39 36.302 0.237 7.5 36.71 13.82
12/29/2022 1:15:00 AM 2.36 36.248 0.236 7.5 38.67 13.83
12/29/2022 1:30:00 AM 2.34 36.212 0.236 7.5 42.46 13.85
12/29/2022 1:45:00 AM 2.32 36.176 0.236 7.5 43.88 13.86
12/29/2022 2:00:00 AM 2.32 36.176 0.237 7.5 41.05 13.85
12/29/2022 2:15:00 AM 2.31 36.158 0.237 7.5 39.37 13.86
12/29/2022 2:30:00 AM 2.3 36.14 0.236 7.5 39.56 13.85
12/29/2022 2:45:00 AM 2.28 36.104 0.237 7.5 39.46 13.84
12/29/2022 3:00:00 AM 2.27 36.086 0.237 7.49 37.82 13.86
12/29/2022 3:15:00 AM 2.25 36.05 0.237 7.51 37.86 13.87
12/29/2022 3:30:00 AM 2.24 36.032 0.236 7.49 38.3 13.86
12/29/2022 3:45:00 AM 2.22 35.996 0.236 7.49 37.06 13.87
12/29/2022 4:00:00 AM 2.21 35.978 0.236 7.51 35.8 13.87
12/29/2022 4:15:00 AM 2.2 35.96 0.236 7.49 38.55 13.88
12/29/2022 4:30:00 AM 2.19 35.942 0.237 7.5 34.27 13.86
12/29/2022 4:45:00 AM 2.18 35.924 0.237 7.5 38.81 13.89
12/29/2022 5:00:00 AM 2.16 35.888 0.237 7.5 37.4 13.89
12/29/2022 5:15:00 AM 2.15 35.87 0.237 7.49 39.76 13.89
12/29/2022 5:30:00 AM 2.13 35.834 0.237 7.49 40.01 13.9
12/29/2022 5:45:00 AM 2.12 35.816 0.237 7.49 41.1 13.91
12/29/2022 6:00:00 AM 2.1 35.78 0.236 7.49 38.45 13.93
12/29/2022 6:15:00 AM 2.08 35.744 0.236 7.49 38.42 13.94
12/29/2022 6:30:00 AM 2.06 35.708 0.236 7.5 36.57 13.93
12/29/2022 6:45:00 AM 2.06 35.708 0.236 7.49 35.56 13.94
12/29/2022 7:00:00 AM 2.05 35.69 0.236 7.5 37.49 13.95
12/29/2022 7:15:00 AM 2.03 35.654 0.236 7.5 33.43 13.95
12/29/2022 7:30:00 AM 2.02 35.636 0.236 7.5 37.31 13.96
12/29/2022 7:45:00 AM 2 35.6 0.236 7.5 44.97 13.96
12/29/2022 8:00:00 AM 2 35.6 0.236 7.49 43.48 13.99
12/29/2022 8:15:00 AM 2 35.6 0.236 7.49 42.9 13.98
12/29/2022 8:30:00 AM 2.01 35.618 0.235 7.49 45.01 14.03
12/29/2022 8:45:00 AM 2.02 35.636 0.235 7.5 42.66 14.06
12/29/2022 9:00:00 AM 2.06 35.708 0.235 7.5 43.54 14.05
12/29/2022 9:15:00 AM 2.1 35.78 0.236 7.5 45.33 14.08
12/29/2022 9:30:00 AM 2.15 35.87 0.236 7.5 46.77 14.11
12/29/2022 9:45:00 AM 2.21 35.978 0.236 7.51 52.32 14.12
12/29/2022 10:00:00 AM 2.27 36.086 0.236 7.5 52.38 14.11
12/29/2022 10:15:00 AM 2.36 36.248 0.235 7.5 49.37 14.1
12/29/2022 10:30:00 AM 2.45 36.41 0.235 7.51 51.45 14.13
12/29/2022 10:45:00 AM 2.52 36.536 0.235 7.51 51.88 14.13
12/29/2022 11:00:00 AM 2.63 36.734 0.235 7.51 51.04 14.12
12/29/2022 11:15:00 AM 2.74 36.932 0.235 7.52 61 14.1
12/29/2022 11:30:00 AM 2.86 37.148 0.235 7.52 57.08 14.08
12/29/2022 11:45:00 AM 2.95 37.31 0.235 7.52 55.7 14.09
12/29/2022 12:00:00 PM 3.07 37.526 0.235 7.53 56.5 14.07
12/29/2022 12:15:00 PM 3.14 37.652 0.235 7.53 54.85 14.06
12/29/2022 12:30:00 PM 3.21 37.778 0.235 7.53 55.09 14.04
12/29/2022 12:45:00 PM 3.27 37.886 0.235 7.54 54.92 14.04
12/29/2022 1:00:00 PM 3.33 37.994 0.235 7.54 46.84 14.03
12/29/2022 1:15:00 PM 3.39 38.102 0.235 7.54 51.47 14
12/29/2022 1:30:00 PM 3.43 38.174 0.235 7.54 45.75 13.99
12/29/2022 1:45:00 PM 3.47 38.246 0.234 7.55 43.38 13.99
12/29/2022 2:00:00 PM 3.5 38.3 0.235 7.55 43.6 13.97
12/29/2022 2:15:00 PM 3.53 38.354 0.235 7.56 44.55 13.94
12/29/2022 2:30:00 PM 3.53 38.354 0.235 7.55 50.28 13.93
12/29/2022 2:45:00 PM 3.52 38.336 0.235 7.55 46.25 13.93
12/29/2022 3:00:00 PM 3.49 38.282 0.235 7.55 46.45 13.91
12/29/2022 3:15:00 PM 3.46 38.228 0.236 7.56 44.9 13.89
12/29/2022 3:30:00 PM 3.41 38.138 0.235 7.56 48.48 13.89
12/29/2022 3:45:00 PM 3.36 38.048 0.235 7.55 47.01 13.87
12/29/2022 4:00:00 PM 3.32 37.976 0.235 7.54 47.91 13.85
12/29/2022 4:15:00 PM 3.28 37.904 0.236 7.55 47.45 13.86
12/29/2022 4:30:00 PM 3.26 37.868 0.236 7.54 43.24 13.82
12/29/2022 4:45:00 PM 3.22 37.796 0.236 7.54 43.07 13.83
12/29/2022 5:00:00 PM 3.17 37.706 0.236 7.54 43.45 13.8
12/29/2022 5:15:00 PM 3.11 37.598 0.236 7.54 50.09 13.81
12/29/2022 5:30:00 PM 3.07 37.526 0.237 7.53 45.12 13.8
12/29/2022 5:45:00 PM 3.04 37.472 0.237 7.52 47.65 13.79
12/29/2022 6:00:00 PM 2.99 37.382 0.236 7.53 55.9 13.77
12/29/2022 6:15:00 PM 2.95 37.31 0.236 7.53 46.62 13.78
12/29/2022 6:30:00 PM 2.93 37.274 0.236 7.51 47.48 13.77
12/29/2022 6:45:00 PM 2.9 37.22 0.237 7.52 42.84 13.76
12/29/2022 7:00:00 PM 2.88 37.184 0.237 7.52 43.22 13.76
12/29/2022 7:15:00 PM 2.86 37.148 0.237 7.52 43.81 13.77
12/29/2022 7:30:00 PM 2.86 37.148 0.237 7.52 37.92 13.75
12/29/2022 7:45:00 PM 2.86 37.148 0.237 7.52 38.68 13.74
12/29/2022 8:00:00 PM 2.85 37.13 0.238 7.51 41.35 13.75
12/29/2022 8:15:00 PM 2.85 37.13 0.238 7.51 38.8 13.73
12/29/2022 8:30:00 PM 2.84 37.112 0.237 7.52 38.72 13.74
12/29/2022 8:45:00 PM 2.83 37.094 0.237 7.51 38.66 13.75
12/29/2022 9:00:00 PM 2.83 37.094 0.237 7.51 40.91 13.74
12/29/2022 9:15:00 PM 2.85 37.13 0.237 7.51 41.02 13.73
12/29/2022 9:30:00 PM 2.84 37.112 0.238 7.5 42.58 13.73
12/29/2022 9:45:00 PM 2.86 37.148 0.237 7.5 44.29 13.73
12/29/2022 10:00:00 PM 2.87 37.166 0.237 7.5 43.91 13.7
12/29/2022 10:15:00 PM 2.85 37.13 0.238 7.5 39.62 13.7
12/29/2022 10:30:00 PM 2.83 37.094 0.237 7.5 43.11 13.72
12/29/2022 10:45:00 PM 2.83 37.094 0.237 7.5 39.78 13.72
12/29/2022 11:00:00 PM 2.79 37.022 0.237 7.49 41 13.72
12/29/2022 11:15:00 PM 2.79 37.022 0.237 7.5 38.51 13.71
12/29/2022 11:30:00 PM 2.8 37.04 0.237 7.49 38.6 13.71
12/29/2022 11:45:00 PM 2.8 37.04 0.237 7.5 43.47 13.7
12/30/2022 12:00:00 AM 2.78 37.004 0.238 7.5 37.56 13.7
12/30/2022 12:15:00 AM 2.8 37.04 0.237 7.5 37.51 13.72
12/30/2022 12:30:00 AM 2.81 37.058 0.238 7.49 40.9 13.7
12/30/2022 12:45:00 AM 2.81 37.058 0.238 7.51 38.26 13.71
12/30/2022 1:00:00 AM 2.81 37.058 0.238 7.49 39.48 13.69
12/30/2022 1:15:00 AM 2.82 37.076 0.237 7.49 40.23 13.7
12/30/2022 1:30:00 AM 2.8 37.04 0.237 7.5 39.16 13.72
12/30/2022 1:45:00 AM 2.81 37.058 0.237 7.5 37.79 13.7
12/30/2022 2:00:00 AM 2.81 37.058 0.238 7.5 40.91 13.69
12/30/2022 2:15:00 AM 2.8 37.04 0.238 7.5 40.94 13.69
12/30/2022 2:30:00 AM 2.81 37.058 0.238 7.49 43.74 13.68
12/30/2022 2:45:00 AM 2.8 37.04 0.238 7.49 37.57 13.68
12/30/2022 3:00:00 AM 2.82 37.076 0.238 7.48 37.71 13.68
12/30/2022 3:15:00 AM 2.8 37.04 0.238 7.48 37.94 13.7
12/30/2022 3:30:00 AM 2.8 37.04 0.237 7.48 42.44 13.69
12/30/2022 3:45:00 AM 2.81 37.058 0.237 7.49 37.99 13.7
12/30/2022 4:00:00 AM 2.79 37.022 0.237 7.49 37.1 13.69
12/30/2022 4:15:00 AM 2.79 37.022 0.237 7.48 37.66 13.7
12/30/2022 4:30:00 AM 2.8 37.04 0.237 7.48 40.22 13.69
12/30/2022 4:45:00 AM 2.8 37.04 0.238 7.49 42.86 13.7
12/30/2022 5:00:00 AM 2.81 37.058 0.237 7.49 44.17 13.68
12/30/2022 5:15:00 AM 2.82 37.076 0.237 7.48 38.23 13.69
12/30/2022 5:30:00 AM 2.83 37.094 0.238 7.48 38.07 13.69
12/30/2022 5:45:00 AM 2.83 37.094 0.237 7.48 39.33 13.65
12/30/2022 6:00:00 AM 2.83 37.094 0.237 7.5 39.73 13.68
12/30/2022 6:15:00 AM 2.84 37.112 0.237 7.49 38.8 13.68
12/30/2022 6:30:00 AM 2.85 37.13 0.237 7.49 40.15 13.67
12/30/2022 6:45:00 AM 2.88 37.184 0.237 7.47 43.3 13.69
12/30/2022 7:00:00 AM 2.9 37.22 0.238 7.48 38.86 13.64
12/30/2022 7:15:00 AM 2.9 37.22 0.238 7.47 43.6 13.64
12/30/2022 7:30:00 AM 2.9 37.22 0.237 7.48 41.49 13.66
12/30/2022 7:45:00 AM 2.88 37.184 0.237 7.48 40.35 13.67
12/30/2022 8:00:00 AM 2.86 37.148 0.237 7.49 39.67 13.69
12/30/2022 8:15:00 AM 2.88 37.184 0.237 7.49 39.84 13.71
12/30/2022 8:30:00 AM 2.91 37.238 0.237 7.49 41.71 13.72
12/30/2022 8:45:00 AM 2.95 37.31 0.236 7.49 43.96 13.78
12/30/2022 9:00:00 AM 3 37.4 0.236 7.49 46.51 13.8
12/30/2022 9:15:00 AM 3.11 37.598 0.236 7.49 40.65 13.82
12/30/2022 9:30:00 AM 3.18 37.724 0.237 7.5 39.66 13.84
12/30/2022 9:45:00 AM 3.29 37.922 0.237 7.49 44.08 13.82
12/30/2022 10:00:00 AM 3.39 38.102 0.237 7.47 42.08 13.76
12/30/2022 10:15:00 AM 3.52 38.336 0.238 7.44 49.97 13.73
12/30/2022 10:30:00 AM 3.63 38.534 0.238 7.46 57.94 13.72
12/30/2022 10:45:00 AM 3.74 38.732 0.237 7.46 56.29 13.7
12/30/2022 11:00:00 AM 3.83 38.894 0.237 7.47 58.83 13.71
12/30/2022 11:15:00 AM 3.94 39.092 0.237 7.48 55.91 13.7
12/30/2022 11:30:00 AM 4.05 39.29 0.237 7.49 53.67 13.69
12/30/2022 11:45:00 AM 4.17 39.506 0.237 7.5 51.03 13.67
12/30/2022 12:00:00 PM 4.26 39.668 0.237 7.51 49.8 13.67
12/30/2022 12:15:00 PM 4.36 39.848 0.237 7.51 47.15 13.66
12/30/2022 12:30:00 PM 4.44 39.992 0.237 7.52 47.53 13.65
12/30/2022 12:45:00 PM 4.51 40.118 0.236 7.52 51.65 13.63
12/30/2022 1:00:00 PM 4.57 40.226 0.236 7.52 59.83 13.57
12/30/2022 1:15:00 PM 4.64 40.352 0.236 7.52 62.46 13.52
12/30/2022 1:30:00 PM 4.68 40.424 0.236 7.52 61.7 13.52
12/30/2022 1:45:00 PM 4.73 40.514 0.236 7.52 63.64 13.51
12/30/2022 2:00:00 PM 4.75 40.55 0.236 7.53 61.73 13.49
12/30/2022 2:15:00 PM 4.77 40.586 0.237 7.52 62.11 13.45
12/30/2022 2:30:00 PM 4.8 40.64 0.237 7.53 56.22 13.46
12/30/2022 2:45:00 PM 4.77 40.586 0.237 7.53 59.99 13.45
12/30/2022 3:00:00 PM 4.75 40.55 0.237 7.52 56.32 13.43
12/30/2022 3:15:00 PM 4.71 40.478 0.237 7.53 56.76 13.42
12/30/2022 3:30:00 PM 4.64 40.352 0.237 7.53 51.31 13.4
12/30/2022 3:45:00 PM 4.57 40.226 0.237 7.52 57.62 13.41
12/30/2022 4:00:00 PM 4.49 40.082 0.237 7.52 60.31 13.38
12/30/2022 4:15:00 PM 4.45 40.01 0.237 7.52 59.77 13.37
12/30/2022 4:30:00 PM 4.44 39.992 0.238 7.52 56.5 13.34
12/30/2022 4:45:00 PM 4.41 39.938 0.238 7.52 56.59 13.33
12/30/2022 5:00:00 PM 4.41 39.938 0.238 7.51 53.58 13.31
12/30/2022 5:15:00 PM 4.31 39.758 0.238 7.52 56.27 13.29
12/30/2022 5:30:00 PM 4.33 39.794 0.238 7.51 48.2 13.25
12/30/2022 5:45:00 PM 4.28 39.704 0.238 7.5 51.37 13.26
12/30/2022 6:00:00 PM 4.21 39.578 0.238 7.51 55.38 13.25
12/30/2022 6:15:00 PM 4.11 39.398 0.238 7.5 59.86 13.26
12/30/2022 6:30:00 PM 4.1 39.38 0.238 7.49 69.39 13.25
12/30/2022 6:45:00 PM 4.05 39.29 0.238 7.49 71.91 13.23
12/30/2022 7:00:00 PM 3.99 39.182 0.238 7.48 80.53 13.22
12/30/2022 7:15:00 PM 3.99 39.182 0.239 7.49 72.62 13.21
12/30/2022 7:30:00 PM 3.96 39.128 0.239 7.48 58.76 13.21
12/30/2022 7:45:00 PM 3.94 39.092 0.239 7.48 57.6 13.22
12/30/2022 8:00:00 PM 3.94 39.092 0.239 7.48 61.42 13.22
12/30/2022 8:15:00 PM 3.95 39.11 0.239 7.48 58.21 13.21
12/30/2022 8:30:00 PM 3.91 39.038 0.239 7.47 64.89 13.21
12/30/2022 8:45:00 PM 3.93 39.074 0.238 7.48 66.72 13.19
12/30/2022 9:00:00 PM 3.95 39.11 0.238 7.46 64.01 13.19
12/30/2022 9:15:00 PM 3.9 39.02 0.238 7.46 70.12 13.18
12/30/2022 9:30:00 PM 3.93 39.074 0.238 7.48 62.46 13.16
12/30/2022 9:45:00 PM 3.92 39.056 0.239 7.48 68.98 13.18
12/30/2022 10:00:00 PM 3.94 39.092 0.239 7.47 64.59 13.15
12/30/2022 10:15:00 PM 3.92 39.056 0.239 7.47 70.41 13.16
12/30/2022 10:30:00 PM 3.94 39.092 0.238 7.47 61.13 13.13
12/30/2022 10:45:00 PM 3.92 39.056 0.238 7.45 72.83 13.14
12/30/2022 11:00:00 PM 3.91 39.038 0.238 7.46 63.03 13.15
12/30/2022 11:15:00 PM 3.9 39.02 0.237 7.46 58.7 13.13
12/30/2022 11:30:00 PM 3.83 38.894 0.238 7.47 54.7 13.16
12/30/2022 11:45:00 PM 3.83 38.894 0.238 7.47 54.93 13.14
12/31/2022 12:00:00 AM 3.85 38.93 0.238 7.47 53.42 13.13
12/31/2022 12:15:00 AM 3.82 38.876 0.239 7.46 60.69 13.12
12/31/2022 12:30:00 AM 3.86 38.948 0.239 7.46 50.11 13.15
12/31/2022 12:45:00 AM 3.84 38.912 0.239 7.46 51.92 13.14
12/31/2022 1:00:00 AM 3.84 38.912 0.239 7.46 59.04 13.11
12/31/2022 1:15:00 AM 3.8 38.84 0.239 7.45 48.54 13.12
12/31/2022 1:30:00 AM 3.83 38.894 0.238 7.46 44.48 13.15
12/31/2022 1:45:00 AM 3.8 38.84 0.238 7.46 43.64 13.14
12/31/2022 2:00:00 AM 3.76 38.768 0.239 7.47 46.26 13.15
12/31/2022 2:15:00 AM 3.82 38.876 0.239 7.46 49.49 13.13
12/31/2022 2:30:00 AM 3.82 38.876 0.239 7.46 48.29 13.13
12/31/2022 2:45:00 AM 3.79 38.822 0.239 7.47 51 13.11
12/31/2022 3:00:00 AM 3.83 38.894 0.239 7.47 48.66 13.11
12/31/2022 3:15:00 AM 3.81 38.858 0.239 7.47 47.19 13.11
12/31/2022 3:30:00 AM 3.83 38.894 0.239 7.46 47.01 13.1
12/31/2022 3:45:00 AM 3.82 38.876 0.239 7.47 43.24 13.11
12/31/2022 4:00:00 AM 3.83 38.894 0.238 7.47 49.04 13.1
12/31/2022 4:15:00 AM 3.86 38.948 0.238 7.47 45.25 13.1
12/31/2022 4:30:00 AM 3.86 38.948 0.238 7.46 45.29 13.09
12/31/2022 4:45:00 AM 3.9 39.02 0.238 7.46 51.23 13.07
12/31/2022 5:00:00 AM 3.93 39.074 0.238 7.46 46.5 13.08
12/31/2022 5:15:00 AM 3.93 39.074 0.239 7.47 42.7 13.08
12/31/2022 5:30:00 AM 4 39.2 0.239 7.45 43.83 13.06
12/31/2022 5:45:00 AM 4 39.2 0.239 7.46 49.22 13.07
12/31/2022 6:00:00 AM 4.01 39.218 0.238 7.47 44.12 13.07
12/31/2022 6:15:00 AM 4.06 39.308 0.238 7.45 41.16 13.05
12/31/2022 6:30:00 AM 4.07 39.326 0.238 7.45 45.19 13.04
12/31/2022 6:45:00 AM 4.09 39.362 0.238 7.47 42.3 13.01
12/31/2022 7:00:00 AM 4.14 39.452 0.238 7.46 41.13 13.03
12/31/2022 7:15:00 AM 4.18 39.524 0.238 7.46 44.8 13
12/31/2022 7:30:00 AM 4.21 39.578 0.238 7.46 51.99 13
12/31/2022 7:45:00 AM 4.24 39.632 0.238 7.46 59.39 12.98
12/31/2022 8:00:00 AM 4.23 39.614 0.237 7.46 62.47 12.97
12/31/2022 8:15:00 AM 4.23 39.614 0.237 7.46 65.7 12.97
12/31/2022 8:30:00 AM 4.25 39.65 0.237 7.46 57.07 12.98
12/31/2022 8:45:00 AM 4.23 39.614 0.237 7.47 59.6 13.02
12/31/2022 9:00:00 AM 4.29 39.722 0.236 7.47 62.03 13.01
12/31/2022 9:15:00 AM 4.33 39.794 0.236 7.46 59.15 13.03
12/31/2022 9:30:00 AM 4.37 39.866 0.237 7.48 61.05 13.07
12/31/2022 9:45:00 AM 4.45 40.01 0.236 7.49 61.11 13.08
12/31/2022 10:00:00 AM 4.49 40.082 0.236 7.49 49.28 13.13
12/31/2022 10:15:00 AM 4.57 40.226 0.236 7.48 65.16 13.16
12/31/2022 10:30:00 AM 4.6 40.28 0.236 7.49 60.87 13.16
12/31/2022 10:45:00 AM 4.67 40.406 0.235 7.5 54.59 13.17
12/31/2022 11:00:00 AM 4.67 40.406 0.236 7.5 51.23 13.17
12/31/2022 11:15:00 AM 4.72 40.496 0.235 7.51 53.08 13.18
12/31/2022 11:30:00 AM 4.8 40.64 0.235 7.52 47.19 13.2
12/31/2022 11:45:00 AM 4.91 40.838 0.236 7.52 54.72 13.17
12/31/2022 12:00:00 PM 4.94 40.892 0.236 7.54 55.79 13.17
12/31/2022 12:15:00 PM 4.95 40.91 0.236 7.52 54.43 13.12
12/31/2022 12:30:00 PM 4.95 40.91 0.236 7.53 55.76 13.09
12/31/2022 12:45:00 PM 4.92 40.856 0.236 7.52 53.83 13.06
12/31/2022 1:00:00 PM 4.94 40.892 0.235 7.53 51.72 13.07
12/31/2022 1:15:00 PM 4.92 40.856 0.235 7.52 57.96 13.06
12/31/2022 1:30:00 PM 4.89 40.802 0.235 7.52 50.95 13.07
12/31/2022 1:45:00 PM 4.88 40.784 0.235 7.53 48.23 13.06
12/31/2022 2:00:00 PM 4.93 40.874 0.235 7.52 49.31 13.06
12/31/2022 2:15:00 PM 4.96 40.928 0.236 7.53 52.2 13.06
12/31/2022 2:30:00 PM 4.94 40.892 0.236 7.52 48.23 13.06
12/31/2022 2:45:00 PM 4.95 40.91 0.236 7.53 59.38 13.04
12/31/2022 3:00:00 PM 4.99 40.982 0.236 7.52 53.79 13.02
12/31/2022 3:15:00 PM 4.94 40.892 0.236 7.53 51.51 13.02
12/31/2022 3:30:00 PM 4.99 40.982 0.236 7.53 50.61 12.98
12/31/2022 3:45:00 PM 4.92 40.856 0.236 7.52 53.61 12.97
12/31/2022 4:00:00 PM 4.95 40.91 0.236 7.51 56.9 12.94
12/31/2022 4:15:00 PM 4.91 40.838 0.236 7.51 61.82 12.93
12/31/2022 4:30:00 PM 4.95 40.91 0.237 7.51 56.79 12.9
12/31/2022 4:45:00 PM 4.93 40.874 0.237 7.51 62.95 12.85
12/31/2022 5:00:00 PM 4.92 40.856 0.237 7.51 57.41 12.86
12/31/2022 5:15:00 PM 4.92 40.856 0.237 7.51 53.77 12.82
12/31/2022 5:30:00 PM 4.96 40.928 0.237 7.5 57.44 12.81
12/31/2022 5:45:00 PM 4.97 40.946 0.237 7.5 56.4 12.78
12/31/2022 6:00:00 PM 5.02 41.036 0.236 7.49 67.33 12.76
12/31/2022 6:15:00 PM 4.93 40.874 0.235 7.48 73.9 12.79
12/31/2022 6:30:00 PM 4.97 40.946 0.235 7.47 57.54 12.73
12/31/2022 6:45:00 PM 4.98 40.964 0.235 7.48 55.81 12.74
12/31/2022 7:00:00 PM 4.95 40.91 0.236 7.48 52.38 12.72
12/31/2022 7:15:00 PM 5.02 41.036 0.236 7.48 49.82 12.71
12/31/2022 7:30:00 PM 4.99 40.982 0.236 7.47 52.65 12.71
12/31/2022 7:45:00 PM 5 41 0.237 7.48 48.59 12.7
12/31/2022 8:00:00 PM 5.04 41.072 0.237 7.47 50.39 12.67
12/31/2022 8:15:00 PM 5.08 41.144 0.237 7.47 55.15 12.66
12/31/2022 8:30:00 PM 5.07 41.126 0.237 7.47 53.79 12.66
12/31/2022 8:45:00 PM 5.09 41.162 0.236 7.47 59.54 12.65
12/31/2022 9:00:00 PM 5.05 41.09 0.237 7.46 54.69 12.62
12/31/2022 9:15:00 PM 5.07 41.126 0.237 7.46 54.87 12.64
12/31/2022 9:30:00 PM 5.16 41.288 0.237 7.46 66.92 12.61
12/31/2022 9:45:00 PM 5.15 41.27 0.238 7.46 60.67 12.61
12/31/2022 10:00:00 PM 5.16 41.288 0.238 7.45 55.28 12.59
12/31/2022 10:15:00 PM 5.14 41.252 0.238 7.45 62.1 12.58
12/31/2022 10:30:00 PM 5.21 41.378 0.237 7.45 55.46 12.56
12/31/2022 10:45:00 PM 5.14 41.252 0.237 7.45 51.24 12.57
12/31/2022 11:00:00 PM 5.16 41.288 0.237 7.45 55.18 12.55
12/31/2022 11:15:00 PM 5.21 41.378 0.237 7.46 53.39 12.53
12/31/2022 11:30:00 PM 5.18 41.324 0.238 7.45 55.84 12.53
12/31/2022 11:45:00 PM 5.25 41.45 0.238 7.44 51.3 12.51
1/1/2023 12:00:00 AM 5.2 41.36 0.238 7.45 69.16 12.52
1/1/2023 12:15:00 AM 5.27 41.486 0.238 7.44 62.63 12.51
1/1/2023 12:30:00 AM 5.22 41.396 0.238 7.45 55.95 12.49
1/1/2023 12:45:00 AM 5.17 41.306 0.238 7.45 57.68 12.47
1/1/2023 1:00:00 AM 5.18 41.324 0.237 7.45 58.81 12.48
1/1/2023 1:15:00 AM 5.15 41.27 0.237 7.45 57.71 12.48
1/1/2023 1:30:00 AM 5.23 41.414 0.236 7.44 52.58 12.48
1/1/2023 1:45:00 AM 5.15 41.27 0.237 7.44 63.25 12.5
1/1/2023 2:00:00 AM 5.18 41.324 0.237 7.44 50.36 12.48
1/1/2023 2:15:00 AM 5.15 41.27 0.238 7.44 55.74 12.47
1/1/2023 2:30:00 AM 5.17 41.306 0.237 7.44 59.84 12.46
1/1/2023 2:45:00 AM 5.09 41.162 0.237 7.45 56.29 12.47
1/1/2023 3:00:00 AM 5.02 41.036 0.238 7.45 58.15 12.46
1/1/2023 3:15:00 AM 5.03 41.054 0.237 7.44 61.87 12.47
1/1/2023 3:30:00 AM 5 41 0.236 7.45 59.31 12.48
1/1/2023 3:45:00 AM 5.02 41.036 0.236 7.45 65.21 12.47
1/1/2023 4:00:00 AM 4.96 40.928 0.236 7.44 51.4 12.5
1/1/2023 4:15:00 AM 4.95 40.91 0.236 7.45 64.6 12.47
1/1/2023 4:30:00 AM 4.96 40.928 0.236 7.45 62.67 12.46
1/1/2023 4:45:00 AM 4.96 40.928 0.236 7.45 55.55 12.46
1/1/2023 5:00:00 AM 4.95 40.91 0.236 7.46 50.49 12.46
1/1/2023 5:15:00 AM 4.96 40.928 0.235 7.46 55.85 12.45
1/1/2023 5:30:00 AM 5.02 41.036 0.235 7.45 61.55 12.43
1/1/2023 5:45:00 AM 4.97 40.946 0.234 7.45 64.9 12.47
1/1/2023 6:00:00 AM 4.91 40.838 0.234 7.46 65.5 12.45
1/1/2023 6:15:00 AM 4.99 40.982 0.233 7.44 74.56 12.46
1/1/2023 6:30:00 AM 4.94 40.892 0.233 7.45 59.25 12.46
1/1/2023 6:45:00 AM 4.94 40.892 0.234 7.45 68.62 12.47
1/1/2023 7:00:00 AM 4.94 40.892 0.234 7.44 72.57 12.49
1/1/2023 7:15:00 AM 4.83 40.694 0.235 7.46 65.01 12.49
1/1/2023 7:30:00 AM 4.79 40.622 0.235 7.47 63.29 12.53
1/1/2023 7:45:00 AM 4.8 40.64 0.235 7.45 61.53 12.54
1/1/2023 8:00:00 AM 4.79 40.622 0.235 7.45 56.38 12.57
1/1/2023 8:15:00 AM 4.77 40.586 0.235 7.46 57.57 12.59
1/1/2023 8:30:00 AM 4.85 40.73 0.235 7.45 59.65 12.62
1/1/2023 8:45:00 AM 4.79 40.622 0.236 7.46 59.27 12.67
1/1/2023 9:00:00 AM 4.75 40.55 0.237 7.46 63.92 12.7
1/1/2023 9:15:00 AM 4.78 40.604 0.238 7.46 82.1 12.7
1/1/2023 9:30:00 AM 4.84 40.712 0.239 7.47 72.7 12.76
1/1/2023 9:45:00 AM 4.84 40.712 0.24 7.47 85.79 12.77
1/1/2023 10:00:00 AM 4.95 40.91 0.24 7.48 80.09 12.81
1/1/2023 10:15:00 AM 4.98 40.964 0.24 7.49 70.85 12.86
1/1/2023 10:30:00 AM 5.07 41.126 0.24 7.48 68.16 12.87
1/1/2023 10:45:00 AM 5.13 41.234 0.239 7.49 61.29 12.91
1/1/2023 11:00:00 AM 5.15 41.27 0.239 7.51 66.75 12.93
1/1/2023 11:15:00 AM 5.26 41.468 0.238 7.51 64.08 12.94
1/1/2023 11:30:00 AM 5.35 41.63 0.238 7.51 79.37 12.9
1/1/2023 11:45:00 AM 5.48 41.864 0.238 7.52 78.88 12.88
1/1/2023 12:00:00 PM 5.62 42.116 0.238 7.51 68.86 12.92
1/1/2023 12:15:00 PM 5.62 42.116 0.237 7.53 80.4 12.89
1/1/2023 12:30:00 PM 5.64 42.152 0.237 7.51 79.37 12.89
1/1/2023 12:45:00 PM 5.66 42.188 0.237 7.52 79.28 12.9
1/1/2023 1:00:00 PM 5.73 42.314 0.236 7.52 80.41 12.91
1/1/2023 1:15:00 PM 5.82 42.476 0.236 7.52 83.49 12.94
1/1/2023 1:30:00 PM 5.87 42.566 0.236 7.53 89.79 12.95
1/1/2023 1:45:00 PM 5.95 42.71 0.236 7.53 81.34 12.97
1/1/2023 2:00:00 PM 5.93 42.674 0.237 7.55 79.6 12.96
1/1/2023 2:15:00 PM 6 42.8 0.238 7.54 77.56 12.97
1/1/2023 2:30:00 PM 6.03 42.854 0.238 7.54 74.29 12.94
1/1/2023 2:45:00 PM 6.06 42.908 0.238 7.54 71.67 12.9
1/1/2023 3:00:00 PM 5.99 42.782 0.238 7.55 73.63 12.9
1/1/2023 3:15:00 PM 5.9 42.62 0.239 7.55 63.82 12.89
1/1/2023 3:30:00 PM 5.9 42.62 0.239 7.55 62.21 12.86
1/1/2023 3:45:00 PM 5.76 42.368 0.239 7.55 61.03 12.84
1/1/2023 4:00:00 PM 5.8 42.44 0.239 7.54 66.13 12.8
1/1/2023 4:15:00 PM 5.66 42.188 0.239 7.53 74.82 12.8
1/1/2023 4:30:00 PM 5.63 42.134 0.24 7.54 68.69 12.78
1/1/2023 4:45:00 PM 5.6 42.08 0.24 7.53 61.46 12.75
1/1/2023 5:00:00 PM 5.49 41.882 0.24 7.53 63.01 12.74
1/1/2023 5:15:00 PM 5.5 41.9 0.24 7.53 58.17 12.72
1/1/2023 5:30:00 PM 5.37 41.666 0.24 7.52 66.18 12.75
1/1/2023 5:45:00 PM 5.33 41.594 0.24 7.52 60.17 12.74
1/1/2023 6:00:00 PM 5.2 41.36 0.24 7.51 58.74 12.74
1/1/2023 6:15:00 PM 5.2 41.36 0.24 7.5 63.48 12.73
1/1/2023 6:30:00 PM 5.07 41.126 0.24 7.5 86.51 12.74
1/1/2023 6:45:00 PM 5.03 41.054 0.239 7.48 114.6 12.73
1/1/2023 7:00:00 PM 5.16 41.288 0.239 7.47 114.8 12.67
1/1/2023 7:15:00 PM 5.04 41.072 0.24 7.47 102.3 12.7
1/1/2023 7:30:00 PM 5.04 41.072 0.24 7.47 84.16 12.71
1/1/2023 7:45:00 PM 5.04 41.072 0.241 7.47 75.38 12.71
1/1/2023 8:00:00 PM 5.13 41.234 0.24 7.47 71.73 12.71
1/1/2023 8:15:00 PM 5.02 41.036 0.241 7.47 79.56 12.72
1/1/2023 8:30:00 PM 5 41 0.241 7.48 83.79 12.72
1/1/2023 8:45:00 PM 5.05 41.09 0.24 7.47 93.04 12.68
1/1/2023 9:00:00 PM 5.05 41.09 0.239 7.47 83.27 12.69
1/1/2023 9:15:00 PM 5.04 41.072 0.239 7.46 86.02 12.68
1/1/2023 9:30:00 PM 5.08 41.144 0.239 7.46 86.9 12.66
1/1/2023 9:45:00 PM 4.95 40.91 0.239 7.48 89.26 12.68
1/1/2023 10:00:00 PM 4.92 40.856 0.239 7.48 76.84 12.7
1/1/2023 10:15:00 PM 4.9 40.82 0.239 7.48 69.19 12.7
1/1/2023 10:30:00 PM 4.97 40.946 0.238 7.47 68.5 12.69
1/1/2023 10:45:00 PM 4.93 40.874 0.237 7.47 72.18 12.68
1/1/2023 11:00:00 PM 4.85 40.73 0.237 7.47 69.56 12.72
1/1/2023 11:15:00 PM 4.77 40.586 0.237 7.47 80.61 12.74
1/1/2023 11:30:00 PM 4.79 40.622 0.236 7.47 74.17 12.73
1/1/2023 11:45:00 PM 4.82 40.676 0.237 7.47 64.29 12.7
1/2/2023 12:00:00 AM 4.74 40.532 0.237 7.47 71.42 12.74
1/2/2023 12:15:00 AM 4.7 40.46 0.238 7.47 71.98 12.73
1/2/2023 12:30:00 AM 4.74 40.532 0.237 7.48 55.78 12.72
1/2/2023 12:45:00 AM 4.78 40.604 0.237 7.47 73.11 12.72
1/2/2023 1:00:00 AM 4.75 40.55 0.238 7.46 63.49 12.72
1/2/2023 1:15:00 AM 4.66 40.388 0.238 7.47 61.03 12.72
1/2/2023 1:30:00 AM 4.68 40.424 0.237 7.46 68.53 12.73
1/2/2023 1:45:00 AM 4.67 40.406 0.237 7.46 56.22 12.71
1/2/2023 2:00:00 AM 4.58 40.244 0.237 7.46 56.87 12.75
1/2/2023 2:15:00 AM 4.55 40.19 0.238 7.46 55.29 12.74
1/2/2023 2:30:00 AM 4.63 40.334 0.238 7.45 57.17 12.73
1/2/2023 2:45:00 AM 4.66 40.388 0.238 7.46 54.81 12.72
1/2/2023 3:00:00 AM 4.55 40.19 0.238 7.46 48.52 12.77
1/2/2023 3:15:00 AM 4.55 40.19 0.238 7.46 56.72 12.75
1/2/2023 3:30:00 AM 4.57 40.226 0.238 7.46 56.74 12.78
1/2/2023 3:45:00 AM 4.5 40.1 0.238 7.46 67.81 12.74
1/2/2023 4:00:00 AM 4.41 39.938 0.238 7.45 68.28 12.79
1/2/2023 4:15:00 AM 4.42 39.956 0.238 7.45 74.97 12.78
1/2/2023 4:30:00 AM 4.47 40.046 0.238 7.44 67.87 12.79
1/2/2023 4:45:00 AM 4.49 40.082 0.238 7.44 67.87 12.8
1/2/2023 5:00:00 AM 4.48 40.064 0.238 7.44 56.46 12.79
1/2/2023 5:15:00 AM 4.41 39.938 0.239 7.44 70.43 12.81
1/2/2023 5:30:00 AM 4.45 40.01 0.239 7.46 56.83 12.81
1/2/2023 5:45:00 AM 4.41 39.938 0.239 7.45 53.2 12.82
1/2/2023 6:00:00 AM 4.42 39.956 0.238 7.46 53.89 12.84
1/2/2023 6:15:00 AM 4.4 39.92 0.238 7.46 50.05 12.84
1/2/2023 6:30:00 AM 4.45 40.01 0.237 7.46 45.91 12.83
1/2/2023 6:45:00 AM 4.43 39.974 0.237 7.46 56.02 12.85
1/2/2023 7:00:00 AM 4.45 40.01 0.238 7.45 49.77 12.85
1/2/2023 7:15:00 AM 4.43 39.974 0.238 7.45 59.56 12.83
1/2/2023 7:30:00 AM 4.43 39.974 0.238 7.46 73.8 12.83
1/2/2023 7:45:00 AM 4.48 40.064 0.237 7.44 70.59 12.82
1/2/2023 8:00:00 AM 4.48 40.064 0.237 7.44 81.94 12.82
1/2/2023 8:15:00 AM 4.44 39.992 0.237 7.44 71.31 12.85
1/2/2023 8:30:00 AM 4.4 39.92 0.237 7.46 61.11 12.89
1/2/2023 8:45:00 AM 4.53 40.154 0.236 7.44 52.73 12.92
1/2/2023 9:00:00 AM 4.48 40.064 0.236 7.45 59.71 12.95
1/2/2023 9:15:00 AM 4.48 40.064 0.236 7.46 55.15 12.99
1/2/2023 9:30:00 AM 4.48 40.064 0.237 7.46 58.08 12.98
1/2/2023 9:45:00 AM 4.5 40.1 0.237 7.46 57.8 12.99
1/2/2023 10:00:00 AM 4.55 40.19 0.237 7.47 57.28 12.99
1/2/2023 10:15:00 AM 4.59 40.262 0.237 7.47 51.58 13.04
1/2/2023 10:30:00 AM 4.6 40.28 0.236 7.48 51.12 13.07
1/2/2023 10:45:00 AM 4.62 40.316 0.236 7.48 56.8 13.12
1/2/2023 11:00:00 AM 4.67 40.406 0.236 7.48 62.18 13.12
1/2/2023 11:15:00 AM 4.7 40.46 0.236 7.49 62.46 13.16
1/2/2023 11:30:00 AM 4.75 40.55 0.236 7.5 64.04 13.18
1/2/2023 11:45:00 AM 4.84 40.712 0.236 7.49 57.85 13.22
1/2/2023 12:00:00 PM 4.83 40.694 0.237 7.52 68.38 13.23
1/2/2023 12:15:00 PM 4.9 40.82 0.236 7.51 67.09 13.22
1/2/2023 12:30:00 PM 4.94 40.892 0.236 7.52 74.33 13.23
1/2/2023 12:45:00 PM 4.98 40.964 0.236 7.53 60.49 13.26
1/2/2023 1:00:00 PM 5.01 41.018 0.236 7.53 63.24 13.25
1/2/2023 1:15:00 PM 5.02 41.036 0.236 7.53 62.27 13.25
1/2/2023 1:30:00 PM 5.04 41.072 0.236 7.54 71.62 13.22
1/2/2023 1:45:00 PM 5.06 41.108 0.236 7.53 73.24 13.19
1/2/2023 2:00:00 PM 5.09 41.162 0.236 7.53 76.79 13.14
1/2/2023 2:15:00 PM 5.07 41.126 0.236 7.53 77.52 13.14
1/2/2023 2:30:00 PM 5.08 41.144 0.237 7.53 84.39 13.11
1/2/2023 2:45:00 PM 5.09 41.162 0.237 7.53 92.08 13.06
1/2/2023 3:00:00 PM 5.12 41.216 0.237 7.53 79.38 13.06
1/2/2023 3:15:00 PM 5.09 41.162 0.237 7.53 74.87 13.07
1/2/2023 3:30:00 PM 5.1 41.18 0.237 7.53 70.74 13.07
1/2/2023 3:45:00 PM 5.09 41.162 0.237 7.53 70.55 13.05
1/2/2023 4:00:00 PM 5.04 41.072 0.237 7.52 67.06 13.04
1/2/2023 4:15:00 PM 5.02 41.036 0.237 7.53 71.65 13.02
1/2/2023 4:30:00 PM 4.99 40.982 0.237 7.53 69.55 12.99
1/2/2023 4:45:00 PM 5 41 0.238 7.52 70.13 12.99
1/2/2023 5:00:00 PM 5.01 41.018 0.238 7.51 78.59 12.95
1/2/2023 5:15:00 PM 5.02 41.036 0.238 7.5 59.75 12.94
1/2/2023 5:30:00 PM 4.95 40.91 0.238 7.5 68.14 12.91
1/2/2023 5:45:00 PM 4.97 40.946 0.238 7.49 68.74 12.9
1/2/2023 6:00:00 PM 4.97 40.946 0.238 7.49 69.04 12.91
1/2/2023 6:15:00 PM 4.92 40.856 0.238 7.48 72.8 12.88
1/2/2023 6:30:00 PM 4.94 40.892 0.238 7.48 74.3 12.88
1/2/2023 6:45:00 PM 4.99 40.982 0.238 7.47 65.15 12.87
1/2/2023 7:00:00 PM 4.95 40.91 0.239 7.47 56.54 12.86
1/2/2023 7:15:00 PM 4.96 40.928 0.239 7.48 50.68 12.85
1/2/2023 7:30:00 PM 4.95 40.91 0.239 7.47 49.59 12.86
1/2/2023 7:45:00 PM 5.02 41.036 0.239 7.47 42.33 12.82
1/2/2023 8:00:00 PM 5.03 41.054 0.239 7.47 47.07 12.81
1/2/2023 8:15:00 PM 4.98 40.964 0.239 7.46 43.96 12.82
1/2/2023 8:30:00 PM 5 41 0.239 7.47 45.34 12.82
1/2/2023 8:45:00 PM 5.04 41.072 0.239 7.46 45.67 12.8
1/2/2023 9:00:00 PM 5.01 41.018 0.238 7.45 47.67 12.8
1/2/2023 9:15:00 PM 5 41 0.238 7.46 51.71 12.8
1/2/2023 9:30:00 PM 4.96 40.928 0.239 7.46 46.31 12.78
1/2/2023 9:45:00 PM 5.05 41.09 0.239 7.45 50.32 12.78
1/2/2023 10:00:00 PM 5.01 41.018 0.239 7.46 47.54 12.78
1/2/2023 10:15:00 PM 5.11 41.198 0.239 7.45 44.33 12.75
1/2/2023 10:30:00 PM 5.08 41.144 0.239 7.46 48.48 12.74
1/2/2023 10:45:00 PM 5.08 41.144 0.239 7.45 48.89 12.74
1/2/2023 11:00:00 PM 5.02 41.036 0.239 7.45 45.2 12.73
1/2/2023 11:15:00 PM 5.09 41.162 0.238 7.45 48.31 12.74
1/2/2023 11:30:00 PM 5.08 41.144 0.238 7.45 49.39 12.74
1/2/2023 11:45:00 PM 5.06 41.108 0.238 7.46 47.91 12.72
1/3/2023 12:00:00 AM 5.18 41.324 0.238 7.44 47.76 12.69
1/3/2023 12:15:00 AM 5.11 41.198 0.239 7.45 40.87 12.68
1/3/2023 12:30:00 AM 5.09 41.162 0.239 7.46 50.29 12.7
1/3/2023 12:45:00 AM 5.09 41.162 0.239 7.46 42.7 12.67
1/3/2023 1:00:00 AM 5.14 41.252 0.239 7.45 44.98 12.68
1/3/2023 1:15:00 AM 5.12 41.216 0.239 7.44 39.31 12.67
1/3/2023 1:30:00 AM 5.16 41.288 0.239 7.44 47.08 12.62
1/3/2023 1:45:00 AM 5.11 41.198 0.239 7.43 53.38 12.67
1/3/2023 2:00:00 AM 5.17 41.306 0.239 7.44 48.67 12.63
1/3/2023 2:15:00 AM 5.11 41.198 0.239 7.46 49.25 12.63
1/3/2023 2:30:00 AM 5.1 41.18 0.239 7.44 43.84 12.66
1/3/2023 2:45:00 AM 5.23 41.414 0.239 7.44 41.01 12.62
1/3/2023 3:00:00 AM 5.19 41.342 0.239 7.44 48.68 12.61
1/3/2023 3:15:00 AM 5.25 41.45 0.239 7.44 52.58 12.6
1/3/2023 3:30:00 AM 5.17 41.306 0.239 7.44 48.22 12.61
1/3/2023 3:45:00 AM 5.2 41.36 0.239 7.43 42.75 12.59
1/3/2023 4:00:00 AM 5.29 41.522 0.238 7.43 42.87 12.59
1/3/2023 4:15:00 AM 5.23 41.414 0.238 7.42 44.07 12.6
1/3/2023 4:30:00 AM 5.18 41.324 0.238 7.42 55.97 12.62
1/3/2023 4:45:00 AM 5.2 41.36 0.239 7.43 48.51 12.59
1/3/2023 5:00:00 AM 5.15 41.27 0.239 7.43 42.95 12.59
1/3/2023 5:15:00 AM 5.22 41.396 0.239 7.43 38.69 12.57
1/3/2023 5:30:00 AM 5.13 41.234 0.239 7.44 39.25 12.59
1/3/2023 5:45:00 AM 5.17 41.306 0.239 7.44 51.18 12.6
1/3/2023 6:00:00 AM 5.15 41.27 0.239 7.44 46.4 12.57
1/3/2023 6:15:00 AM 5.14 41.252 0.239 7.43 47.8 12.58
1/3/2023 6:30:00 AM 5.17 41.306 0.238 7.43 40.07 12.59
1/3/2023 6:45:00 AM 5.13 41.234 0.238 7.43 43.18 12.6
1/3/2023 7:00:00 AM 5.15 41.27 0.238 7.43 39.55 12.6
1/3/2023 7:15:00 AM 5.12 41.216 0.239 7.44 39.5 12.57
1/3/2023 7:30:00 AM 5.18 41.324 0.239 7.43 44.5 12.56
1/3/2023 7:45:00 AM 5.22 41.396 0.238 7.43 40.54 12.54
1/3/2023 8:00:00 AM 5.17 41.306 0.238 7.42 40.59 12.53
1/3/2023 8:15:00 AM 5.16 41.288 0.238 7.43 44.32 12.57
1/3/2023 8:30:00 AM 5.23 41.414 0.237 7.44 44.26 12.58
1/3/2023 8:45:00 AM 5.19 41.342 0.237 7.44 42.24 12.61
1/3/2023 9:00:00 AM 5.21 41.378 0.237 7.43 51.95 12.6
1/3/2023 9:15:00 AM 5.25 41.45 0.236 7.44 62.34 12.6
1/3/2023 9:30:00 AM 5.24 41.432 0.236 7.43 64.41 12.63
1/3/2023 9:45:00 AM 5.31 41.558 0.236 7.43 55.4 12.69
1/3/2023 10:00:00 AM 5.22 41.396 0.235 7.45 85.19 12.77
1/3/2023 10:15:00 AM 5.22 41.396 0.234 7.45 96.23 12.82
1/3/2023 10:30:00 AM 5.16 41.288 0.234 7.47 102.8 12.82
1/3/2023 10:45:00 AM 5.19 41.342 0.234 7.47 97.01 12.87
1/3/2023 11:00:00 AM 5.3 41.54 0.234 7.46 91.73 12.88
1/3/2023 11:15:00 AM 5.23 41.414 0.234 7.47 84.09 12.9
1/3/2023 11:30:00 AM 5.31 41.558 0.234 7.48 79.88 12.92
1/3/2023 11:45:00 AM 5.44 41.792 0.235 7.48 86.23 12.93
1/3/2023 12:00:00 PM 5.51 41.918 0.235 7.49 76.14 12.94
1/3/2023 12:15:00 PM 5.44 41.792 0.236 7.5 77.94 12.98
1/3/2023 12:30:00 PM 5.53 41.954 0.236 7.51 66.46 12.99
1/3/2023 12:45:00 PM 5.55 41.99 0.235 7.52 60.19 13.01
1/3/2023 1:00:00 PM 5.64 42.152 0.235 7.5 67.81 13.01
1/3/2023 1:15:00 PM 5.73 42.314 0.235 7.52 64.35 13
1/3/2023 1:30:00 PM 5.66 42.188 0.235 7.52 66.21 13.01
1/3/2023 1:45:00 PM 5.69 42.242 0.235 7.53 72.61 12.98
1/3/2023 2:00:00 PM 5.72 42.296 0.235 7.54 62.09 13
1/3/2023 2:15:00 PM 5.82 42.476 0.235 7.53 63.27 12.95
1/3/2023 2:30:00 PM 5.85 42.53 0.235 7.52 75.07 12.91
1/3/2023 2:45:00 PM 5.83 42.494 0.236 7.53 67.63 12.89
1/3/2023 3:00:00 PM 5.86 42.548 0.236 7.53 65.4 12.88
1/3/2023 3:15:00 PM 5.73 42.314 0.236 7.53 63.22 12.86
1/3/2023 3:30:00 PM 5.83 42.494 0.236 7.53 64.9 12.84
1/3/2023 3:45:00 PM 5.76 42.368 0.235 7.51 59.1 12.87
1/3/2023 4:00:00 PM 5.72 42.296 0.235 7.52 68.13 12.84
1/3/2023 4:15:00 PM 5.75 42.35 0.236 7.53 58.52 12.81
1/3/2023 4:30:00 PM 5.72 42.296 0.236 7.52 59.28 12.78
1/3/2023 4:45:00 PM 5.82 42.476 0.236 7.52 55.69 12.71
1/3/2023 5:00:00 PM 5.72 42.296 0.236 7.52 55.62 12.71
1/3/2023 5:15:00 PM 5.69 42.242 0.237 7.52 50.68 12.67
1/3/2023 5:30:00 PM 5.75 42.35 0.237 7.5 65.34 12.66
1/3/2023 5:45:00 PM 5.7 42.26 0.236 7.5 51.98 12.63
1/3/2023 6:00:00 PM 5.8 42.44 0.236 7.5 53.81 12.57
1/3/2023 6:15:00 PM 5.62 42.116 0.236 7.5 67.05 12.6
1/3/2023 6:30:00 PM 5.59 42.062 0.236 7.49 77.5 12.58
1/3/2023 6:45:00 PM 5.71 42.278 0.236 7.48 65.33 12.55
1/3/2023 7:00:00 PM 5.6 42.08 0.237 7.48 60.14 12.56
1/3/2023 7:15:00 PM 5.7 42.26 0.237 7.47 52.84 12.54
1/3/2023 7:30:00 PM 5.63 42.134 0.237 7.47 52.54 12.53
1/3/2023 7:45:00 PM 5.66 42.188 0.237 7.47 50.66 12.53
1/3/2023 8:00:00 PM 5.74 42.332 0.237 7.47 48.89 12.52
1/3/2023 8:15:00 PM 5.64 42.152 0.237 7.47 49.55 12.53
1/3/2023 8:30:00 PM 5.69 42.242 0.237 7.47 49.71 12.51
1/3/2023 8:45:00 PM 5.64 42.152 0.236 7.48 53.16 12.52
1/3/2023 9:00:00 PM 5.72 42.296 0.236 7.46 49.85 12.5
1/3/2023 9:15:00 PM 5.61 42.098 0.236 7.47 49 12.49
1/3/2023 9:30:00 PM 5.75 42.35 0.237 7.46 48.94 12.47
1/3/2023 9:45:00 PM 5.68 42.224 0.237 7.46 52.63 12.47
1/3/2023 10:00:00 PM 5.7 42.26 0.237 7.46 50.97 12.47
1/3/2023 10:15:00 PM 5.68 42.224 0.236 7.46 53.6 12.46
1/3/2023 10:30:00 PM 5.76 42.368 0.236 7.45 52.19 12.45
1/3/2023 10:45:00 PM 5.76 42.368 0.236 7.46 50.64 12.42
1/3/2023 11:00:00 PM 5.66 42.188 0.235 7.47 52.22 12.45
1/3/2023 11:15:00 PM 5.62 42.116 0.235 7.45 53.32 12.46
1/3/2023 11:30:00 PM 5.69 42.242 0.235 7.45 54.75 12.45
1/3/2023 11:45:00 PM 5.61 42.098 0.236 7.44 50.71 12.44
1/4/2023 12:00:00 AM 5.65 42.17 0.236 7.45 52.16 12.41
1/4/2023 12:15:00 AM 5.77 42.386 0.236 7.43 53.48 12.37
1/4/2023 12:30:00 AM 5.66 42.188 0.236 7.44 49.58 12.36
1/4/2023 12:45:00 AM 5.59 42.062 0.236 7.45 56.14 12.42
1/4/2023 1:00:00 AM 5.79 42.422 0.236 7.43 48.31 12.37
1/4/2023 1:15:00 AM 5.71 42.278 0.235 7.43 53.66 12.39
1/4/2023 1:30:00 AM 5.6 42.08 0.235 7.44 60.2 12.42
1/4/2023 1:45:00 AM 5.69 42.242 0.235 7.42 54.76 12.4
1/4/2023 2:00:00 AM 5.65 42.17 0.235 7.42 54.38 12.4
1/4/2023 2:15:00 AM 5.68 42.224 0.235 7.43 52.74 12.39
1/4/2023 2:30:00 AM 5.54 41.972 0.236 7.43 50.99 12.42
1/4/2023 2:45:00 AM 5.65 42.17 0.236 7.43 51.78 12.39
1/4/2023 3:00:00 AM 5.6 42.08 0.236 7.43 48.95 12.4
1/4/2023 3:15:00 AM 5.67 42.206 0.236 7.42 55.63 12.4
1/4/2023 3:30:00 AM 5.56 42.008 0.236 7.42 49.42 12.39
1/4/2023 3:45:00 AM 5.7 42.26 0.235 7.42 45.59 12.4
1/4/2023 4:00:00 AM 5.51 41.918 0.235 7.42 51.18 12.41
1/4/2023 4:15:00 AM 5.6 42.08 0.235 7.41 50.15 12.4
1/4/2023 4:30:00 AM 5.54 41.972 0.235 7.43 44.17 12.43
1/4/2023 4:45:00 AM 5.47 41.846 0.235 7.42 52.9 12.42
1/4/2023 5:00:00 AM 5.51 41.918 0.235 7.41 50.85 12.42
1/4/2023 5:15:00 AM 5.64 42.152 0.235 7.42 46.46 12.41
1/4/2023 5:30:00 AM 5.59 42.062 0.235 7.43 50.04 12.42
1/4/2023 5:45:00 AM 5.57 42.026 0.235 7.41 44.11 12.42
1/4/2023 6:00:00 AM 5.43 41.774 0.235 7.42 47.23 12.42
1/4/2023 6:15:00 AM 5.45 41.81 0.234 7.43 44.49 12.45
1/4/2023 6:30:00 AM 5.4 41.72 0.234 7.42 53.94 12.47
1/4/2023 6:45:00 AM 5.44 41.792 0.234 7.41 53.08 12.43
1/4/2023 7:00:00 AM 5.41 41.738 0.234 7.42 45.41 12.46
1/4/2023 7:15:00 AM 5.51 41.918 0.234 7.42 47.58 12.43
1/4/2023 7:30:00 AM 5.49 41.882 0.234 7.42 50.96 12.42
1/4/2023 7:45:00 AM 5.39 41.702 0.233 7.42 50.71 12.45
1/4/2023 8:00:00 AM 5.39 41.702 0.233 7.41 50.13 12.48
1/4/2023 8:15:00 AM 5.47 41.846 0.233 7.41 51.89 12.49
1/4/2023 8:30:00 AM 5.4 41.72 0.233 7.42 50.31 12.52
1/4/2023 8:45:00 AM 5.47 41.846 0.232 7.41 57.59 12.57
1/4/2023 9:00:00 AM 5.51 41.918 0.232 7.42 57.55 12.6
1/4/2023 9:15:00 AM 5.55 41.99 0.232 7.42 50.52 12.64
1/4/2023 9:30:00 AM 5.53 41.954 0.233 7.45 61.32 12.64
1/4/2023 9:45:00 AM 5.66 42.188 0.233 7.46 67.73 12.64
1/4/2023 10:00:00 AM 5.65 42.17 0.233 7.48 72.73 12.71
1/4/2023 10:15:00 AM 5.81 42.458 0.232 7.47 72.98 12.74
1/4/2023 10:30:00 AM 5.93 42.674 0.232 7.46 63.93 12.79
1/4/2023 10:45:00 AM 5.84 42.512 0.232 7.47 63.46 12.86
1/4/2023 11:00:00 AM 6.07 42.926 0.232 7.48 51.66 12.86
1/4/2023 11:15:00 AM 6.17 43.106 0.232 7.49 60.33 12.88
1/4/2023 11:30:00 AM 6.2 43.16 0.232 7.5 60.81 12.91
1/4/2023 11:45:00 AM 6.29 43.322 0.232 7.51 68.81 12.92
1/4/2023 12:00:00 PM 6.48 43.664 0.233 7.52 53.47 12.88
1/4/2023 12:15:00 PM 6.43 43.574 0.233 7.53 78.77 12.91
1/4/2023 12:30:00 PM 6.58 43.844 0.233 7.53 60.31 12.87
1/4/2023 12:45:00 PM 6.6 43.88 0.233 7.53 56.23 12.88
1/4/2023 1:00:00 PM 6.6 43.88 0.233 7.54 62.25 12.84
1/4/2023 1:15:00 PM 6.69 44.042 0.232 7.54 70.96 12.79
1/4/2023 1:30:00 PM 6.61 43.898 0.232 7.54 77.14 12.78
1/4/2023 1:45:00 PM 6.74 44.132 0.232 7.53 83.31 12.73
1/4/2023 2:00:00 PM 6.65 43.97 0.232 7.55 74.16 12.75
1/4/2023 2:15:00 PM 6.73 44.114 0.233 7.54 67.7 12.76
1/4/2023 2:30:00 PM 6.79 44.222 0.233 7.55 61.81 12.75
1/4/2023 2:45:00 PM 6.8 44.24 0.233 7.56 48.08 12.7
1/4/2023 3:00:00 PM 6.79 44.222 0.234 7.55 54.43 12.65
1/4/2023 3:15:00 PM 6.74 44.132 0.234 7.54 60.59 12.58
1/4/2023 3:30:00 PM 6.7 44.06 0.234 7.54 65.36 12.6
1/4/2023 3:45:00 PM 6.65 43.97 0.234 7.54 70.35 12.57
1/4/2023 4:00:00 PM 6.6 43.88 0.233 7.53 62.42 12.53
1/4/2023 4:15:00 PM 6.52 43.736 0.233 7.53 59.62 12.53
1/4/2023 4:30:00 PM 6.59 43.862 0.234 7.51 80.73 12.49
1/4/2023 4:45:00 PM 6.53 43.754 0.234 7.51 57.75 12.47
1/4/2023 5:00:00 PM 6.56 43.808 0.234 7.5 48.99 12.44
1/4/2023 5:15:00 PM 6.5 43.7 0.235 7.5 54.89 12.42
1/4/2023 5:30:00 PM 6.51 43.718 0.235 7.5 53.46 12.38
1/4/2023 5:45:00 PM 6.44 43.592 0.235 7.5 64.68 12.37
1/4/2023 6:00:00 PM 6.48 43.664 0.235 7.49 51.59 12.34
1/4/2023 6:15:00 PM 6.33 43.394 0.234 7.49 52.92 12.35
1/4/2023 6:30:00 PM 6.34 43.412 0.234 7.48 80.1 12.31
1/4/2023 6:45:00 PM 6.33 43.394 0.234 7.47 80.43 12.33
1/4/2023 7:00:00 PM 6.45 43.61 0.234 7.46 80.45 12.27
1/4/2023 7:15:00 PM 6.35 43.43 0.234 7.47 81.43 12.25
1/4/2023 7:30:00 PM 6.53 43.754 0.234 7.46 64.06 12.25
1/4/2023 7:45:00 PM 6.44 43.592 0.234 7.46 63.95 12.25
1/4/2023 8:00:00 PM 6.47 43.646 0.235 7.46 57.55 12.24
1/4/2023 8:15:00 PM 6.42 43.556 0.235 7.47 59.33 12.24
1/4/2023 8:30:00 PM 6.56 43.808 0.234 7.45 66.7 12.2
1/4/2023 8:45:00 PM 6.5 43.7 0.234 7.46 62.66 12.2
1/4/2023 9:00:00 PM 6.6 43.88 0.233 7.46 76.13 12.17
1/4/2023 9:15:00 PM 6.59 43.862 0.234 7.45 80.53 12.16
1/4/2023 9:30:00 PM 6.67 44.006 0.234 7.45 78.52 12.15
1/4/2023 9:45:00 PM 6.61 43.898 0.234 7.46 82.11 12.14
1/4/2023 10:00:00 PM 6.63 43.934 0.234 7.46 70.32 12.12
1/4/2023 10:15:00 PM 6.63 43.934 0.233 7.45 92.09 12.12
1/4/2023 10:30:00 PM 6.71 44.078 0.234 7.45 72.45 12.11
1/4/2023 10:45:00 PM 6.68 44.024 0.234 7.45 74.68 12.09
1/4/2023 11:00:00 PM 6.64 43.952 0.233 7.46 57.52 12.09
1/4/2023 11:15:00 PM 6.74 44.132 0.233 7.45 65.81 12.1
1/4/2023 11:30:00 PM 6.73 44.114 0.233 7.45 58.88 12.08
1/4/2023 11:45:00 PM 6.76 44.168 0.234 7.45 81.88 12.07
1/5/2023 12:00:00 AM 6.66 43.988 0.234 7.46 75.68 12.08
1/5/2023 12:15:00 AM 6.78 44.204 0.234 7.44 68.07 12.06
1/5/2023 12:30:00 AM 6.83 44.294 0.234 7.45 58.38 12.05
1/5/2023 12:45:00 AM 6.82 44.276 0.234 7.45 53.16 12.05
1/5/2023 1:00:00 AM 6.62 43.916 0.234 7.45 68.16 12.08
1/5/2023 1:15:00 AM 6.8 44.24 0.235 7.43 62.86 12.03
1/5/2023 1:30:00 AM 6.67 44.006 0.234 7.44 65.11 12.04
1/5/2023 1:45:00 AM 6.69 44.042 0.234 7.44 55.79 12.04
1/5/2023 2:00:00 AM 6.63 43.934 0.234 7.44 65.88 12.04
1/5/2023 2:15:00 AM 6.73 44.114 0.234 7.43 68.11 12.02
1/5/2023 2:30:00 AM 6.75 44.15 0.235 7.42 76.65 12.03
1/5/2023 2:45:00 AM 6.63 43.934 0.235 7.43 64.15 12.06
1/5/2023 3:00:00 AM 6.55 43.79 0.235 7.43 63.75 12.06
1/5/2023 3:15:00 AM 6.54 43.772 0.235 7.42 61.02 12.06
1/5/2023 3:30:00 AM 6.6 43.88 0.235 7.42 71.33 12.05
1/5/2023 3:45:00 AM 6.52 43.736 0.235 7.42 66.41 12.08
1/5/2023 4:00:00 AM 6.43 43.574 0.235 7.42 82 12.08
1/5/2023 4:15:00 AM 6.38 43.484 0.234 7.42 63.2 12.1
1/5/2023 4:30:00 AM 6.32 43.376 0.235 7.42 68.83 12.11
1/5/2023 4:45:00 AM 6.4 43.52 0.235 7.41 83.26 12.1
1/5/2023 5:00:00 AM 6.3 43.34 0.235 7.42 71.83 12.13
1/5/2023 5:15:00 AM 6.36 43.448 0.235 7.41 68.5 12.13
1/5/2023 5:30:00 AM 6.39 43.502 0.235 7.42 65.79 12.14
1/5/2023 5:45:00 AM 6.36 43.448 0.235 7.43 67.15 12.13
1/5/2023 6:00:00 AM 6.29 43.322 0.235 7.42 55.95 12.14
1/5/2023 6:15:00 AM 6.23 43.214 0.235 7.43 50.99 12.14
1/5/2023 6:30:00 AM 6.26 43.268 0.235 7.43 45.76 12.16
1/5/2023 6:45:00 AM 6.2 43.16 0.234 7.45 49.3 12.18
1/5/2023 7:00:00 AM 6.15 43.07 0.235 7.44 55.28 12.18
1/5/2023 7:15:00 AM 6.21 43.178 0.235 7.43 52.23 12.17
1/5/2023 7:30:00 AM 6.19 43.142 0.235 7.42 51.83 12.16
1/5/2023 7:45:00 AM 6.1 42.98 0.235 7.43 50.18 12.2
1/5/2023 8:00:00 AM 6.13 43.034 0.235 7.42 60.53 12.22
1/5/2023 8:15:00 AM 6.06 42.908 0.235 7.43 62.69 12.25
1/5/2023 8:30:00 AM 5.9 42.62 0.234 7.44 81.31 12.3
1/5/2023 8:45:00 AM 5.95 42.71 0.234 7.44 72.8 12.32
1/5/2023 9:00:00 AM 6.03 42.854 0.234 7.44 78.38 12.32
1/5/2023 9:15:00 AM 5.87 42.566 0.234 7.44 69.24 12.41
1/5/2023 9:30:00 AM 6 42.8 0.234 7.45 73.66 12.39
1/5/2023 9:45:00 AM 6.02 42.836 0.234 7.45 73.36 12.42
1/5/2023 10:00:00 AM 6.13 43.034 0.235 7.46 64.58 12.47
1/5/2023 10:15:00 AM 6.27 43.286 0.234 7.46 54.92 12.49
1/5/2023 10:30:00 AM 6.23 43.214 0.234 7.48 61.14 12.59
1/5/2023 10:45:00 AM 6.33 43.394 0.234 7.48 67.72 12.67
1/5/2023 11:00:00 AM 6.35 43.43 0.234 7.49 49.98 12.71
1/5/2023 11:15:00 AM 6.36 43.448 0.234 7.52 44.44 12.75
1/5/2023 11:30:00 AM 6.46 43.628 0.233 7.52 56.67 12.8
1/5/2023 11:45:00 AM 6.65 43.97 0.234 7.53 44.87 12.8
1/5/2023 12:00:00 PM 6.71 44.078 0.234 7.53 45.75 12.82
1/5/2023 12:15:00 PM 6.82 44.276 0.234 7.54 47.65 12.8
1/5/2023 12:30:00 PM 6.89 44.402 0.234 7.57 50.95 12.82
1/5/2023 12:45:00 PM 6.98 44.564 0.234 7.56 61.38 12.79
1/5/2023 1:00:00 PM 7.1 44.78 0.233 7.57 52.51 12.76
1/5/2023 1:15:00 PM 7.08 44.744 0.233 7.57 71.18 12.79
1/5/2023 1:30:00 PM 7.24 45.032 0.232 7.57 67.66 12.75
1/5/2023 1:45:00 PM 7.16 44.888 0.233 7.59 66.9 12.72
1/5/2023 2:00:00 PM 7.19 44.942 0.233 7.58 62.91 12.7
1/5/2023 2:15:00 PM 7.2 44.96 0.233 7.59 61.89 12.71
1/5/2023 2:30:00 PM 7.19 44.942 0.233 7.6 58.46 12.7
1/5/2023 2:45:00 PM 7.31 45.158 0.234 7.59 53.4 12.64
1/5/2023 3:00:00 PM 7.2 44.96 0.234 7.59 54.99 12.66
1/5/2023 3:15:00 PM 6.94 44.492 0.234 7.6 54.49 12.65
1/5/2023 3:30:00 PM 6.98 44.564 0.234 7.59 53.03 12.65
1/5/2023 3:45:00 PM 6.95 44.51 0.234 7.59 58.13 12.6
1/5/2023 4:00:00 PM 6.79 44.222 0.234 7.59 52.37 12.63
1/5/2023 4:15:00 PM 6.72 44.096 0.234 7.59 41.39 12.6
1/5/2023 4:30:00 PM 6.74 44.132 0.234 7.58 58.7 12.58
1/5/2023 4:45:00 PM 6.72 44.096 0.234 7.57 49.64 12.52
1/5/2023 5:00:00 PM 6.76 44.168 0.235 7.56 54.13 12.48
1/5/2023 5:15:00 PM 6.56 43.808 0.235 7.56 56.25 12.47
1/5/2023 5:30:00 PM 6.57 43.826 0.235 7.55 54.85 12.46
1/5/2023 5:45:00 PM 6.52 43.736 0.235 7.54 51.3 12.43
1/5/2023 6:00:00 PM 6.59 43.862 0.235 7.52 59.08 12.41
1/5/2023 6:15:00 PM 6.37 43.466 0.235 7.51 61.77 12.41
1/5/2023 6:30:00 PM 6.42 43.556 0.235 7.5 80.21 12.37
1/5/2023 6:45:00 PM 6.34 43.412 0.235 7.49 74.68 12.35
1/5/2023 7:00:00 PM 6.3 43.34 0.235 7.49 68.19 12.35
1/5/2023 7:15:00 PM 6.28 43.304 0.236 7.49 69.45 12.35
1/5/2023 7:30:00 PM 6.32 43.376 0.236 7.49 59.81 12.32
1/5/2023 7:45:00 PM 6.2 43.16 0.236 7.48 50.77 12.36
1/5/2023 8:00:00 PM 6.19 43.142 0.236 7.49 48.4 12.34
1/5/2023 8:15:00 PM 6.24 43.232 0.236 7.48 59.69 12.35
1/5/2023 8:30:00 PM 6.18 43.124 0.236 7.49 60.56 12.36
1/5/2023 8:45:00 PM 6.19 43.142 0.235 7.48 54.1 12.35
1/5/2023 9:00:00 PM 6.27 43.286 0.235 7.48 53.99 12.35
1/5/2023 9:15:00 PM 6.29 43.322 0.235 7.47 66.43 12.31
1/5/2023 9:30:00 PM 6.28 43.304 0.236 7.47 58.3 12.29
1/5/2023 9:45:00 PM 6.31 43.358 0.235 7.48 61.16 12.29
1/5/2023 10:00:00 PM 6.43 43.574 0.235 7.47 51.71 12.27
1/5/2023 10:15:00 PM 6.35 43.43 0.235 7.47 71.84 12.28
1/5/2023 10:30:00 PM 6.45 43.61 0.235 7.46 59.18 12.26
1/5/2023 10:45:00 PM 6.46 43.628 0.235 7.46 54.73 12.24
1/5/2023 11:00:00 PM 6.4 43.52 0.234 7.47 63.55 12.24
1/5/2023 11:15:00 PM 6.41 43.538 0.234 7.46 62.52 12.25
1/5/2023 11:30:00 PM 6.41 43.538 0.234 7.45 69.41 12.23
1/5/2023 11:45:00 PM 6.34 43.412 0.234 7.46 61.6 12.21
1/6/2023 12:00:00 AM 6.45 43.61 0.235 7.46 75.62 12.19
1/6/2023 12:15:00 AM 6.34 43.412 0.235 7.46 55.21 12.22
1/6/2023 12:30:00 AM 6.26 43.268 0.236 7.47 62.04 12.23
1/6/2023 12:45:00 AM 6.29 43.322 0.236 7.46 63.82 12.22
1/6/2023 1:00:00 AM 6.23 43.214 0.236 7.46 65.59 12.23
1/6/2023 1:15:00 AM 6.21 43.178 0.235 7.46 71.79 12.26
1/6/2023 1:30:00 AM 6.27 43.286 0.235 7.46 53.93 12.24
1/6/2023 1:45:00 AM 6.21 43.178 0.235 7.45 55.63 12.27
1/6/2023 2:00:00 AM 5.99 42.782 0.235 7.47 59.03 12.29
1/6/2023 2:15:00 AM 6.01 42.818 0.236 7.46 65.01 12.27
1/6/2023 2:30:00 AM 5.96 42.728 0.236 7.44 66.14 12.29
1/6/2023 2:45:00 AM 5.96 42.728 0.236 7.46 82.69 12.31
1/6/2023 3:00:00 AM 5.9 42.62 0.236 7.45 62.16 12.31
1/6/2023 3:15:00 AM 5.98 42.764 0.236 7.45 73.16 12.3
1/6/2023 3:30:00 AM 5.97 42.746 0.237 7.44 76.73 12.3
1/6/2023 3:45:00 AM 5.84 42.512 0.236 7.45 62.82 12.32
1/6/2023 4:00:00 AM 5.87 42.566 0.236 7.45 55.4 12.31
1/6/2023 4:15:00 AM 5.93 42.674 0.236 7.45 48.53 12.32
1/6/2023 4:30:00 AM 5.84 42.512 0.236 7.46 57.75 12.33
1/6/2023 4:45:00 AM 5.89 42.602 0.236 7.45 60.05 12.3
1/6/2023 5:00:00 AM 5.87 42.566 0.236 7.46 73.56 12.31
1/6/2023 5:15:00 AM 5.98 42.764 0.236 7.45 47.38 12.29
1/6/2023 5:30:00 AM 5.87 42.566 0.236 7.44 41.69 12.31
1/6/2023 5:45:00 AM 5.91 42.638 0.236 7.46 45.93 12.31
1/6/2023 6:00:00 AM 5.96 42.728 0.236 7.45 56.34 12.28
1/6/2023 6:15:00 AM 5.96 42.728 0.236 7.45 47.03 12.31
1/6/2023 6:30:00 AM 5.92 42.656 0.235 7.45 44.82 12.29
1/6/2023 6:45:00 AM 5.92 42.656 0.235 7.46 78.17 12.29
1/6/2023 7:00:00 AM 5.98 42.764 0.236 7.45 48.03 12.28
1/6/2023 7:15:00 AM 5.95 42.71 0.236 7.45 45.66 12.28
1/6/2023 7:30:00 AM 6.06 42.908 0.236 7.44 46.58 12.26
1/6/2023 7:45:00 AM 6 42.8 0.235 7.44 57.16 12.28
1/6/2023 8:00:00 AM 6.02 42.836 0.235 7.45 76.35 12.29
1/6/2023 8:15:00 AM 5.89 42.602 0.235 7.45 74.11 12.32
1/6/2023 8:30:00 AM 5.96 42.728 0.235 7.45 70.83 12.35
1/6/2023 8:45:00 AM 5.86 42.548 0.235 7.46 65.63 12.38
1/6/2023 9:00:00 AM 5.89 42.602 0.235 7.45 67.33 12.44
1/6/2023 9:15:00 AM 5.94 42.692 0.235 7.45 70.18 12.46
1/6/2023 9:30:00 AM 5.9 42.62 0.236 7.47 82.9 12.5
1/6/2023 9:45:00 AM 6.1 42.98 0.237 7.47 70.39 12.49
1/6/2023 10:00:00 AM 6.18 43.124 0.237 7.47 77.6 12.44
1/6/2023 10:15:00 AM 6.28 43.304 0.237 7.47 81.27 12.43
1/6/2023 10:30:00 AM 6.24 43.232 0.237 7.48 86.39 12.49
1/6/2023 10:45:00 AM 6.37 43.466 0.236 7.49 82.37 12.54
1/6/2023 11:00:00 AM 6.38 43.484 0.236 7.51 72.67 12.64
1/6/2023 11:15:00 AM 6.5 43.7 0.236 7.52 84.59 12.69
1/6/2023 11:30:00 AM 6.5 43.7 0.236 7.53 76.29 12.73
1/6/2023 11:45:00 AM 6.62 43.916 0.236 7.53 93.53 12.68
1/6/2023 12:00:00 PM 6.56 43.808 0.236 7.55 80.57 12.7
1/6/2023 12:15:00 PM 6.65 43.97 0.236 7.56 83.44 12.72
1/6/2023 12:30:00 PM 6.68 44.024 0.236 7.57 76.72 12.78
1/6/2023 12:45:00 PM 6.64 43.952 0.236 7.59 71.12 12.84
1/6/2023 1:00:00 PM 6.65 43.97 0.236 7.59 70.51 12.88
1/6/2023 1:15:00 PM 6.63 43.934 0.236 7.61 70.09 12.86
1/6/2023 1:30:00 PM 6.65 43.97 0.236 7.6 83.73 12.83
1/6/2023 1:45:00 PM 6.61 43.898 0.237 7.61 63.18 12.82
1/6/2023 2:00:00 PM 6.65 43.97 0.237 7.61 74.93 12.82
1/6/2023 2:15:00 PM 6.51 43.718 0.237 7.61 60.63 12.83
1/6/2023 2:30:00 PM 6.49 43.682 0.239 7.62 59.23 12.8
1/6/2023 2:45:00 PM 6.38 43.484 0.239 7.62 56.3 12.83
1/6/2023 3:00:00 PM 6.3 43.34 0.24 7.61 57.38 12.82
1/6/2023 3:15:00 PM 6.24 43.232 0.24 7.6 69.39 12.79
1/6/2023 3:30:00 PM 6.26 43.268 0.241 7.6 62.75 12.74
1/6/2023 3:45:00 PM 6.14 43.052 0.241 7.58 86.95 12.74
1/6/2023 4:00:00 PM 6.04 42.872 0.242 7.58 93.48 12.74
1/6/2023 4:15:00 PM 5.96 42.728 0.242 7.57 78.01 12.73
1/6/2023 4:30:00 PM 5.95 42.71 0.242 7.56 66.64 12.7
1/6/2023 4:45:00 PM 5.98 42.764 0.242 7.56 54.43 12.67
1/6/2023 5:00:00 PM 5.9 42.62 0.243 7.55 69.81 12.65
1/6/2023 5:15:00 PM 5.83 42.494 0.243 7.54 73.22 12.62
1/6/2023 5:30:00 PM 5.79 42.422 0.243 7.54 64.35 12.64
1/6/2023 5:45:00 PM 5.71 42.278 0.243 7.54 72.21 12.61
1/6/2023 6:00:00 PM 5.79 42.422 0.242 7.54 49.91 12.58
1/6/2023 6:15:00 PM 5.63 42.134 0.242 7.54 62.2 12.58
1/6/2023 6:30:00 PM 5.61 42.098 0.241 7.51 91.95 12.55
1/6/2023 6:45:00 PM 5.57 42.026 0.241 7.5 114.2 12.54
1/6/2023 7:00:00 PM 5.51 41.918 0.241 7.49 106.9 12.55
1/6/2023 7:15:00 PM 5.61 42.098 0.241 7.48 77.91 12.53
1/6/2023 7:30:00 PM 5.62 42.116 0.241 7.5 62.41 12.51
1/6/2023 7:45:00 PM 5.64 42.152 0.241 7.5 69.84 12.52
1/6/2023 8:00:00 PM 5.62 42.116 0.241 7.51 55.56 12.52
1/6/2023 8:15:00 PM 5.64 42.152 0.241 7.5 60.7 12.5
1/6/2023 8:30:00 PM 5.66 42.188 0.241 7.5 79.87 12.5
1/6/2023 8:45:00 PM 5.73 42.314 0.241 7.49 68.15 12.49
1/6/2023 9:00:00 PM 5.62 42.116 0.241 7.5 115.9 12.52
1/6/2023 9:15:00 PM 5.6 42.08 0.24 7.49 75.77 12.51
1/6/2023 9:30:00 PM 5.6 42.08 0.24 7.49 95.4 12.51
1/6/2023 9:45:00 PM 5.61 42.098 0.24 7.49 77.21 12.5
1/6/2023 10:00:00 PM 5.58 42.044 0.24 7.5 92.38 12.48
1/6/2023 10:15:00 PM 5.62 42.116 0.24 7.49 87.89 12.47
1/6/2023 10:30:00 PM 5.65 42.17 0.24 7.49 85.13 12.47
1/6/2023 10:45:00 PM 5.6 42.08 0.24 7.48 70.73 12.5
1/6/2023 11:00:00 PM 5.67 42.206 0.24 7.48 74.96 12.48
1/6/2023 11:15:00 PM 5.64 42.152 0.239 7.48 67.21 12.47
1/6/2023 11:30:00 PM 5.56 42.008 0.239 7.49 67.44 12.47
1/6/2023 11:45:00 PM 5.6 42.08 0.239 7.49 85.31 12.46
1/7/2023 12:00:00 AM 5.56 42.008 0.24 7.48 65.22 12.49
1/7/2023 12:15:00 AM 5.57 42.026 0.24 7.49 81.63 12.47
1/7/2023 12:30:00 AM 5.57 42.026 0.239 7.48 76.56 12.47
1/7/2023 12:45:00 AM 5.54 41.972 0.239 7.49 84.55 12.46
1/7/2023 1:00:00 AM 5.6 42.08 0.239 7.48 92.59 12.42
1/7/2023 1:15:00 AM 5.55 41.99 0.239 7.48 100.9 12.44
1/7/2023 1:30:00 AM 5.5 41.9 0.239 7.48 114.3 12.45
1/7/2023 1:45:00 AM 5.56 42.008 0.239 7.48 93.46 12.44
1/7/2023 2:00:00 AM 5.56 42.008 0.238 7.46 79.71 12.45
1/7/2023 2:15:00 AM 5.49 41.882 0.238 7.47 76.48 12.46
1/7/2023 2:30:00 AM 5.49 41.882 0.239 7.48 65.08 12.46
1/7/2023 2:45:00 AM 5.47 41.846 0.239 7.48 93.93 12.45
1/7/2023 3:00:00 AM 5.5 41.9 0.239 7.47 88.98 12.47
1/7/2023 3:15:00 AM 5.44 41.792 0.239 7.48 67 12.46
1/7/2023 3:30:00 AM 5.46 41.828 0.239 7.48 58.39 12.45
1/7/2023 3:45:00 AM 5.41 41.738 0.239 7.48 81.37 12.46
1/7/2023 4:00:00 AM 5.43 41.774 0.238 7.48 61.68 12.46
1/7/2023 4:15:00 AM 5.39 41.702 0.238 7.48 71.39 12.49
1/7/2023 4:30:00 AM 5.39 41.702 0.237 7.46 85.67 12.48
1/7/2023 4:45:00 AM 5.34 41.612 0.238 7.47 84.82 12.48
1/7/2023 5:00:00 AM 5.34 41.612 0.238 7.47 97.01 12.48
1/7/2023 5:15:00 AM 5.35 41.63 0.238 7.47 98.34 12.47
1/7/2023 5:30:00 AM 5.28 41.504 0.238 7.46 119.5 12.49
1/7/2023 5:45:00 AM 5.27 41.486 0.238 7.46 116.7 12.48
1/7/2023 6:00:00 AM 5.29 41.522 0.238 7.45 92.54 12.5
1/7/2023 6:15:00 AM 5.23 41.414 0.238 7.46 82.78 12.5
1/7/2023 6:30:00 AM 5.18 41.324 0.238 7.47 91.18 12.55
1/7/2023 6:45:00 AM 5.16 41.288 0.237 7.46 57.11 12.58
1/7/2023 7:00:00 AM 5.08 41.144 0.237 7.47 75.33 12.58
1/7/2023 7:15:00 AM 5.1 41.18 0.238 7.47 64.12 12.58
1/7/2023 7:30:00 AM 5.14 41.252 0.238 7.47 64.81 12.59
1/7/2023 7:45:00 AM 5.08 41.144 0.238 7.47 70.37 12.61
1/7/2023 8:00:00 AM 5.1 41.18 0.238 7.47 79.82 12.6
1/7/2023 8:15:00 AM 5.07 41.126 0.237 7.46 123.7 12.61
1/7/2023 8:30:00 AM 5 41 0.237 7.46 125.2 12.62
1/7/2023 8:45:00 AM 5.07 41.126 0.237 7.45 104.3 12.65
1/7/2023 9:00:00 AM 5.11 41.198 0.237 7.46 111 12.71
1/7/2023 9:15:00 AM 5.14 41.252 0.237 7.46 95.4 12.76
1/7/2023 9:30:00 AM 5.11 41.198 0.237 7.48 96.02 12.84
1/7/2023 9:45:00 AM 5.23 41.414 0.238 7.47 107.7 12.88
1/7/2023 10:00:00 AM 5.26 41.468 0.238 7.49 96.21 12.95
1/7/2023 10:15:00 AM 5.35 41.63 0.237 7.51 94.67 13.01
1/7/2023 10:30:00 AM 5.38 41.684 0.237 7.52 98.24 13.07
1/7/2023 10:45:00 AM 5.49 41.882 0.236 7.53 130.8 13.06
1/7/2023 11:00:00 AM 5.53 41.954 0.236 7.54 98.37 13.1
1/7/2023 11:15:00 AM 5.58 42.044 0.236 7.54 101.2 13.14
1/7/2023 11:30:00 AM 5.65 42.17 0.236 7.55 88.29 13.13
1/7/2023 11:45:00 AM 5.72 42.296 0.236 7.56 114.2 13.1
1/7/2023 12:00:00 PM 5.75 42.35 0.236 7.56 116.5 13.08
1/7/2023 12:15:00 PM 5.76 42.368 0.236 7.56 115.6 13.08
1/7/2023 12:30:00 PM 5.74 42.332 0.236 7.56 83.64 13.07
1/7/2023 12:45:00 PM 5.77 42.386 0.236 7.58 77.87 13.11
1/7/2023 1:00:00 PM 5.73 42.314 0.236 7.59 105.5 13.11
1/7/2023 1:15:00 PM 5.65 42.17 0.236 7.6 91.8 13.15
1/7/2023 1:30:00 PM 5.62 42.116 0.236 7.6 86.58 13.16
1/7/2023 1:45:00 PM 5.63 42.134 0.236 7.61 74.22 13.21
1/7/2023 2:00:00 PM 5.7 42.26 0.236 7.61 83.88 13.26
1/7/2023 2:15:00 PM 5.69 42.242 0.236 7.61 82.71 13.27
1/7/2023 2:30:00 PM 5.7 42.26 0.237 7.63 77.19 13.27
1/7/2023 2:45:00 PM 5.67 42.206 0.237 7.63 69.51 13.25
1/7/2023 3:00:00 PM 5.72 42.296 0.237 7.63 69.55 13.21
1/7/2023 3:15:00 PM 5.71 42.278 0.237 7.62 71.41 13.18
1/7/2023 3:30:00 PM 5.69 42.242 0.237 7.63 67.92 13.19
1/7/2023 3:45:00 PM 5.65 42.17 0.237 7.63 79.52 13.15
1/7/2023 4:00:00 PM 5.64 42.152 0.237 7.62 116.5 13.09
1/7/2023 4:15:00 PM 5.59 42.062 0.237 7.6 143.7 13.06
1/7/2023 4:30:00 PM 5.58 42.044 0.237 7.59 109.7 13.04
1/7/2023 4:45:00 PM 5.54 41.972 0.238 7.59 89.57 13.02
1/7/2023 5:00:00 PM 5.52 41.936 0.238 7.59 98.11 12.97
1/7/2023 5:15:00 PM 5.5 41.9 0.239 7.59 127.1 12.94
1/7/2023 5:30:00 PM 5.45 41.81 0.239 7.58 110.1 12.93
1/7/2023 5:45:00 PM 5.43 41.774 0.239 7.58 65.95 12.91
1/7/2023 6:00:00 PM 5.42 41.756 0.239 7.57 79.34 12.87
1/7/2023 6:15:00 PM 5.37 41.666 0.239 7.57 68.87 12.87
1/7/2023 6:30:00 PM 5.35 41.63 0.239 7.55 139.4 12.84
1/7/2023 6:45:00 PM 5.26 41.468 0.238 7.54 154.9 12.79
1/7/2023 7:00:00 PM 5.27 41.486 0.238 7.53 121.5 12.78
1/7/2023 7:15:00 PM 5.25 41.45 0.239 7.53 101.2 12.79
1/7/2023 7:30:00 PM 5.23 41.414 0.239 7.53 77.77 12.79
1/7/2023 7:45:00 PM 5.18 41.324 0.24 7.53 81.46 12.82
1/7/2023 8:00:00 PM 5.21 41.378 0.24 7.53 83.63 12.8
1/7/2023 8:15:00 PM 5.18 41.324 0.239 7.54 57.97 12.8
1/7/2023 8:30:00 PM 5.09 41.162 0.24 7.53 52.79 12.81
1/7/2023 8:45:00 PM 5.08 41.144 0.24 7.53 105.2 12.8
1/7/2023 9:00:00 PM 5.03 41.054 0.239 7.53 94.29 12.81
1/7/2023 9:15:00 PM 4.99 40.982 0.239 7.53 61.6 12.82
1/7/2023 9:30:00 PM 4.94 40.892 0.239 7.53 65.01 12.82
1/7/2023 9:45:00 PM 4.94 40.892 0.24 7.53 64.39 12.83
1/7/2023 10:00:00 PM 4.96 40.928 0.24 7.53 48.41 12.82
1/7/2023 10:15:00 PM 4.89 40.802 0.24 7.52 58.39 12.85
1/7/2023 10:30:00 PM 4.86 40.748 0.24 7.52 63.46 12.84
1/7/2023 10:45:00 PM 4.84 40.712 0.239 7.51 55.56 12.85
1/7/2023 11:00:00 PM 4.79 40.622 0.239 7.52 70.45 12.85
1/7/2023 11:15:00 PM 4.79 40.622 0.239 7.51 67.79 12.84
1/7/2023 11:30:00 PM 4.7 40.46 0.239 7.51 90.72 12.87
1/7/2023 11:45:00 PM 4.63 40.334 0.239 7.52 96.82 12.87
1/8/2023 12:00:00 AM 4.67 40.406 0.239 7.51 68.07 12.87
1/8/2023 12:15:00 AM 4.66 40.388 0.24 7.51 88.61 12.86
1/8/2023 12:30:00 AM 4.61 40.298 0.24 7.51 67.12 12.86
1/8/2023 12:45:00 AM 4.58 40.244 0.24 7.51 59.91 12.85
1/8/2023 1:00:00 AM 4.54 40.172 0.24 7.52 79.99 12.88
1/8/2023 1:15:00 AM 4.52 40.136 0.239 7.51 53.86 12.86
1/8/2023 1:30:00 AM 4.49 40.082 0.239 7.51 53.75 12.87
1/8/2023 1:45:00 AM 4.46 40.028 0.239 7.51 86.12 12.9
1/8/2023 2:00:00 AM 4.43 39.974 0.239 7.52 70.12 12.91
1/8/2023 2:15:00 AM 4.35 39.83 0.239 7.52 59.39 12.93
1/8/2023 2:30:00 AM 4.38 39.884 0.24 7.51 89.1 12.91
1/8/2023 2:45:00 AM 4.34 39.812 0.24 7.5 63.01 12.92
1/8/2023 3:00:00 AM 4.31 39.758 0.24 7.51 65.06 12.93
1/8/2023 3:15:00 AM 4.29 39.722 0.24 7.5 57.15 12.93
1/8/2023 3:30:00 AM 4.25 39.65 0.24 7.51 56.82 12.93
1/8/2023 3:45:00 AM 4.2 39.56 0.239 7.51 65.05 12.96
1/8/2023 4:00:00 AM 4.22 39.596 0.239 7.5 51.95 12.92
1/8/2023 4:15:00 AM 4.18 39.524 0.239 7.51 70.9 12.97
1/8/2023 4:30:00 AM 4.14 39.452 0.239 7.51 71.84 12.98
1/8/2023 4:45:00 AM 4.11 39.398 0.238 7.51 50.22 12.98
1/8/2023 5:00:00 AM 4.07 39.326 0.238 7.51 63.55 12.99
1/8/2023 5:15:00 AM 4.06 39.308 0.238 7.49 118.5 12.98
1/8/2023 5:30:00 AM 4.04 39.272 0.238 7.5 55.91 13
1/8/2023 5:45:00 AM 4.01 39.218 0.238 7.5 65.88 13
1/8/2023 6:00:00 AM 3.98 39.164 0.238 7.51 98.58 13.02
1/8/2023 6:15:00 AM 3.95 39.11 0.239 7.5 43.75 13.04
1/8/2023 6:30:00 AM 3.91 39.038 0.239 7.5 50.75 13.06
1/8/2023 6:45:00 AM 3.91 39.038 0.239 7.5 52.62 13.06
1/8/2023 7:00:00 AM 3.85 38.93 0.239 7.5 61.44 13.06
1/8/2023 7:15:00 AM 3.85 38.93 0.239 7.49 62.16 13.09
1/8/2023 7:30:00 AM 3.81 38.858 0.238 7.49 73.5 13.09
1/8/2023 7:45:00 AM 3.79 38.822 0.238 7.49 73.14 13.12
1/8/2023 8:00:00 AM 3.78 38.804 0.238 7.5 78.11 13.12
1/8/2023 8:15:00 AM 3.77 38.786 0.238 7.5 67.04 13.16
1/8/2023 8:30:00 AM 3.75 38.75 0.237 7.5 73.96 13.2
1/8/2023 8:45:00 AM 3.77 38.786 0.237 7.5 121.5 13.24
1/8/2023 9:00:00 AM 3.79 38.822 0.237 7.5 111.7 13.31
1/8/2023 9:15:00 AM 3.82 38.876 0.237 7.51 111.5 13.33
1/8/2023 9:30:00 AM 3.86 38.948 0.237 7.51 125.6 13.36
1/8/2023 9:45:00 AM 3.91 39.038 0.237 7.51 110.9 13.38
1/8/2023 10:00:00 AM 3.99 39.182 0.237 7.52 113.5 13.4
1/8/2023 10:15:00 AM 4.06 39.308 0.238 7.52 117.7 13.44
1/8/2023 10:30:00 AM 4.15 39.47 0.238 7.54 130.2 13.49
1/8/2023 10:45:00 AM 4.25 39.65 0.238 7.54 98.36 13.53
1/8/2023 11:00:00 AM 4.36 39.848 0.237 7.54 103 13.55
1/8/2023 11:15:00 AM 4.47 40.046 0.236 7.56 100 13.56
1/8/2023 11:30:00 AM 4.57 40.226 0.236 7.55 96.86 13.56
1/8/2023 11:45:00 AM 4.66 40.388 0.236 7.58 131 13.6
1/8/2023 12:00:00 PM 4.75 40.55 0.236 7.57 124.4 13.62
1/8/2023 12:15:00 PM 4.82 40.676 0.236 7.58 97.63 13.63
1/8/2023 12:30:00 PM 4.89 40.802 0.236 7.6 121.1 13.64
1/8/2023 12:45:00 PM 4.94 40.892 0.235 7.61 133.5 13.61
1/8/2023 1:00:00 PM 4.98 40.964 0.235 7.61 124.2 13.62
1/8/2023 1:15:00 PM 5.02 41.036 0.235 7.62 90.97 13.64
1/8/2023 1:30:00 PM 5.05 41.09 0.235 7.62 88.9 13.63
1/8/2023 1:45:00 PM 5.06 41.108 0.236 7.64 81.38 13.65
1/8/2023 2:00:00 PM 5.07 41.126 0.236 7.64 87.61 13.64
1/8/2023 2:15:00 PM 5.06 41.108 0.236 7.65 104.9 13.64
1/8/2023 2:30:00 PM 5.06 41.108 0.237 7.66 119.5 13.6
1/8/2023 2:45:00 PM 5.05 41.09 0.237 7.66 112.6 13.59
1/8/2023 3:00:00 PM 5.03 41.054 0.237 7.67 89.72 13.59
1/8/2023 3:15:00 PM 5 41 0.238 7.65 93.22 13.58
1/8/2023 3:30:00 PM 4.97 40.946 0.237 7.66 73.69 13.54
1/8/2023 3:45:00 PM 4.92 40.856 0.237 7.66 123.8 13.5
1/8/2023 4:00:00 PM 4.88 40.784 0.237 7.64 78.76 13.5
1/8/2023 4:15:00 PM 4.85 40.73 0.238 7.65 69.01 13.44
1/8/2023 4:30:00 PM 4.82 40.676 0.238 7.65 68.51 13.4
1/8/2023 4:45:00 PM 4.78 40.604 0.239 7.63 66.18 13.38
1/8/2023 5:00:00 PM 4.75 40.55 0.239 7.63 86.7 13.33
1/8/2023 5:15:00 PM 4.72 40.496 0.24 7.62 79.35 13.28
1/8/2023 5:30:00 PM 4.68 40.424 0.24 7.62 67.25 13.28
1/8/2023 5:45:00 PM 4.65 40.37 0.24 7.6 97.36 13.23
1/8/2023 6:00:00 PM 4.63 40.334 0.24 7.6 88.24 13.2
1/8/2023 6:15:00 PM 4.6 40.28 0.239 7.59 148.7 13.17
1/8/2023 6:30:00 PM 4.58 40.244 0.239 7.56 113.7 13.15
1/8/2023 6:45:00 PM 4.55 40.19 0.239 7.56 92.77 13.12
1/8/2023 7:00:00 PM 4.54 40.172 0.239 7.55 97.85 13.12
1/8/2023 7:15:00 PM 4.53 40.154 0.239 7.55 91.3 13.09
1/8/2023 7:30:00 PM 4.54 40.172 0.24 7.55 84.39 13.1
1/8/2023 7:45:00 PM 4.54 40.172 0.24 7.54 88.16 13.08
1/8/2023 8:00:00 PM 4.53 40.154 0.241 7.55 72.7 13.07
1/8/2023 8:15:00 PM 4.53 40.154 0.241 7.55 50.91 13.07
1/8/2023 8:30:00 PM 4.54 40.172 0.241 7.54 70.53 13.05
1/8/2023 8:45:00 PM 4.53 40.154 0.241 7.54 71.91 13.05
1/8/2023 9:00:00 PM 4.53 40.154 0.241 7.54 60.89 13.03
1/8/2023 9:15:00 PM 4.53 40.154 0.24 7.54 67.31 13.02
1/8/2023 9:30:00 PM 4.52 40.136 0.24 7.54 49.83 13.01
1/8/2023 9:45:00 PM 4.52 40.136 0.24 7.53 60.86 13.03
1/8/2023 10:00:00 PM 4.54 40.172 0.24 7.53 54.17 13
1/8/2023 10:15:00 PM 4.54 40.172 0.24 7.54 83.59 12.99
1/8/2023 10:30:00 PM 4.54 40.172 0.24 7.52 67.24 12.95
1/8/2023 10:45:00 PM 4.53 40.154 0.241 7.53 66.33 12.97
1/8/2023 11:00:00 PM 4.54 40.172 0.241 7.53 48.62 12.94
1/8/2023 11:15:00 PM 4.55 40.19 0.241 7.52 43.98 12.94
1/8/2023 11:30:00 PM 4.53 40.154 0.241 7.53 61.69 12.92
1/8/2023 11:45:00 PM 4.52 40.136 0.24 7.53 87.46 12.94
1/9/2023 12:00:00 AM 4.53 40.154 0.24 7.52 62.8 12.93
1/9/2023 12:15:00 AM 4.53 40.154 0.241 7.52 66.1 12.92
1/9/2023 12:30:00 AM 4.54 40.172 0.241 7.53 64.84 12.89
1/9/2023 12:45:00 AM 4.55 40.19 0.241 7.52 121.7 12.89
1/9/2023 1:00:00 AM 4.56 40.208 0.241 7.52 69.97 12.89
1/9/2023 1:15:00 AM 4.55 40.19 0.241 7.52 100.2 12.88
1/9/2023 1:30:00 AM 4.56 40.208 0.241 7.52 57.45 12.85
1/9/2023 1:45:00 AM 4.55 40.19 0.24 7.52 68.84 12.85
1/9/2023 2:00:00 AM 4.54 40.172 0.24 7.52 89.73 12.87
1/9/2023 2:15:00 AM 4.53 40.154 0.239 7.52 150 12.86
1/9/2023 2:30:00 AM 4.54 40.172 0.239 7.51 92.39 12.85
1/9/2023 2:45:00 AM 4.54 40.172 0.24 7.5 68.52 12.84
1/9/2023 3:00:00 AM 4.54 40.172 0.24 7.51 52.67 12.82
1/9/2023 3:15:00 AM 4.51 40.118 0.24 7.51 59.5 12.83
1/9/2023 3:30:00 AM 4.52 40.136 0.241 7.51 60.11 12.83
1/9/2023 3:45:00 AM 4.51 40.118 0.24 7.51 55.89 12.82
1/9/2023 4:00:00 AM 4.51 40.118 0.24 7.51 74.67 12.79
1/9/2023 4:15:00 AM 4.51 40.118 0.24 7.51 83.51 12.81
1/9/2023 4:30:00 AM 4.5 40.1 0.24 7.49 70.07 12.8
1/9/2023 4:45:00 AM 4.49 40.082 0.239 7.51 92.01 12.79
1/9/2023 5:00:00 AM 4.49 40.082 0.24 7.5 47.32 12.81
1/9/2023 5:15:00 AM 4.5 40.1 0.24 7.5 75.53 12.79
1/9/2023 5:30:00 AM 4.49 40.082 0.24 7.49 85.12 12.79
1/9/2023 5:45:00 AM 4.49 40.082 0.24 7.5 81.11 12.79
1/9/2023 6:00:00 AM 4.48 40.064 0.24 7.49 90.36 12.78
1/9/2023 6:15:00 AM 4.46 40.028 0.24 7.5 66.92 12.77
1/9/2023 6:30:00 AM 4.45 40.01 0.239 7.5 72.89 12.79
1/9/2023 6:45:00 AM 4.42 39.956 0.239 7.49 68.29 12.81
1/9/2023 7:00:00 AM 4.39 39.902 0.239 7.49 69.61 12.79
1/9/2023 7:15:00 AM 4.35 39.83 0.239 7.5 80.16 12.81
1/9/2023 7:30:00 AM 4.32 39.776 0.239 7.5 60.44 12.8
1/9/2023 7:45:00 AM 4.3 39.74 0.24 7.5 62.54 12.81
1/9/2023 8:00:00 AM 4.27 39.686 0.24 7.5 71.55 12.84
1/9/2023 8:15:00 AM 4.25 39.65 0.239 7.49 71.66 12.86
1/9/2023 8:30:00 AM 4.24 39.632 0.239 7.49 77.57 12.9
1/9/2023 8:45:00 AM 4.24 39.632 0.239 7.49 101.6 12.94
1/9/2023 9:00:00 AM 4.25 39.65 0.238 7.5 121 12.97
1/9/2023 9:15:00 AM 4.27 39.686 0.238 7.49 119.5 13.01
1/9/2023 9:30:00 AM 4.31 39.758 0.238 7.5 152.3 13.05
1/9/2023 9:45:00 AM 4.36 39.848 0.238 7.51 129.7 13.12
1/9/2023 10:00:00 AM 4.42 39.956 0.239 7.51 115.4 13.18
1/9/2023 10:15:00 AM 4.47 40.046 0.238 7.53 71.26 13.23
1/9/2023 10:30:00 AM 4.54 40.172 0.238 7.53 68.26 13.29
1/9/2023 10:45:00 AM 4.6 40.28 0.238 7.55 74.84 13.32
1/9/2023 11:00:00 AM 4.69 40.442 0.237 7.57 95.79 13.35
1/9/2023 11:15:00 AM 4.81 40.658 0.237 7.58 84.52 13.36
1/9/2023 11:30:00 AM 4.89 40.802 0.237 7.58 75.43 13.4
1/9/2023 11:45:00 AM 4.95 40.91 0.237 7.6 96.75 13.42
1/9/2023 12:00:00 PM 5.03 41.054 0.237 7.61 127.2 13.41
1/9/2023 12:15:00 PM 5.1 41.18 0.237 7.62 120.7 13.44
1/9/2023 12:30:00 PM 5.18 41.324 0.237 7.63 76.07 13.45
1/9/2023 12:45:00 PM 5.25 41.45 0.237 7.64 95.41 13.47
1/9/2023 1:00:00 PM 5.32 41.576 0.237 7.65 53.96 13.45
1/9/2023 1:15:00 PM 5.35 41.63 0.237 7.64 141.5 13.43
1/9/2023 1:30:00 PM 5.37 41.666 0.237 7.65 134.2 13.45
1/9/2023 1:45:00 PM 5.38 41.684 0.237 7.66 93.96 13.42
1/9/2023 2:00:00 PM 5.38 41.684 0.237 7.67 103.2 13.44
1/9/2023 2:15:00 PM 5.38 41.684 0.236 7.66 116.6 13.42
1/9/2023 2:30:00 PM 5.37 41.666 0.237 7.67 67.42 13.4
1/9/2023 2:45:00 PM 5.37 41.666 0.237 7.68 93.11 13.4
1/9/2023 3:00:00 PM 5.33 41.594 0.237 7.68 104.2 13.4
1/9/2023 3:15:00 PM 5.3 41.54 0.238 7.68 77.36 13.42
1/9/2023 3:30:00 PM 5.21 41.378 0.238 7.69 103.9 13.39
1/9/2023 3:45:00 PM 5.13 41.234 0.238 7.69 58.15 13.39
1/9/2023 4:00:00 PM 5.06 41.108 0.238 7.69 83.24 13.35
1/9/2023 4:15:00 PM 4.99 40.982 0.238 7.68 152.2 13.32
1/9/2023 4:30:00 PM 4.93 40.874 0.238 7.68 63.3 13.3
1/9/2023 4:45:00 PM 4.86 40.748 0.238 7.66 62.66 13.29
1/9/2023 5:00:00 PM 4.77 40.586 0.238 7.66 88.16 13.25
1/9/2023 5:15:00 PM 4.72 40.496 0.239 7.65 68.46 13.23
1/9/2023 5:30:00 PM 4.67 40.406 0.239 7.64 63.72 13.18
1/9/2023 5:45:00 PM 4.61 40.298 0.239 7.63 44.28 13.14
1/9/2023 6:00:00 PM 4.55 40.19 0.24 7.63 86.95 13.12
1/9/2023 6:15:00 PM 4.51 40.118 0.24 7.61 75.26 13.11
1/9/2023 6:30:00 PM 4.46 40.028 0.24 7.6 102.8 13.07
1/9/2023 6:45:00 PM 4.42 39.956 0.24 7.57 159.5 13.06
1/9/2023 7:00:00 PM 4.33 39.794 0.24 7.56 119.2 13.04
1/9/2023 7:15:00 PM 4.31 39.758 0.24 7.55 72.23 13.05
1/9/2023 7:30:00 PM 4.28 39.704 0.241 7.55 80.76 13.05
1/9/2023 7:45:00 PM 4.25 39.65 0.241 7.55 66.98 13.03
1/9/2023 8:00:00 PM 4.21 39.578 0.241 7.55 72.36 13.01
1/9/2023 8:15:00 PM 4.19 39.542 0.241 7.55 147.1 13.03
1/9/2023 8:30:00 PM 4.21 39.578 0.241 7.53 90.41 13.02
1/9/2023 8:45:00 PM 4.19 39.542 0.24 7.54 79.84 13.03
1/9/2023 9:00:00 PM 4.16 39.488 0.24 7.55 57.4 13.03
1/9/2023 9:15:00 PM 4.17 39.506 0.24 7.53 98.6 13.02
1/9/2023 9:30:00 PM 4.16 39.488 0.24 7.54 102.8 13.01
1/9/2023 9:45:00 PM 4.13 39.434 0.24 7.53 82.1 13.01
1/9/2023 10:00:00 PM 4.16 39.488 0.24 7.54 134.6 12.99
1/9/2023 10:15:00 PM 4.16 39.488 0.241 7.53 181 12.99
1/9/2023 10:30:00 PM 4.13 39.434 0.24 7.54 57.82 12.99
1/9/2023 10:45:00 PM 4.11 39.398 0.241 7.54 80.47 12.97
1/9/2023 11:00:00 PM 4.1 39.38 0.24 7.54 60.91 12.97
1/9/2023 11:15:00 PM 4.1 39.38 0.24 7.53 72.32 12.97
1/9/2023 11:30:00 PM 4.06 39.308 0.24 7.53 113.9 12.99
1/9/2023 11:45:00 PM 4.05 39.29 0.239 7.53 76.24 12.97
1/10/2023 12:00:00 AM 4.03 39.254 0.239 7.53 77.52 12.99
1/10/2023 12:15:00 AM 4.02 39.236 0.24 7.53 57.04 12.97
1/10/2023 12:30:00 AM 4 39.2 0.24 7.53 173 12.98
1/10/2023 12:45:00 AM 3.97 39.146 0.24 7.52 53.82 12.99
1/10/2023 1:00:00 AM 3.94 39.092 0.24 7.53 52.75 12.98
1/10/2023 1:15:00 AM 3.94 39.092 0.24 7.52 50.79 12.98
1/10/2023 1:30:00 AM 3.89 39.002 0.24 7.53 52.61 12.99
1/10/2023 1:45:00 AM 3.85 38.93 0.24 7.52 58.16 12.98
1/10/2023 2:00:00 AM 3.83 38.894 0.24 7.53 45.42 13
1/10/2023 2:15:00 AM 3.81 38.858 0.239 7.51 46.51 13
1/10/2023 2:30:00 AM 3.77 38.786 0.239 7.52 50.61 13.02
1/10/2023 2:45:00 AM 3.74 38.732 0.24 7.52 48.99 13.03
1/10/2023 3:00:00 AM 3.73 38.714 0.24 7.52 48.25 13.04
1/10/2023 3:15:00 AM 3.71 38.678 0.24 7.51 44.59 13.03
1/10/2023 3:30:00 AM 3.69 38.642 0.241 7.52 43.94 13.05
1/10/2023 3:45:00 AM 3.69 38.642 0.241 7.52 42.51 13.05
1/10/2023 4:00:00 AM 3.68 38.624 0.241 7.52 43.79 13.05
1/10/2023 4:15:00 AM 3.67 38.606 0.241 7.51 40.86 13.05
1/10/2023 4:30:00 AM 3.65 38.57 0.241 7.51 41.29 13.05
1/10/2023 4:45:00 AM 3.64 38.552 0.24 7.51 38.03 13.07
1/10/2023 5:00:00 AM 3.62 38.516 0.24 7.51 38.21 13.08
1/10/2023 5:15:00 AM 3.61 38.498 0.241 7.51 39.98 13.06
1/10/2023 5:30:00 AM 3.6 38.48 0.241 7.51 40.21 13.07
1/10/2023 5:45:00 AM 3.58 38.444 0.241 7.52 39.08 13.07
1/10/2023 6:00:00 AM 3.56 38.408 0.24 7.51 39.37 13.1
1/10/2023 6:15:00 AM 3.54 38.372 0.24 7.5 43.17 13.1
1/10/2023 6:30:00 AM 3.52 38.336 0.24 7.51 44.49 13.11
1/10/2023 6:45:00 AM 3.5 38.3 0.239 7.51 41.96 13.11
1/10/2023 7:00:00 AM 3.48 38.264 0.239 7.51 43.12 13.13
1/10/2023 7:15:00 AM 3.45 38.21 0.239 7.51 39.48 13.13
1/10/2023 7:30:00 AM 3.43 38.174 0.239 7.51 42.61 13.13
1/10/2023 7:45:00 AM 3.4 38.12 0.24 7.5 41.39 13.16
1/10/2023 8:00:00 AM 3.4 38.12 0.24 7.51 40.27 13.2
1/10/2023 8:15:00 AM 3.39 38.102 0.24 7.51 51.45 13.23
1/10/2023 8:30:00 AM 3.39 38.102 0.239 7.51 59.81 13.27
1/10/2023 8:45:00 AM 3.4 38.12 0.239 7.51 68.7 13.32
1/10/2023 9:00:00 AM 3.4 38.12 0.239 7.52 79.96 13.35
1/10/2023 9:15:00 AM 3.43 38.174 0.238 7.51 76.92 13.38
1/10/2023 9:30:00 AM 3.48 38.264 0.238 7.51 82.57 13.44
1/10/2023 9:45:00 AM 3.53 38.354 0.238 7.51 89.24 13.48
1/10/2023 10:00:00 AM 3.61 38.498 0.238 7.52 87.03 13.51
1/10/2023 10:15:00 AM 3.68 38.624 0.238 7.53 95.65 13.55
1/10/2023 10:30:00 AM 3.73 38.714 0.238 7.53 91.36 13.58
1/10/2023 10:45:00 AM 3.81 38.858 0.237 7.54 86.95 13.61
1/10/2023 11:00:00 AM 3.91 39.038 0.237 7.55 79.83 13.65
1/10/2023 11:15:00 AM 3.98 39.164 0.237 7.56 79.87 13.67
1/10/2023 11:30:00 AM 4.07 39.326 0.237 7.58 91.54 13.67
1/10/2023 11:45:00 AM 4.18 39.524 0.237 7.57 96.11 13.69
1/10/2023 12:00:00 PM 4.36 39.848 0.236 7.58 90.41 13.72
1/10/2023 12:15:00 PM 4.49 40.082 0.236 7.59 92.96 13.72
1/10/2023 12:30:00 PM 4.58 40.244 0.237 7.6 85.99 13.74
1/10/2023 12:45:00 PM 4.64 40.352 0.237 7.61 77.38 13.72
1/10/2023 1:00:00 PM 4.76 40.568 0.237 7.62 79.8 13.7
1/10/2023 1:15:00 PM 4.83 40.694 0.237 7.63 79.95 13.68
1/10/2023 1:30:00 PM 4.87 40.766 0.236 7.63 80.58 13.65
1/10/2023 1:45:00 PM 4.94 40.892 0.236 7.63 86.31 13.62
1/10/2023 2:00:00 PM 4.97 40.946 0.236 7.63 85.55 13.6
1/10/2023 2:15:00 PM 4.97 40.946 0.236 7.64 89.61 13.57
1/10/2023 2:30:00 PM 4.94 40.892 0.236 7.64 96.75 13.56
1/10/2023 2:45:00 PM 4.95 40.91 0.237 7.65 91.31 13.56
1/10/2023 3:00:00 PM 4.89 40.802 0.237 7.64 76.81 13.61
1/10/2023 3:15:00 PM 4.87 40.766 0.237 7.66 72.77 13.59
1/10/2023 3:30:00 PM 4.81 40.658 0.237 7.65 83.39 13.54
1/10/2023 3:45:00 PM 4.77 40.586 0.237 7.67 78 13.57
1/10/2023 4:00:00 PM 4.74 40.532 0.237 7.66 76.84 13.56
1/10/2023 4:15:00 PM 4.7 40.46 0.237 7.66 72.55 13.53
1/10/2023 4:30:00 PM 4.65 40.37 0.237 7.65 63.44 13.52
1/10/2023 4:45:00 PM 4.61 40.298 0.237 7.65 60.7 13.47
1/10/2023 5:00:00 PM 4.56 40.208 0.237 7.64 57.64 13.44
1/10/2023 5:15:00 PM 4.54 40.172 0.238 7.64 50.63 13.41
1/10/2023 5:30:00 PM 4.49 40.082 0.238 7.63 48.21 13.35
1/10/2023 5:45:00 PM 4.45 40.01 0.238 7.63 49.68 13.31
1/10/2023 6:00:00 PM 4.41 39.938 0.239 7.62 46.82 13.3
1/10/2023 6:15:00 PM 4.35 39.83 0.239 7.61 48.95 13.26
1/10/2023 6:30:00 PM 4.3 39.74 0.239 7.6 67.12 13.25
1/10/2023 6:45:00 PM 4.24 39.632 0.239 7.59 71.28 13.22
1/10/2023 7:00:00 PM 4.18 39.524 0.239 7.58 61.12 13.22
1/10/2023 7:15:00 PM 4.13 39.434 0.238 7.58 53.29 13.24
1/10/2023 7:30:00 PM 4.1 39.38 0.239 7.58 45.06 13.22
1/10/2023 7:45:00 PM 4.06 39.308 0.24 7.57 41.21 13.2
1/10/2023 8:00:00 PM 4.02 39.236 0.24 7.57 43.66 13.21
1/10/2023 8:15:00 PM 3.97 39.146 0.24 7.56 42.57 13.22
1/10/2023 8:30:00 PM 3.93 39.074 0.24 7.55 42.2 13.2
1/10/2023 8:45:00 PM 3.9 39.02 0.239 7.56 40.56 13.23
1/10/2023 9:00:00 PM 3.86 38.948 0.239 7.55 41.03 13.21
1/10/2023 9:15:00 PM 3.83 38.894 0.239 7.55 38.4 13.22
1/10/2023 9:30:00 PM 3.8 38.84 0.239 7.54 39.39 13.21
1/10/2023 9:45:00 PM 3.78 38.804 0.239 7.54 38.56 13.22
1/10/2023 10:00:00 PM 3.77 38.786 0.24 7.54 39.5 13.21
1/10/2023 10:15:00 PM 3.75 38.75 0.24 7.54 39.42 13.21
1/10/2023 10:30:00 PM 3.74 38.732 0.24 7.53 37.36 13.2
1/10/2023 10:45:00 PM 3.74 38.732 0.24 7.53 37.83 13.19
1/10/2023 11:00:00 PM 3.72 38.696 0.24 7.53 33.98 13.2
1/10/2023 11:15:00 PM 3.7 38.66 0.24 7.53 36.24 13.21
1/10/2023 11:30:00 PM 3.68 38.624 0.239 7.52 38.89 13.2
1/10/2023 11:45:00 PM 3.66 38.588 0.239 7.52 36.48 13.22
1/11/2023 12:00:00 AM 3.64 38.552 0.239 7.52 37.99 13.2
1/11/2023 12:15:00 AM 3.62 38.516 0.239 7.52 39.43 13.22
1/11/2023 12:30:00 AM 3.61 38.498 0.24 7.52 39.93 13.2
1/11/2023 12:45:00 AM 3.59 38.462 0.24 7.52 40.55 13.2
1/11/2023 1:00:00 AM 3.57 38.426 0.24 7.52 36.45 13.2
1/11/2023 1:15:00 AM 3.54 38.372 0.24 7.52 36.47 13.19
1/11/2023 1:30:00 AM 3.52 38.336 0.24 7.52 39.44 13.22
1/11/2023 1:45:00 AM 3.49 38.282 0.24 7.52 37.52 13.21
1/11/2023 2:00:00 AM 3.46 38.228 0.239 7.51 38.21 13.2
1/11/2023 2:15:00 AM 3.44 38.192 0.239 7.51 37.48 13.23
1/11/2023 2:30:00 AM 3.42 38.156 0.239 7.53 34.64 13.23
1/11/2023 2:45:00 AM 3.4 38.12 0.24 7.51 36.2 13.25
1/11/2023 3:00:00 AM 3.38 38.084 0.24 7.52 33.68 13.23
1/11/2023 3:15:00 AM 3.36 38.048 0.24 7.51 36.61 13.26
1/11/2023 3:30:00 AM 3.34 38.012 0.24 7.51 39.06 13.25
1/11/2023 3:45:00 AM 3.31 37.958 0.241 7.51 38.36 13.25
1/11/2023 4:00:00 AM 3.29 37.922 0.241 7.52 37.45 13.26
1/11/2023 4:15:00 AM 3.27 37.886 0.24 7.51 35.23 13.25
1/11/2023 4:30:00 AM 3.24 37.832 0.24 7.51 36.57 13.28
1/11/2023 4:45:00 AM 3.23 37.814 0.24 7.51 36.17 13.27
1/11/2023 5:00:00 AM 3.2 37.76 0.24 7.51 36.37 13.28
1/11/2023 5:15:00 AM 3.17 37.706 0.241 7.5 38.03 13.28
1/11/2023 5:30:00 AM 3.16 37.688 0.241 7.51 37.54 13.31
1/11/2023 5:45:00 AM 3.14 37.652 0.241 7.5 38.67 13.32
1/11/2023 6:00:00 AM 3.12 37.616 0.241 7.51 34.97 13.3
1/11/2023 6:15:00 AM 3.08 37.544 0.24 7.51 35.67 13.33
1/11/2023 6:30:00 AM 3.07 37.526 0.24 7.51 35.62 13.34
1/11/2023 6:45:00 AM 3.06 37.508 0.24 7.5 35.02 13.34
1/11/2023 7:00:00 AM 3.01 37.418 0.24 7.5 34.16 13.35
1/11/2023 7:15:00 AM 3 37.4 0.24 7.51 34.26 13.36
1/11/2023 7:30:00 AM 2.98 37.364 0.24 7.5 36.84 13.38
1/11/2023 7:45:00 AM 2.97 37.346 0.24 7.5 34.72 13.38
1/11/2023 8:00:00 AM 2.94 37.292 0.241 7.51 33.61 13.43
1/11/2023 8:15:00 AM 2.97 37.346 0.24 7.5 36.17 13.47
1/11/2023 8:30:00 AM 2.98 37.364 0.24 7.51 40.98 13.53
1/11/2023 8:45:00 AM 3.01 37.418 0.239 7.51 44.32 13.58
1/11/2023 9:00:00 AM 3.01 37.418 0.239 7.51 56.41 13.61
1/11/2023 9:15:00 AM 3.07 37.526 0.239 7.52 85 13.63
1/11/2023 9:30:00 AM 3.13 37.634 0.239 7.52 102.5 13.66
1/11/2023 9:45:00 AM 3.17 37.706 0.239 7.51 97.34 13.69
1/11/2023 10:00:00 AM 3.21 37.778 0.239 7.51 87.97 13.75
1/11/2023 10:15:00 AM 3.27 37.886 0.24 7.52 77.95 13.82
1/11/2023 10:30:00 AM 3.36 38.048 0.24 7.53 69.69 13.88
1/11/2023 10:45:00 AM 3.44 38.192 0.239 7.54 70.16 13.92
1/11/2023 11:00:00 AM 3.54 38.372 0.239 7.55 65.95 13.93
1/11/2023 11:15:00 AM 3.66 38.588 0.239 7.57 66.95 13.95
1/11/2023 11:30:00 AM 3.77 38.786 0.238 7.58 66.28 13.98
1/11/2023 11:45:00 AM 3.88 38.984 0.238 7.58 66.12 13.98
1/11/2023 12:00:00 PM 3.99 39.182 0.238 7.59 64.98 13.98
1/11/2023 12:15:00 PM 4.11 39.398 0.237 7.6 73.21 13.96
1/11/2023 12:30:00 PM 4.22 39.596 0.238 7.61 87.94 13.93
1/11/2023 12:45:00 PM 4.28 39.704 0.238 7.62 85.34 13.91
1/11/2023 1:00:00 PM 4.35 39.83 0.238 7.63 92.3 13.91
1/11/2023 1:15:00 PM 4.35 39.83 0.238 7.63 85.38 13.93
1/11/2023 1:30:00 PM 4.43 39.974 0.238 7.64 79.45 13.87
1/11/2023 1:45:00 PM 4.47 40.046 0.237 7.63 88.76 13.88
1/11/2023 2:00:00 PM 4.47 40.046 0.237 7.64 79.67 13.88
1/11/2023 2:15:00 PM 4.5 40.1 0.237 7.65 70.94 13.89
1/11/2023 2:30:00 PM 4.51 40.118 0.236 7.66 65.31 13.89
1/11/2023 2:45:00 PM 4.53 40.154 0.237 7.67 61.1 13.91
1/11/2023 3:00:00 PM 4.54 40.172 0.238 7.68 62.68 13.91
1/11/2023 3:15:00 PM 4.55 40.19 0.238 7.69 62.9 13.91
1/11/2023 3:30:00 PM 4.52 40.136 0.238 7.69 63.66 13.89
1/11/2023 3:45:00 PM 4.49 40.082 0.238 7.7 68.52 13.83
1/11/2023 4:00:00 PM 4.5 40.1 0.238 7.69 72.57 13.78
1/11/2023 4:15:00 PM 4.46 40.028 0.238 7.69 75.06 13.72
1/11/2023 4:30:00 PM 4.39 39.902 0.237 7.67 95.19 13.66
1/11/2023 4:45:00 PM 4.35 39.83 0.238 7.67 83.88 13.61
1/11/2023 5:00:00 PM 4.35 39.83 0.238 7.66 68.37 13.6
1/11/2023 5:15:00 PM 4.31 39.758 0.238 7.66 56.4 13.56
1/11/2023 5:30:00 PM 4.28 39.704 0.239 7.65 54.83 13.52
1/11/2023 5:45:00 PM 4.25 39.65 0.24 7.65 47.18 13.46
1/11/2023 6:00:00 PM 4.2 39.56 0.239 7.64 50.02 13.46
1/11/2023 6:15:00 PM 4.2 39.56 0.24 7.65 46.37 13.42
1/11/2023 6:30:00 PM 4.16 39.488 0.24 7.63 54.34 13.39
1/11/2023 6:45:00 PM 4.13 39.434 0.24 7.62 54.8 13.37
1/11/2023 7:00:00 PM 4.09 39.362 0.239 7.6 51.56 13.36
1/11/2023 7:15:00 PM 4.09 39.362 0.239 7.61 42.26 13.32
1/11/2023 7:30:00 PM 4.08 39.344 0.239 7.6 42.73 13.31
1/11/2023 7:45:00 PM 4.1 39.38 0.24 7.6 41.94 13.28
1/11/2023 8:00:00 PM 4.09 39.362 0.241 7.59 37.67 13.26
1/11/2023 8:15:00 PM 4.08 39.344 0.241 7.59 42.12 13.24
1/11/2023 8:30:00 PM 4.08 39.344 0.24 7.58 40.91 13.22
1/11/2023 8:45:00 PM 4.06 39.308 0.24 7.57 36.56 13.23
1/11/2023 9:00:00 PM 4.05 39.29 0.24 7.57 39.44 13.2
1/11/2023 9:15:00 PM 4.04 39.272 0.24 7.57 39.95 13.21
1/11/2023 9:30:00 PM 4.04 39.272 0.239 7.57 37.15 13.19
1/11/2023 9:45:00 PM 4.05 39.29 0.239 7.56 39.28 13.16
1/11/2023 10:00:00 PM 4.06 39.308 0.24 7.55 40.49 13.18
1/11/2023 10:15:00 PM 4.09 39.362 0.24 7.56 36.69 13.16
1/11/2023 10:30:00 PM 4.11 39.398 0.24 7.55 36.4 13.14
1/11/2023 10:45:00 PM 4.13 39.434 0.24 7.56 37.21 13.13
1/11/2023 11:00:00 PM 4.15 39.47 0.24 7.55 36.28 13.1
1/11/2023 11:15:00 PM 4.15 39.47 0.24 7.56 37.25 13.09
1/11/2023 11:30:00 PM 4.16 39.488 0.239 7.54 37.39 13.07
1/11/2023 11:45:00 PM 4.19 39.542 0.239 7.55 34.99 13.09
1/12/2023 12:00:00 AM 4.21 39.578 0.239 7.54 36.41 13.05
1/12/2023 12:15:00 AM 4.22 39.596 0.239 7.55 38.33 13.03
1/12/2023 12:30:00 AM 4.25 39.65 0.24 7.55 38.32 13.02
1/12/2023 12:45:00 AM 4.26 39.668 0.24 7.55 35.98 13
1/12/2023 1:00:00 AM 4.27 39.686 0.24 7.54 38.65 13.03
1/12/2023 1:15:00 AM 4.27 39.686 0.24 7.54 38.31 12.99
1/12/2023 1:30:00 AM 4.29 39.722 0.24 7.54 39.27 12.97
1/12/2023 1:45:00 AM 4.29 39.722 0.24 7.55 37.26 12.97
1/12/2023 2:00:00 AM 4.29 39.722 0.24 7.53 39.98 12.96
1/12/2023 2:15:00 AM 4.3 39.74 0.239 7.54 43.35 12.96
1/12/2023 2:30:00 AM 4.31 39.758 0.239 7.54 42.63 12.93
1/12/2023 2:45:00 AM 4.33 39.794 0.239 7.53 42.48 12.92
1/12/2023 3:00:00 AM 4.35 39.83 0.24 7.52 43.8 12.92
1/12/2023 3:15:00 AM 4.34 39.812 0.24 7.52 41.31 12.91
1/12/2023 3:30:00 AM 4.35 39.83 0.24 7.52 40.37 12.89
1/12/2023 3:45:00 AM 4.35 39.83 0.24 7.52 40.37 12.89
1/12/2023 4:00:00 AM 4.36 39.848 0.241 7.53 41.47 12.9
1/12/2023 4:15:00 AM 4.36 39.848 0.241 7.52 42.34 12.88
1/12/2023 4:30:00 AM 4.34 39.812 0.24 7.52 41.43 12.88
1/12/2023 4:45:00 AM 4.34 39.812 0.24 7.52 42.43 12.87
1/12/2023 5:00:00 AM 4.34 39.812 0.239 7.51 44.47 12.86
1/12/2023 5:15:00 AM 4.36 39.848 0.24 7.51 42.78 12.86
1/12/2023 5:30:00 AM 4.37 39.866 0.241 7.52 42.72 12.86
1/12/2023 5:45:00 AM 4.37 39.866 0.24 7.51 39.17 12.86
1/12/2023 6:00:00 AM 4.37 39.866 0.241 7.52 41.71 12.85
1/12/2023 6:15:00 AM 4.38 39.884 0.241 7.51 40.56 12.85
1/12/2023 6:30:00 AM 4.37 39.866 0.24 7.5 43.11 12.85
1/12/2023 6:45:00 AM 4.38 39.884 0.24 7.51 38.15 12.85
1/12/2023 7:00:00 AM 4.39 39.902 0.24 7.52 38.4 12.84
1/12/2023 7:15:00 AM 4.38 39.884 0.24 7.51 37.9 12.81
1/12/2023 7:30:00 AM 4.4 39.92 0.24 7.51 36.5 12.83
1/12/2023 7:45:00 AM 4.41 39.938 0.24 7.51 40.33 12.81
1/12/2023 8:00:00 AM 4.44 39.992 0.24 7.51 39.67 12.84
1/12/2023 8:15:00 AM 4.45 40.01 0.24 7.51 41.77 12.84
1/12/2023 8:30:00 AM 4.45 40.01 0.24 7.52 46.25 12.85
1/12/2023 8:45:00 AM 4.47 40.046 0.239 7.52 60.85 12.86
1/12/2023 9:00:00 AM 4.48 40.064 0.239 7.52 72.12 12.86
1/12/2023 9:15:00 AM 4.51 40.118 0.239 7.52 63.86 12.89
1/12/2023 9:30:00 AM 4.53 40.154 0.238 7.52 56.69 12.93
1/12/2023 9:45:00 AM 4.57 40.226 0.238 7.52 58.61 12.99
1/12/2023 10:00:00 AM 4.62 40.316 0.238 7.53 57.8 13.02
1/12/2023 10:15:00 AM 4.65 40.37 0.239 7.54 53.71 13.08
1/12/2023 10:30:00 AM 4.69 40.442 0.238 7.55 51.32 13.13
1/12/2023 10:45:00 AM 4.73 40.514 0.238 7.55 54.57 13.15
1/12/2023 11:00:00 AM 4.77 40.586 0.238 7.56 60.46 13.17
1/12/2023 11:15:00 AM 4.82 40.676 0.238 7.57 69.57 13.2
1/12/2023 11:30:00 AM 4.86 40.748 0.237 7.57 64.98 13.22
1/12/2023 11:45:00 AM 4.92 40.856 0.237 7.58 65.54 13.23
1/12/2023 12:00:00 PM 4.97 40.946 0.237 7.59 75.24 13.28
1/12/2023 12:15:00 PM 5.04 41.072 0.237 7.6 68.26 13.32
1/12/2023 12:30:00 PM 5.11 41.198 0.237 7.61 70.15 13.34
1/12/2023 12:45:00 PM 5.17 41.306 0.237 7.61 69.15 13.33
1/12/2023 1:00:00 PM 5.2 41.36 0.237 7.63 69.61 13.34
1/12/2023 1:15:00 PM 5.24 41.432 0.238 7.61 76.36 13.32
1/12/2023 1:30:00 PM 5.3 41.54 0.237 7.63 80.24 13.31
1/12/2023 1:45:00 PM 5.36 41.648 0.237 7.63 87.87 13.36
1/12/2023 2:00:00 PM 5.4 41.72 0.237 7.64 79.27 13.35
1/12/2023 2:15:00 PM 5.42 41.756 0.236 7.65 67.62 13.35
1/12/2023 2:30:00 PM 5.45 41.81 0.236 7.66 56.96 13.33
1/12/2023 2:45:00 PM 5.5 41.9 0.237 7.67 56.39 13.34
1/12/2023 3:00:00 PM 5.54 41.972 0.237 7.68 56.6 13.32
1/12/2023 3:15:00 PM 5.57 42.026 0.237 7.68 56.72 13.27
1/12/2023 3:30:00 PM 5.57 42.026 0.238 7.68 52.92 13.2
1/12/2023 3:45:00 PM 5.57 42.026 0.238 7.68 61.13 13.11
1/12/2023 4:00:00 PM 5.57 42.026 0.238 7.67 61.6 13.04
1/12/2023 4:15:00 PM 5.56 42.008 0.238 7.66 52.98 13
1/12/2023 4:30:00 PM 5.55 41.99 0.237 7.66 48.6 12.96
1/12/2023 4:45:00 PM 5.54 41.972 0.237 7.65 49.59 12.88
1/12/2023 5:00:00 PM 5.53 41.954 0.237 7.63 45.82 12.86
1/12/2023 5:15:00 PM 5.54 41.972 0.238 7.63 48.55 12.79
1/12/2023 5:30:00 PM 5.54 41.972 0.239 7.62 48.52 12.74
1/12/2023 5:45:00 PM 5.55 41.99 0.239 7.61 57.91 12.69
1/12/2023 6:00:00 PM 5.54 41.972 0.239 7.6 69.04 12.64
1/12/2023 6:15:00 PM 5.54 41.972 0.239 7.59 77.94 12.59
1/12/2023 6:30:00 PM 5.54 41.972 0.239 7.58 73.62 12.58
1/12/2023 6:45:00 PM 5.53 41.954 0.239 7.57 62.16 12.56
1/12/2023 7:00:00 PM 5.52 41.936 0.239 7.57 56.02 12.56
1/12/2023 7:15:00 PM 5.53 41.954 0.238 7.56 48.55 12.55
1/12/2023 7:30:00 PM 5.55 41.99 0.239 7.56 44.71 12.52
1/12/2023 7:45:00 PM 5.56 42.008 0.239 7.56 41.85 12.47
1/12/2023 8:00:00 PM 5.58 42.044 0.239 7.55 46.04 12.48
1/12/2023 8:15:00 PM 5.6 42.08 0.239 7.55 39.62 12.45
1/12/2023 8:30:00 PM 5.61 42.098 0.239 7.55 40.07 12.44
1/12/2023 8:45:00 PM 5.63 42.134 0.239 7.54 42.54 12.41
1/12/2023 9:00:00 PM 5.65 42.17 0.238 7.54 44.76 12.38
1/12/2023 9:15:00 PM 5.65 42.17 0.238 7.54 40.77 12.38
1/12/2023 9:30:00 PM 5.66 42.188 0.238 7.54 40.9 12.37
1/12/2023 9:45:00 PM 5.67 42.206 0.238 7.54 38.91 12.35
1/12/2023 10:00:00 PM 5.69 42.242 0.238 7.54 41.72 12.34
1/12/2023 10:15:00 PM 5.71 42.278 0.239 7.53 41.82 12.3
1/12/2023 10:30:00 PM 5.74 42.332 0.239 7.53 42.55 12.31
1/12/2023 10:45:00 PM 5.75 42.35 0.239 7.52 41.83 12.29
1/12/2023 11:00:00 PM 5.74 42.332 0.238 7.52 39.21 12.29
1/12/2023 11:15:00 PM 5.76 42.368 0.238 7.52 43.22 12.27
1/12/2023 11:30:00 PM 5.76 42.368 0.237 7.52 39.48 12.25
1/12/2023 11:45:00 PM 5.75 42.35 0.237 7.51 41.94 12.25
1/13/2023 12:00:00 AM 5.78 42.404 0.237 7.5 41.63 12.23
1/13/2023 12:15:00 AM 5.78 42.404 0.237 7.51 43.1 12.21
1/13/2023 12:30:00 AM 5.82 42.476 0.238 7.51 44.91 12.19
1/13/2023 12:45:00 AM 5.83 42.494 0.238 7.51 43.94 12.17
1/13/2023 1:00:00 AM 5.86 42.548 0.238 7.51 42.1 12.16
1/13/2023 1:15:00 AM 5.88 42.584 0.238 7.5 39.06 12.13
1/13/2023 1:30:00 AM 5.9 42.62 0.238 7.5 41.57 12.12
1/13/2023 1:45:00 AM 5.94 42.692 0.237 7.5 42.39 12.11
1/13/2023 2:00:00 AM 5.95 42.71 0.237 7.49 43.06 12.11
1/13/2023 2:15:00 AM 5.97 42.746 0.237 7.5 44.66 12.09
1/13/2023 2:30:00 AM 5.99 42.782 0.237 7.5 44.38 12.08
1/13/2023 2:45:00 AM 6.02 42.836 0.238 7.5 44.01 12.04
1/13/2023 3:00:00 AM 6.07 42.926 0.238 7.49 44.77 12.03
1/13/2023 3:15:00 AM 6.09 42.962 0.239 7.5 38.67 12
1/13/2023 3:30:00 AM 6.1 42.98 0.239 7.49 46.39 12
1/13/2023 3:45:00 AM 6.11 42.998 0.239 7.5 36.06 11.99
1/13/2023 4:00:00 AM 6.13 43.034 0.24 7.49 41.1 12
1/13/2023 4:15:00 AM 6.16 43.088 0.239 7.49 44.75 11.96
1/13/2023 4:30:00 AM 6.16 43.088 0.238 7.49 40.39 11.96
1/13/2023 4:45:00 AM 6.14 43.052 0.238 7.49 46.13 11.97
1/13/2023 5:00:00 AM 6.17 43.106 0.239 7.48 43.49 11.96
1/13/2023 5:15:00 AM 6.2 43.16 0.239 7.48 46.06 11.91
1/13/2023 5:30:00 AM 6.18 43.124 0.239 7.49 45.51 11.92
1/13/2023 5:45:00 AM 6.19 43.142 0.239 7.49 38.63 11.93
1/13/2023 6:00:00 AM 6.2 43.16 0.239 7.48 42.52 11.92
1/13/2023 6:15:00 AM 6.23 43.214 0.238 7.48 44.77 11.9
1/13/2023 6:30:00 AM 6.2 43.16 0.238 7.48 46.17 11.91
1/13/2023 6:45:00 AM 6.21 43.178 0.238 7.48 43.13 11.9
1/13/2023 7:00:00 AM 6.2 43.16 0.238 7.48 42.27 11.9
1/13/2023 7:15:00 AM 6.23 43.214 0.238 7.48 44.51 11.9
1/13/2023 7:30:00 AM 6.21 43.178 0.239 7.48 44.55 11.9
1/13/2023 7:45:00 AM 6.2 43.16 0.24 7.48 41.72 11.9
1/13/2023 8:00:00 AM 6.2 43.16 0.24 7.48 46.52 11.89
1/13/2023 8:15:00 AM 6.16 43.088 0.239 7.48 41.55 11.92
1/13/2023 8:30:00 AM 6.15 43.07 0.239 7.49 51.28 11.98
1/13/2023 8:45:00 AM 6.17 43.106 0.239 7.49 51.27 12.03
1/13/2023 9:00:00 AM 6.2 43.16 0.238 7.49 49.87 12.11
1/13/2023 9:15:00 AM 6.21 43.178 0.238 7.51 55.8 12.18
1/13/2023 9:30:00 AM 6.16 43.088 0.238 7.51 70.38 12.22
1/13/2023 9:45:00 AM 6.19 43.142 0.238 7.51 73.65 12.29
1/13/2023 10:00:00 AM 6.27 43.286 0.238 7.52 64.38 12.35
1/13/2023 10:15:00 AM 6.28 43.304 0.238 7.54 60.9 12.45
1/13/2023 10:30:00 AM 6.27 43.286 0.237 7.56 53.29 12.54
1/13/2023 10:45:00 AM 6.3 43.34 0.237 7.58 60.72 12.59
1/13/2023 11:00:00 AM 6.36 43.448 0.236 7.58 56.6 12.64
1/13/2023 11:15:00 AM 6.38 43.484 0.236 7.59 57.03 12.7
1/13/2023 11:30:00 AM 6.41 43.538 0.236 7.62 55.21 12.77
1/13/2023 11:45:00 AM 6.5 43.7 0.236 7.62 52.77 12.8
1/13/2023 12:00:00 PM 6.5 43.7 0.236 7.65 54.67 12.84
1/13/2023 12:15:00 PM 6.58 43.844 0.236 7.65 63.98 12.88
1/13/2023 12:30:00 PM 6.6 43.88 0.237 7.68 51.91 12.89
1/13/2023 12:45:00 PM 6.67 44.006 0.237 7.69 60.45 12.89
1/13/2023 1:00:00 PM 6.68 44.024 0.237 7.7 58.63 12.91
1/13/2023 1:15:00 PM 6.73 44.114 0.237 7.71 59.14 12.88
1/13/2023 1:30:00 PM 6.69 44.042 0.237 7.73 57.95 12.91
1/13/2023 1:45:00 PM 6.71 44.078 0.237 7.73 61.06 12.9
1/13/2023 2:00:00 PM 6.77 44.186 0.237 7.73 59.8 12.9
1/13/2023 2:15:00 PM 6.74 44.132 0.237 7.74 69.19 12.89
1/13/2023 2:30:00 PM 6.65 43.97 0.237 7.76 58.62 12.84
1/13/2023 2:45:00 PM 6.63 43.934 0.238 7.75 66.93 12.83
1/13/2023 3:00:00 PM 6.61 43.898 0.239 7.74 73.43 12.78
1/13/2023 3:15:00 PM 6.53 43.754 0.239 7.74 59.6 12.76
1/13/2023 3:30:00 PM 6.57 43.826 0.24 7.74 55.11 12.77
1/13/2023 3:45:00 PM 6.45 43.61 0.24 7.75 53.87 12.74
1/13/2023 4:00:00 PM 6.38 43.484 0.24 7.74 74.16 12.7
1/13/2023 4:15:00 PM 6.37 43.466 0.24 7.73 73.85 12.66
1/13/2023 4:30:00 PM 6.34 43.412 0.239 7.72 58.75 12.67
1/13/2023 4:45:00 PM 6.33 43.394 0.239 7.71 60.63 12.62
1/13/2023 5:00:00 PM 6.3 43.34 0.239 7.71 56.95 12.6
1/13/2023 5:15:00 PM 6.22 43.196 0.239 7.7 56.03 12.54
1/13/2023 5:30:00 PM 6.22 43.196 0.239 7.69 54.82 12.5
1/13/2023 5:45:00 PM 6.1 42.98 0.239 7.68 57 12.48
1/13/2023 6:00:00 PM 6.14 43.052 0.239 7.67 48.07 12.44
1/13/2023 6:15:00 PM 6.11 42.998 0.238 7.65 55.67 12.39
1/13/2023 6:30:00 PM 6.03 42.854 0.238 7.64 98.49 12.37
1/13/2023 6:45:00 PM 6.05 42.89 0.237 7.62 136.6 12.32
1/13/2023 7:00:00 PM 5.92 42.656 0.236 7.6 145 12.28
1/13/2023 7:15:00 PM 5.89 42.602 0.236 7.58 124.2 12.29
1/13/2023 7:30:00 PM 5.91 42.638 0.237 7.58 101.4 12.28
1/13/2023 7:45:00 PM 5.85 42.53 0.237 7.57 84.3 12.3
1/13/2023 8:00:00 PM 5.87 42.566 0.236 7.58 69.63 12.28
1/13/2023 8:15:00 PM 5.83 42.494 0.236 7.58 65.86 12.26
1/13/2023 8:30:00 PM 5.79 42.422 0.236 7.57 63.92 12.28
1/13/2023 8:45:00 PM 5.8 42.44 0.236 7.57 61.5 12.28
1/13/2023 9:00:00 PM 5.74 42.332 0.235 7.57 61.77 12.29
1/13/2023 9:15:00 PM 5.75 42.35 0.235 7.56 57.2 12.27
1/13/2023 9:30:00 PM 5.68 42.224 0.235 7.56 66.17 12.28
1/13/2023 9:45:00 PM 5.66 42.188 0.235 7.56 59.05 12.27
1/13/2023 10:00:00 PM 5.66 42.188 0.235 7.56 59.9 12.27
1/13/2023 10:15:00 PM 5.66 42.188 0.236 7.55 60.09 12.26
1/13/2023 10:30:00 PM 5.65 42.17 0.235 7.54 65.97 12.25
1/13/2023 10:45:00 PM 5.6 42.08 0.236 7.54 70.52 12.26
1/13/2023 11:00:00 PM 5.56 42.008 0.236 7.55 72.03 12.26
1/13/2023 11:15:00 PM 5.57 42.026 0.236 7.54 75.32 12.25
1/13/2023 11:30:00 PM 5.57 42.026 0.235 7.54 79.23 12.24
1/13/2023 11:45:00 PM 5.5 41.9 0.235 7.53 79.77 12.22
1/14/2023 12:00:00 AM 5.42 41.756 0.235 7.54 73.3 12.26
1/14/2023 12:15:00 AM 5.42 41.756 0.236 7.53 72.09 12.25
1/14/2023 12:30:00 AM 5.41 41.738 0.236 7.53 73.8 12.24
1/14/2023 12:45:00 AM 5.37 41.666 0.237 7.53 72.41 12.24
1/14/2023 1:00:00 AM 5.35 41.63 0.237 7.53 71.92 12.22
1/14/2023 1:15:00 AM 5.28 41.504 0.237 7.53 70.39 12.25
1/14/2023 1:30:00 AM 5.24 41.432 0.237 7.53 65.45 12.26
1/14/2023 1:45:00 AM 5.24 41.432 0.237 7.53 66.42 12.28
1/14/2023 2:00:00 AM 5.21 41.378 0.236 7.53 73.3 12.28
1/14/2023 2:15:00 AM 5.14 41.252 0.236 7.53 72.31 12.29
1/14/2023 2:30:00 AM 5.07 41.126 0.236 7.53 67 12.31
1/14/2023 2:45:00 AM 5.04 41.072 0.237 7.52 78.84 12.32
1/14/2023 3:00:00 AM 5.06 41.108 0.237 7.52 83.31 12.29
1/14/2023 3:15:00 AM 5.03 41.054 0.237 7.51 79.8 12.3
1/14/2023 3:30:00 AM 4.97 40.946 0.238 7.51 81 12.32
1/14/2023 3:45:00 AM 4.96 40.928 0.238 7.51 77.04 12.32
1/14/2023 4:00:00 AM 4.93 40.874 0.238 7.52 77.67 12.33
1/14/2023 4:15:00 AM 4.91 40.838 0.237 7.51 66.27 12.36
1/14/2023 4:30:00 AM 4.86 40.748 0.237 7.52 67.43 12.36
1/14/2023 4:45:00 AM 4.86 40.748 0.237 7.52 59.41 12.38
1/14/2023 5:00:00 AM 4.83 40.694 0.237 7.52 55.7 12.38
1/14/2023 5:15:00 AM 4.8 40.64 0.238 7.52 59.81 12.4
1/14/2023 5:30:00 AM 4.76 40.568 0.238 7.52 63.34 12.42
1/14/2023 5:45:00 AM 4.71 40.478 0.238 7.52 61.87 12.42
1/14/2023 6:00:00 AM 4.69 40.442 0.237 7.53 54.4 12.43
1/14/2023 6:15:00 AM 4.7 40.46 0.237 7.52 61.99 12.42
1/14/2023 6:30:00 AM 4.66 40.388 0.237 7.52 61.91 12.45
1/14/2023 6:45:00 AM 4.63 40.334 0.237 7.52 63.51 12.45
1/14/2023 7:00:00 AM 4.58 40.244 0.236 7.52 57.14 12.47
1/14/2023 7:15:00 AM 4.54 40.172 0.236 7.52 52.34 12.48
1/14/2023 7:30:00 AM 4.53 40.154 0.236 7.51 60.24 12.52
1/14/2023 7:45:00 AM 4.5 40.1 0.237 7.52 63.32 12.52
1/14/2023 8:00:00 AM 4.48 40.064 0.236 7.51 89 12.52
1/14/2023 8:15:00 AM 4.46 40.028 0.236 7.5 107.6 12.52
1/14/2023 8:30:00 AM 4.44 39.992 0.236 7.5 111.8 12.54
1/14/2023 8:45:00 AM 4.43 39.974 0.236 7.5 110 12.59
1/14/2023 9:00:00 AM 4.39 39.902 0.236 7.51 90.94 12.65
1/14/2023 9:15:00 AM 4.39 39.902 0.237 7.52 87.81 12.7
1/14/2023 9:30:00 AM 4.39 39.902 0.236 7.52 89.67 12.74
1/14/2023 9:45:00 AM 4.38 39.884 0.236 7.53 96.18 12.78
1/14/2023 10:00:00 AM 4.38 39.884 0.236 7.53 108.4 12.84
1/14/2023 10:15:00 AM 4.37 39.866 0.237 7.54 95.75 12.9
1/14/2023 10:30:00 AM 4.37 39.866 0.237 7.54 90.73 12.96
1/14/2023 10:45:00 AM 4.36 39.848 0.236 7.56 73.82 13.04
1/14/2023 11:00:00 AM 4.37 39.866 0.236 7.57 82.28 13.11
1/14/2023 11:15:00 AM 4.37 39.866 0.236 7.58 77.29 13.14
1/14/2023 11:30:00 AM 4.39 39.902 0.236 7.58 77 13.24
1/14/2023 11:45:00 AM 4.42 39.956 0.236 7.59 77.88 13.29
1/14/2023 12:00:00 PM 4.42 39.956 0.236 7.61 65.88 13.33
1/14/2023 12:15:00 PM 4.44 39.992 0.236 7.62 77.52 13.4
1/14/2023 12:30:00 PM 4.47 40.046 0.236 7.64 70.24 13.44
1/14/2023 12:45:00 PM 4.49 40.082 0.237 7.65 71.86 13.5
1/14/2023 1:00:00 PM 4.51 40.118 0.237 7.65 82.38 13.46
1/14/2023 1:15:00 PM 4.53 40.154 0.236 7.67 85.09 13.51
1/14/2023 1:30:00 PM 4.53 40.154 0.236 7.67 82.82 13.51
1/14/2023 1:45:00 PM 4.54 40.172 0.236 7.68 91.13 13.54
1/14/2023 2:00:00 PM 4.55 40.19 0.236 7.68 107 13.52
1/14/2023 2:15:00 PM 4.55 40.19 0.236 7.68 113.5 13.52
1/14/2023 2:30:00 PM 4.55 40.19 0.236 7.68 100.9 13.53
1/14/2023 2:45:00 PM 4.54 40.172 0.237 7.69 85.7 13.57
1/14/2023 3:00:00 PM 4.53 40.154 0.237 7.7 78.25 13.58
1/14/2023 3:15:00 PM 4.51 40.118 0.238 7.71 84.95 13.58
1/14/2023 3:30:00 PM 4.48 40.064 0.238 7.71 84.57 13.59
1/14/2023 3:45:00 PM 4.46 40.028 0.238 7.72 84.89 13.56
1/14/2023 4:00:00 PM 4.42 39.956 0.238 7.71 78.2 13.53
1/14/2023 4:15:00 PM 4.39 39.902 0.238 7.72 81.03 13.53
1/14/2023 4:30:00 PM 4.35 39.83 0.238 7.71 122.2 13.48
1/14/2023 4:45:00 PM 4.29 39.722 0.237 7.7 126.2 13.45
1/14/2023 5:00:00 PM 4.23 39.614 0.238 7.69 110 13.42
1/14/2023 5:15:00 PM 4.17 39.506 0.239 7.69 94.3 13.42
1/14/2023 5:30:00 PM 4.12 39.416 0.239 7.68 82.32 13.38
1/14/2023 5:45:00 PM 4.07 39.326 0.24 7.68 82.03 13.35
1/14/2023 6:00:00 PM 4.02 39.236 0.24 7.67 97.84 13.3
1/14/2023 6:15:00 PM 3.97 39.146 0.24 7.66 109.9 13.28
1/14/2023 6:30:00 PM 3.93 39.074 0.24 7.64 107.4 13.25
1/14/2023 6:45:00 PM 3.89 39.002 0.24 7.64 115.7 13.24
1/14/2023 7:00:00 PM 3.85 38.93 0.24 7.61 131.1 13.2
1/14/2023 7:15:00 PM 3.81 38.858 0.24 7.61 106.7 13.19
1/14/2023 7:30:00 PM 3.77 38.786 0.24 7.61 79.01 13.21
1/14/2023 7:45:00 PM 3.74 38.732 0.241 7.61 68.66 13.2
1/14/2023 8:00:00 PM 3.71 38.678 0.241 7.61 59.18 13.21
1/14/2023 8:15:00 PM 3.68 38.624 0.241 7.6 59.98 13.2
1/14/2023 8:30:00 PM 3.65 38.57 0.241 7.6 54.62 13.2
1/14/2023 8:45:00 PM 3.62 38.516 0.241 7.61 57.82 13.17
1/14/2023 9:00:00 PM 3.58 38.444 0.241 7.6 58.87 13.19
1/14/2023 9:15:00 PM 3.54 38.372 0.241 7.6 57.09 13.19
1/14/2023 9:30:00 PM 3.51 38.318 0.24 7.6 55.69 13.2
1/14/2023 9:45:00 PM 3.47 38.246 0.24 7.6 56.8 13.2
1/14/2023 10:00:00 PM 3.43 38.174 0.241 7.6 47.9 13.21
1/14/2023 10:15:00 PM 3.4 38.12 0.242 7.6 50.38 13.19
1/14/2023 10:30:00 PM 3.35 38.03 0.242 7.59 48.53 13.21
1/14/2023 10:45:00 PM 3.3 37.94 0.242 7.59 51.96 13.24
1/14/2023 11:00:00 PM 3.29 37.922 0.242 7.6 49.42 13.23
1/14/2023 11:15:00 PM 3.27 37.886 0.242 7.59 50.38 13.25
1/14/2023 11:30:00 PM 3.24 37.832 0.242 7.59 48.47 13.25
1/14/2023 11:45:00 PM 3.21 37.778 0.241 7.57 48.34 13.27
1/15/2023 12:00:00 AM 3.19 37.742 0.241 7.57 52.22 13.3
1/15/2023 12:15:00 AM 3.16 37.688 0.241 7.58 52.57 13.3
1/15/2023 12:30:00 AM 3.12 37.616 0.242 7.59 49.02 13.31
1/15/2023 12:45:00 AM 3.1 37.58 0.242 7.58 52.73 13.28
1/15/2023 1:00:00 AM 3.08 37.544 0.242 7.58 48.06 13.31
1/15/2023 1:15:00 AM 3.05 37.49 0.242 7.58 44.83 13.3
1/15/2023 1:30:00 AM 3.02 37.436 0.242 7.58 49.28 13.31
1/15/2023 1:45:00 AM 2.97 37.346 0.242 7.57 43.65 13.34
1/15/2023 2:00:00 AM 2.95 37.31 0.241 7.58 50.84 13.33
1/15/2023 2:15:00 AM 2.92 37.256 0.241 7.58 48.99 13.33
1/15/2023 2:30:00 AM 2.89 37.202 0.241 7.56 51.37 13.34
1/15/2023 2:45:00 AM 2.88 37.184 0.241 7.57 53.23 13.34
1/15/2023 3:00:00 AM 2.85 37.13 0.242 7.57 48.41 13.35
1/15/2023 3:15:00 AM 2.81 37.058 0.242 7.57 47.36 13.37
1/15/2023 3:30:00 AM 2.8 37.04 0.242 7.58 43.73 13.38
1/15/2023 3:45:00 AM 2.77 36.986 0.242 7.57 50.83 13.37
1/15/2023 4:00:00 AM 2.76 36.968 0.242 7.57 53.53 13.39
1/15/2023 4:15:00 AM 2.74 36.932 0.242 7.57 45.26 13.39
1/15/2023 4:30:00 AM 2.73 36.914 0.242 7.57 46.27 13.41
1/15/2023 4:45:00 AM 2.71 36.878 0.242 7.56 48.17 13.39
1/15/2023 5:00:00 AM 2.69 36.842 0.241 7.57 42.4 13.41
1/15/2023 5:15:00 AM 2.67 36.806 0.242 7.56 49.72 13.43
1/15/2023 5:30:00 AM 2.63 36.734 0.243 7.56 47.12 13.44
1/15/2023 5:45:00 AM 2.64 36.752 0.243 7.56 45.28 13.44
1/15/2023 6:00:00 AM 2.63 36.734 0.242 7.57 44.1 13.44
1/15/2023 6:15:00 AM 2.59 36.662 0.242 7.56 51.46 13.45
1/15/2023 6:30:00 AM 2.57 36.626 0.242 7.56 44.32 13.46
1/15/2023 6:45:00 AM 2.56 36.608 0.241 7.56 46.05 13.47
1/15/2023 7:00:00 AM 2.56 36.608 0.241 7.56 46 13.45
1/15/2023 7:15:00 AM 2.53 36.554 0.241 7.56 45.22 13.48
1/15/2023 7:30:00 AM 2.53 36.554 0.241 7.56 51.07 13.49
1/15/2023 7:45:00 AM 2.49 36.482 0.242 7.56 48.93 13.51
1/15/2023 8:00:00 AM 2.45 36.41 0.242 7.56 49.82 13.56
1/15/2023 8:15:00 AM 2.44 36.392 0.242 7.56 53.92 13.59
1/15/2023 8:30:00 AM 2.43 36.374 0.242 7.56 53.74 13.65
1/15/2023 8:45:00 AM 2.41 36.338 0.241 7.57 56.29 13.72
1/15/2023 9:00:00 AM 2.45 36.41 0.241 7.57 64.99 13.76
1/15/2023 9:15:00 AM 2.48 36.464 0.241 7.57 94.74 13.76
1/15/2023 9:30:00 AM 2.52 36.536 0.24 7.57 126.2 13.8
1/15/2023 9:45:00 AM 2.57 36.626 0.24 7.56 144.4 13.83
1/15/2023 10:00:00 AM 2.63 36.734 0.241 7.55 146.5 13.87
1/15/2023 10:15:00 AM 2.69 36.842 0.241 7.56 140 13.89
1/15/2023 10:30:00 AM 2.76 36.968 0.24 7.57 135.3 13.91
1/15/2023 10:45:00 AM 2.83 37.094 0.24 7.57 111.8 14
1/15/2023 11:00:00 AM 2.95 37.31 0.239 7.59 101.8 14.03
1/15/2023 11:15:00 AM 3.07 37.526 0.239 7.59 108.8 14.05
1/15/2023 11:30:00 AM 3.22 37.796 0.239 7.6 107.5 14.07
1/15/2023 11:45:00 AM 3.34 38.012 0.239 7.61 98.05 14.09
1/15/2023 12:00:00 PM 3.49 38.282 0.239 7.63 83.74 14.1
1/15/2023 12:15:00 PM 3.61 38.498 0.239 7.63 88.78 14.07
1/15/2023 12:30:00 PM 3.68 38.624 0.239 7.64 86.82 14.08
1/15/2023 12:45:00 PM 3.75 38.75 0.239 7.65 100.3 14.06
1/15/2023 1:00:00 PM 3.88 38.984 0.239 7.64 110.2 14.03
1/15/2023 1:15:00 PM 3.94 39.092 0.239 7.65 113.9 13.97
1/15/2023 1:30:00 PM 4.04 39.272 0.238 7.65 106.2 13.96
1/15/2023 1:45:00 PM 4.09 39.362 0.238 7.65 100.5 13.97
1/15/2023 2:00:00 PM 4.14 39.452 0.238 7.67 94.46 13.96
1/15/2023 2:15:00 PM 4.14 39.452 0.238 7.67 98.52 13.98
1/15/2023 2:30:00 PM 4.13 39.434 0.238 7.67 85.5 13.96
1/15/2023 2:45:00 PM 4.21 39.578 0.239 7.68 85.41 13.93
1/15/2023 3:00:00 PM 4.14 39.452 0.239 7.68 91.37 13.94
1/15/2023 3:15:00 PM 4.09 39.362 0.24 7.69 81.91 13.96
1/15/2023 3:30:00 PM 4.05 39.29 0.24 7.69 87.17 13.93
1/15/2023 3:45:00 PM 3.93 39.074 0.24 7.69 89.17 13.9
1/15/2023 4:00:00 PM 3.86 38.948 0.24 7.69 100.1 13.91
1/15/2023 4:15:00 PM 3.78 38.804 0.24 7.68 89.54 13.87
1/15/2023 4:30:00 PM 3.72 38.696 0.239 7.69 82.99 13.85
1/15/2023 4:45:00 PM 3.63 38.534 0.239 7.69 81.39 13.85
1/15/2023 5:00:00 PM 3.58 38.444 0.239 7.69 78.2 13.82
1/15/2023 5:15:00 PM 3.5 38.3 0.24 7.68 76.32 13.81
1/15/2023 5:30:00 PM 3.44 38.192 0.241 7.68 61.97 13.79
1/15/2023 5:45:00 PM 3.39 38.102 0.241 7.67 86.22 13.77
1/15/2023 6:00:00 PM 3.32 37.976 0.241 7.67 63.64 13.73
1/15/2023 6:15:00 PM 3.27 37.886 0.242 7.66 59.76 13.74
1/15/2023 6:30:00 PM 3.19 37.742 0.242 7.65 72.14 13.7
1/15/2023 6:45:00 PM 3.14 37.652 0.242 7.64 92.58 13.65
1/15/2023 7:00:00 PM 3.1 37.58 0.242 7.63 102.4 13.65
1/15/2023 7:15:00 PM 3.07 37.526 0.241 7.62 93.76 13.63
1/15/2023 7:30:00 PM 3.02 37.436 0.242 7.62 73.27 13.62
1/15/2023 7:45:00 PM 3 37.4 0.242 7.61 62.11 13.61
1/15/2023 8:00:00 PM 2.96 37.328 0.243 7.62 51.83 13.61
1/15/2023 8:15:00 PM 2.93 37.274 0.243 7.61 60.95 13.6
1/15/2023 8:30:00 PM 2.9 37.22 0.243 7.61 52.24 13.58
1/15/2023 8:45:00 PM 2.87 37.166 0.243 7.61 43.38 13.6
1/15/2023 9:00:00 PM 2.85 37.13 0.243 7.6 48.93 13.59
1/15/2023 9:15:00 PM 2.85 37.13 0.243 7.59 47.9 13.58
1/15/2023 9:30:00 PM 2.86 37.148 0.242 7.6 43.92 13.59
1/15/2023 9:45:00 PM 2.84 37.112 0.242 7.59 44.71 13.57
1/15/2023 10:00:00 PM 2.83 37.094 0.242 7.59 51.15 13.56
1/15/2023 10:15:00 PM 2.83 37.094 0.243 7.59 46.3 13.55
1/15/2023 10:30:00 PM 2.82 37.076 0.243 7.59 53.72 13.55
1/15/2023 10:45:00 PM 2.81 37.058 0.243 7.59 43.76 13.54
1/15/2023 11:00:00 PM 2.79 37.022 0.243 7.59 47.81 13.54
1/15/2023 11:15:00 PM 2.79 37.022 0.244 7.58 58 13.54
1/15/2023 11:30:00 PM 2.79 37.022 0.243 7.58 44.75 13.52
1/15/2023 11:45:00 PM 2.79 37.022 0.243 7.59 40.29 13.53
1/16/2023 12:00:00 AM 2.76 36.968 0.243 7.58 41.31 13.54
1/16/2023 12:15:00 AM 2.75 36.95 0.243 7.58 55.91 13.53
1/16/2023 12:30:00 AM 2.72 36.896 0.243 7.58 41.86 13.53
1/16/2023 12:45:00 AM 2.71 36.878 0.244 7.58 42.77 13.52
1/16/2023 1:00:00 AM 2.68 36.824 0.244 7.58 44.07 13.55
1/16/2023 1:15:00 AM 2.64 36.752 0.244 7.58 42.46 13.54
1/16/2023 1:30:00 AM 2.63 36.734 0.244 7.57 48.39 13.54
1/16/2023 1:45:00 AM 2.59 36.662 0.244 7.58 46.97 13.54
1/16/2023 2:00:00 AM 2.55 36.59 0.243 7.58 54.14 13.55
1/16/2023 2:15:00 AM 2.53 36.554 0.243 7.58 54.66 13.55
1/16/2023 2:30:00 AM 2.52 36.536 0.242 7.57 42.81 13.55
1/16/2023 2:45:00 AM 2.47 36.446 0.243 7.57 58.22 13.55
1/16/2023 3:00:00 AM 2.45 36.41 0.243 7.57 49.81 13.56
1/16/2023 3:15:00 AM 2.42 36.356 0.244 7.57 42.24 13.57
1/16/2023 3:30:00 AM 2.39 36.302 0.244 7.57 40.07 13.57
1/16/2023 3:45:00 AM 2.36 36.248 0.244 7.57 54.33 13.58
1/16/2023 4:00:00 AM 2.32 36.176 0.244 7.56 44.31 13.59
1/16/2023 4:15:00 AM 2.27 36.086 0.244 7.56 47.65 13.61
1/16/2023 4:30:00 AM 2.24 36.032 0.243 7.56 50.29 13.6
1/16/2023 4:45:00 AM 2.26 36.068 0.243 7.56 36.97 13.61
1/16/2023 5:00:00 AM 2.22 35.996 0.243 7.56 44.38 13.63
1/16/2023 5:15:00 AM 2.19 35.942 0.243 7.55 40.83 13.62
1/16/2023 5:30:00 AM 2.17 35.906 0.244 7.56 39.6 13.65
1/16/2023 5:45:00 AM 2.13 35.834 0.244 7.56 35.41 13.67
1/16/2023 6:00:00 AM 2.09 35.762 0.244 7.56 36.87 13.65
1/16/2023 6:15:00 AM 2.09 35.762 0.243 7.56 40.26 13.65
1/16/2023 6:30:00 AM 2.08 35.744 0.243 7.56 40.01 13.68
1/16/2023 6:45:00 AM 2.05 35.69 0.243 7.56 40.65 13.67
1/16/2023 7:00:00 AM 2.05 35.69 0.243 7.56 39.59 13.67
1/16/2023 7:15:00 AM 1.98 35.564 0.243 7.56 39.1 13.68
1/16/2023 7:30:00 AM 1.98 35.564 0.242 7.55 49.39 13.71
1/16/2023 7:45:00 AM 1.98 35.564 0.243 7.55 45.01 13.74
1/16/2023 8:00:00 AM